Darstellungsparameter: Aktuell verwendete Einstellungen:
Skalierung der Graphiken ... ?
xyx+y,   Skalierungsfaktor:      Skalierung: Modus: x, Faktor: 1
Darstellungszeitraum ... ?
Vom - - bis: - -   Zeitraum: 18.08.2007 - 17.11.2007
Min/Max/Avg-Anzeige ... ?
Zeige MMA aktuell
Zeige MMA Monat
Zeige MMA alles
Zeige --A aktuell
Zeige --A Monat
Zeige --A alles
Keine MMA-Anzeige
MMA:
Average (ber die Originaldaten)
MMA-Basis: 17.04.2019 - 19.05.2019
Quicknavigation für Darstellung... ?
Tage:      1T, 2T, 3T, 5T -1T -2T -3T -5T +1T +2T +3T +5T
Wochen: 1W, 2W, 3W -1W -2W -3W +1W +2W +3W
Monate: 1M, 3M, 6M -1M -3M -6M +1M +3M +6M
Jahre:    1J, 3J, 5J, 10J -1J -3J -5J -10J +1J +3J +5J +10J
Nutze für die Darstellung ... ?
Originaldaten oder ...
Mittelwerte Minima Maxima auf...
Stundenbasis Tagesbasis Wochenbasis
Monatsbasis Jahresbasis      Datenbasis: Mittelwerte auf Stundenbasis
Darstellen als:
Statistik (Auto) Statistik J:M      Darstellung:
Zur Graphik,    zurück zur Übersicht aller Sensoren.
 
Tabellarische Datenbersicht: ?
 
Sensor: Nr:Datum:Temp:Abs-Feuchte:Windchill:Wind:
Aussen-T/F 1 18-08-2007 00:00:00 15.76 C 7.41 g/m*3 15.76 C 0 km/h
2 18-08-2007 01:00:00 15.46 C 7.54 g/m*3 15.46 C 0 km/h
3 18-08-2007 02:00:00 14.14 C 7.59 g/m*3 14.14 C 0 km/h
4 18-08-2007 03:00:00 12.94 C 7.71 g/m*3 12.94 C 0 km/h
5 18-08-2007 04:00:00 11.9 C 7.94 g/m*3 11.9 C 0 km/h
6 18-08-2007 05:00:00 11.22 C 7.96 g/m*3 11.22 C 0 km/h
7 18-08-2007 06:00:00 10.52 C 7.81 g/m*3 10.52 C 0 km/h
8 18-08-2007 07:00:00 10.58 C 8.01 g/m*3 10.58 C 0 km/h
9 18-08-2007 08:00:00 11.62 C 8.35 g/m*3 11.62 C 0 km/h
10 18-08-2007 09:00:00 13.4 C 8.67 g/m*3 13.4 C 0 km/h
11 18-08-2007 10:00:00 16.52 C 8.74 g/m*3 16.52 C 0 km/h
12 18-08-2007 11:00:00 19.14 C 8.12 g/m*3 19.14 C 0 km/h
13 18-08-2007 12:00:00 20.48 C 7.93 g/m*3 20.48 C 0 km/h
14 18-08-2007 13:00:00 22.16 C 7.29 g/m*3 22.16 C 0 km/h
15 18-08-2007 14:00:00 23.9 C 6.53 g/m*3 23.9 C 0 km/h
16 18-08-2007 15:00:00 24.28 C 6.23 g/m*3 24.28 C 0 km/h
17 18-08-2007 16:00:00 24.38 C 6.49 g/m*3 24.38 C 0 km/h
18 18-08-2007 17:00:00 24.22 C 6.83 g/m*3 24.22 C 0 km/h
19 18-08-2007 18:00:00 24.5 C 6.85 g/m*3 24.5 C 0 km/h
20 18-08-2007 19:00:00 22.56 C 7.42 g/m*3 22.56 C 0 km/h
21 18-08-2007 20:00:00 18.88 C 7.02 g/m*3 18.88 C 0 km/h
22 18-08-2007 21:00:00 17.02 C 7.33 g/m*3 17.02 C 0 km/h
23 18-08-2007 22:00:00 16.58 C 7.59 g/m*3 16.58 C 0 km/h
24 18-08-2007 23:00:00 15.66 C 7.85 g/m*3 15.66 C 0 km/h
25 19-08-2007 00:00:00 14.8 C 8.18 g/m*3 14.8 C 0 km/h
Sensor: Nr:Datum:Temp:Abs-Feuchte:Windchill:Wind:
Aussen-T/F 26 19-08-2007 01:00:00 14.76 C 8.47 g/m*3 14.76 C 0 km/h
27 19-08-2007 02:00:00 13.8 C 8.2 g/m*3 13.8 C 0 km/h
28 19-08-2007 03:00:00 12.96 C 8.15 g/m*3 12.96 C 0 km/h
29 19-08-2007 04:00:00 12.96 C 8.39 g/m*3 12.96 C 0 km/h
30 19-08-2007 05:00:00 13.2 C 8.52 g/m*3 13.2 C 0 km/h
31 19-08-2007 06:00:00 13.32 C 8.77 g/m*3 13.32 C 0 km/h
32 19-08-2007 07:00:00 13.82 C 8.95 g/m*3 13.82 C 0 km/h
33 19-08-2007 08:00:00 14.38 C 9.21 g/m*3 14.38 C 0 km/h
34 19-08-2007 09:00:00 15.3 C 9.77 g/m*3 15.3 C 0 km/h
35 19-08-2007 10:00:00 17.68 C 9.64 g/m*3 17.68 C 0 km/h
36 19-08-2007 11:00:00 20.68 C 9.53 g/m*3 20.68 C 0 km/h
37 19-08-2007 12:00:00 22.42 C 9.38 g/m*3 22.42 C 0 km/h
38 19-08-2007 13:00:00 21 C 10.48 g/m*3 21 C 0 km/h
39 19-08-2007 14:00:00 23.34 C 8.51 g/m*3 23.34 C 0 km/h
40 19-08-2007 15:00:00 26.44 C 6.74 g/m*3 26.44 C 0 km/h
41 19-08-2007 16:00:00 25.72 C 6.81 g/m*3 25.72 C 0 km/h
42 19-08-2007 17:00:00 20.7 C 11.45 g/m*3 20.7 C 0 km/h
43 19-08-2007 18:00:00 19.24 C 13.42 g/m*3 19.24 C 0 km/h
44 19-08-2007 19:00:00 17.82 C 12.52 g/m*3 17.82 C 0 km/h
45 19-08-2007 20:00:00 15.58 C 11.32 g/m*3 15.58 C 0 km/h
46 19-08-2007 21:00:00 14.52 C 11.01 g/m*3 14.52 C 0 km/h
47 19-08-2007 22:00:00 14.52 C 11.13 g/m*3 14.52 C 0 km/h
48 19-08-2007 23:00:00 14.94 C 11.55 g/m*3 14.94 C 0 km/h
49 20-08-2007 00:00:00 15.34 C 11.73 g/m*3 15.34 C 0 km/h
50 20-08-2007 01:00:00 15.54 C 11.61 g/m*3 15.54 C 0 km/h
Sensor: Nr:Datum:Temp:Abs-Feuchte:Windchill:Wind:
Aussen-T/F 51 20-08-2007 02:00:00 15.3 C 11.6 g/m*3 15.3 C 0 km/h
52 20-08-2007 03:00:00 15.74 C 11.86 g/m*3 15.74 C 0 km/h
53 20-08-2007 04:00:00 16.22 C 11.21 g/m*3 16.22 C 0 km/h
54 20-08-2007 05:00:00 16.1 C 10.55 g/m*3 16.1 C 0 km/h
55 20-08-2007 06:00:00 15.68 C 10.13 g/m*3 15.68 C 0 km/h
56 20-08-2007 07:00:00 15.42 C 9.63 g/m*3 15.42 C 0 km/h
57 20-08-2007 08:00:00 15.56 C 9.26 g/m*3 15.56 C 0 km/h
58 20-08-2007 09:00:00 17.04 C 8.88 g/m*3 17.04 C 0 km/h
59 20-08-2007 10:00:00 17.66 C 8.73 g/m*3 17.66 C 0 km/h
60 20-08-2007 11:00:00 18.22 C 8.31 g/m*3 18.22 C 0 km/h
61 20-08-2007 12:00:00 18.6 C 8.15 g/m*3 18.6 C 0 km/h
62 20-08-2007 13:00:00 19.3 C 8.19 g/m*3 19.3 C 0 km/h
63 20-08-2007 14:00:00 20.04 C 8.31 g/m*3 20.04 C 0 km/h
64 20-08-2007 15:00:00 20.6 C 8.45 g/m*3 20.6 C 0 km/h
65 20-08-2007 16:00:00 20.32 C 8.38 g/m*3 20.32 C 0 km/h
66 20-08-2007 17:00:00 20.06 C 8.6 g/m*3 20.06 C 0 km/h
67 20-08-2007 18:00:00 19.66 C 8.57 g/m*3 19.66 C 0 km/h
68 20-08-2007 19:00:00 18.72 C 8.88 g/m*3 18.72 C 0 km/h
69 20-08-2007 20:00:00 17.46 C 9.07 g/m*3 17.46 C 0 km/h
70 20-08-2007 21:00:00 16.92 C 9.39 g/m*3 16.92 C 0 km/h
71 20-08-2007 22:00:00 15.6 C 9.6 g/m*3 15.6 C 0 km/h
72 20-08-2007 23:00:00 14.46 C 9.55 g/m*3 14.46 C 0 km/h
73 21-08-2007 00:00:00 13.6 C 9.63 g/m*3 13.6 C 0 km/h
74 21-08-2007 01:00:00 12.84 C 9.39 g/m*3 12.84 C 0 km/h
75 21-08-2007 02:00:00 12.28 C 9.28 g/m*3 12.28 C 0 km/h
Sensor: Nr:Datum:Temp:Abs-Feuchte:Windchill:Wind:
Aussen-T/F 76 21-08-2007 03:00:00 11.64 C 9.11 g/m*3 11.64 C 0 km/h
77 21-08-2007 04:00:00 11.6 C 9.4 g/m*3 11.6 C 0 km/h
78 21-08-2007 05:00:00 11.8 C 9.43 g/m*3 11.8 C 0 km/h
79 21-08-2007 06:00:00 12.14 C 9.53 g/m*3 12.14 C 0 km/h
80 21-08-2007 07:00:00 12.26 C 9.62 g/m*3 12.26 C 0 km/h
81 21-08-2007 08:00:00 12.7 C 9.75 g/m*3 12.7 C 0 km/h
82 21-08-2007 09:00:00 14 C 9.82 g/m*3 14 C 0 km/h
83 21-08-2007 10:00:00 16.3 C 9.82 g/m*3 16.3 C 0 km/h
84 21-08-2007 11:00:00 18.58 C 9.67 g/m*3 18.58 C 0 km/h
85 21-08-2007 12:00:00 18.96 C 9.69 g/m*3 18.96 C 0 km/h
86 21-08-2007 13:00:00 19.7 C 9.44 g/m*3 19.7 C 0 km/h
87 21-08-2007 14:00:00 18.84 C 9.88 g/m*3 18.84 C 0 km/h
88 21-08-2007 15:00:00 19.1 C 9.8 g/m*3 19.1 C 0 km/h
89 21-08-2007 16:00:00 19.3 C 9.92 g/m*3 19.3 C 0 km/h
90 21-08-2007 17:00:00 18.76 C 10.15 g/m*3 18.76 C 0 km/h
91 21-08-2007 18:00:00 17.28 C 11.3 g/m*3 17.28 C 0 km/h
92 21-08-2007 19:00:00 16.4 C 11.81 g/m*3 16.4 C 0 km/h
93 21-08-2007 20:00:00 15.78 C 11.94 g/m*3 15.78 C 0 km/h
94 21-08-2007 21:00:00 15.68 C 12.13 g/m*3 15.68 C 0 km/h
95 21-08-2007 22:00:00 15.4 C 12.06 g/m*3 15.4 C 0 km/h
96 21-08-2007 23:00:00 15.2 C 11.94 g/m*3 15.2 C 0 km/h
97 22-08-2007 00:00:00 15.2 C 11.94 g/m*3 15.2 C 0 km/h
98 22-08-2007 01:00:00 15.06 C 11.87 g/m*3 15.06 C 0 km/h
99 22-08-2007 02:00:00 14.4 C 11.5 g/m*3 14.4 C 0 km/h
100 22-08-2007 03:00:00 14.4 C 11.5 g/m*3 14.4 C 0 km/h
Sensor: Nr:Datum:Temp:Abs-Feuchte:Windchill:Wind:
Aussen-T/F 101 22-08-2007 04:00:00 14.6 C 11.34 g/m*3 14.6 C 0 km/h
102 22-08-2007 05:00:00 14.7 C 11.21 g/m*3 14.7 C 0 km/h
103 22-08-2007 06:00:00 14.7 C 11.21 g/m*3 14.7 C 0 km/h
104 22-08-2007 07:00:00 14.08 C 11.13 g/m*3 14.08 C 0 km/h
105 22-08-2007 08:00:00 14 C 11.24 g/m*3 14 C 0 km/h
106 22-08-2007 09:00:00 14.54 C 11.72 g/m*3 14.54 C 0 km/h
107 22-08-2007 10:00:00 14.76 C 11.83 g/m*3 14.76 C 0 km/h
108 22-08-2007 11:00:00 15.32 C 12.16 g/m*3 15.32 C 0 km/h
109 22-08-2007 12:00:00 15.66 C 12.39 g/m*3 15.66 C 0 km/h
110 22-08-2007 13:00:00 16.22 C 12.45 g/m*3 16.22 C 0 km/h
111 22-08-2007 14:00:00 17.2 C 12.56 g/m*3 17.2 C 0 km/h
112 22-08-2007 15:00:00 18.7 C 12.62 g/m*3 18.7 C 0 km/h
113 22-08-2007 16:00:00 20.5 C 11.57 g/m*3 20.5 C 0 km/h
114 22-08-2007 17:00:00 20.28 C 11.42 g/m*3 20.28 C 0 km/h
115 22-08-2007 18:00:00 18.72 C 11.48 g/m*3 18.72 C 0 km/h
116 22-08-2007 19:00:00 17.26 C 11.61 g/m*3 17.26 C 0 km/h
117 22-08-2007 20:00:00 16.02 C 11.98 g/m*3 16.02 C 0 km/h
118 22-08-2007 21:00:00 15.56 C 12.02 g/m*3 15.56 C 0 km/h
119 22-08-2007 22:00:00 15.48 C 11.99 g/m*3 15.48 C 0 km/h
120 22-08-2007 23:00:00 15.08 C 11.7 g/m*3 15.08 C 0 km/h
121 23-08-2007 00:00:00 14.82 C 11.82 g/m*3 14.82 C 0 km/h
122 23-08-2007 01:00:00 14.78 C 11.89 g/m*3 14.78 C 0 km/h
123 23-08-2007 02:00:00 14.56 C 11.73 g/m*3 14.56 C 0 km/h
124 23-08-2007 03:00:00 14.46 C 11.69 g/m*3 14.46 C 0 km/h
125 23-08-2007 04:00:00 14.34 C 11.7 g/m*3 14.34 C 0 km/h
Sensor: Nr:Datum:Temp:Abs-Feuchte:Windchill:Wind:
Aussen-T/F 126 23-08-2007 05:00:00 13.96 C 11.43 g/m*3 13.96 C 0 km/h
127 23-08-2007 06:00:00 13.64 C 11.21 g/m*3 13.64 C 0 km/h
128 23-08-2007 07:00:00 14.04 C 11.49 g/m*3 14.04 C 0 km/h
129 23-08-2007 08:00:00 14.12 C 11.54 g/m*3 14.12 C 0 km/h
130 23-08-2007 09:00:00 15 C 12.18 g/m*3 15 C 0 km/h
131 23-08-2007 10:00:00 16.96 C 13.71 g/m*3 16.96 C 0 km/h
132 23-08-2007 11:00:00 19.66 C 13.32 g/m*3 19.66 C 0 km/h
133 23-08-2007 12:00:00 22.84 C 9.94 g/m*3 22.84 C 0 km/h
134 23-08-2007 13:00:00 23.72 C 10.02 g/m*3 23.72 C 0 km/h
135 23-08-2007 14:00:00 25.32 C 8.72 g/m*3 25.32 C 0 km/h
136 23-08-2007 15:00:00 26.42 C 8.12 g/m*3 26.42 C 0 km/h
137 23-08-2007 16:00:00 23.92 C 12.13 g/m*3 23.92 C 0 km/h
138 23-08-2007 17:00:00 25.12 C 11.54 g/m*3 25.12 C 0 km/h
139 23-08-2007 18:00:00 19.38 C 10.67 g/m*3 19.38 C 0 km/h
140 23-08-2007 19:00:00 16.94 C 12.77 g/m*3 16.94 C 0 km/h
141 23-08-2007 20:00:00 17.22 C 12.99 g/m*3 17.22 C 0 km/h
142 23-08-2007 21:00:00 15.72 C 11.82 g/m*3 15.72 C 0 km/h
143 23-08-2007 22:00:00 14.82 C 11.36 g/m*3 14.82 C 0 km/h
144 23-08-2007 23:00:00 14.42 C 11.14 g/m*3 14.42 C 0 km/h
145 24-08-2007 00:00:00 14.06 C 11.02 g/m*3 14.06 C 0 km/h
146 24-08-2007 01:00:00 13.72 C 10.93 g/m*3 13.72 C 0 km/h
147 24-08-2007 02:00:00 13.58 C 10.93 g/m*3 13.58 C 0 km/h
148 24-08-2007 03:00:00 13.1 C 10.64 g/m*3 13.1 C 0 km/h
149 24-08-2007 04:00:00 12.74 C 10.49 g/m*3 12.74 C 0 km/h
150 24-08-2007 05:00:00 12.96 C 10.63 g/m*3 12.96 C 0 km/h
Sensor: Nr:Datum:Temp:Abs-Feuchte:Windchill:Wind:
Aussen-T/F 151 24-08-2007 06:00:00 12.92 C 10.61 g/m*3 12.92 C 0 km/h
152 24-08-2007 07:00:00 13.04 C 10.69 g/m*3 13.04 C 0 km/h
153 24-08-2007 08:00:00 13.8 C 11.06 g/m*3 13.8 C 0 km/h
154 24-08-2007 09:00:00 14.88 C 11.48 g/m*3 14.88 C 0 km/h
155 24-08-2007 10:00:00 16.88 C 12.18 g/m*3 16.88 C 0 km/h
156 24-08-2007 11:00:00 19.56 C 12.87 g/m*3 19.56 C 0 km/h
157 24-08-2007 12:00:00 22.6 C 12.41 g/m*3 22.6 C 0 km/h
158 24-08-2007 13:00:00 24.52 C 10.62 g/m*3 24.52 C 0 km/h
159 24-08-2007 14:00:00 26.5 C 10.66 g/m*3 26.5 C 0 km/h
160 24-08-2007 15:00:00 29.38 C 8.86 g/m*3 29.38 C 0 km/h
161 24-08-2007 16:00:00 30.8 C 7.66 g/m*3 30.8 C 0 km/h
162 24-08-2007 17:00:00 26.96 C 10.48 g/m*3 26.96 C 0 km/h
163 24-08-2007 18:00:00 27.9 C 10.06 g/m*3 27.9 C 0 km/h
164 24-08-2007 19:00:00 24.64 C 10.51 g/m*3 24.64 C 0 km/h
165 24-08-2007 20:00:00 22.78 C 10.11 g/m*3 22.78 C 0 km/h
166 24-08-2007 21:00:00 20.76 C 10.26 g/m*3 20.76 C 0 km/h
167 24-08-2007 22:00:00 19.66 C 10.67 g/m*3 19.66 C 0 km/h
168 24-08-2007 23:00:00 18.78 C 11.1 g/m*3 18.78 C 0 km/h
169 25-08-2007 00:00:00 18 C 11.58 g/m*3 18 C 0 km/h
170 25-08-2007 01:00:00 17.28 C 11.77 g/m*3 17.28 C 0 km/h
171 25-08-2007 02:00:00 16.56 C 11.61 g/m*3 16.56 C 0 km/h
172 25-08-2007 03:00:00 15.96 C 11.53 g/m*3 15.96 C 0 km/h
173 25-08-2007 04:00:00 15.42 C 11.39 g/m*3 15.42 C 0 km/h
174 25-08-2007 05:00:00 14.88 C 11.23 g/m*3 14.88 C 0 km/h
175 25-08-2007 06:00:00 14.46 C 10.94 g/m*3 14.46 C 0 km/h
Sensor: Nr:Datum:Temp:Abs-Feuchte:Windchill:Wind:
Aussen-T/F 176 25-08-2007 07:00:00 14.28 C 10.99 g/m*3 14.28 C 0 km/h
177 25-08-2007 08:00:00 14.74 C 11.43 g/m*3 14.74 C 0 km/h
178 25-08-2007 09:00:00 16.08 C 12.13 g/m*3 16.08 C 0 km/h
179 25-08-2007 10:00:00 18.54 C 12.31 g/m*3 18.54 C 0 km/h
180 25-08-2007 11:00:00 21.84 C 12.54 g/m*3 21.84 C 0 km/h
181 25-08-2007 12:00:00 24.46 C 11.79 g/m*3 24.46 C 0 km/h
182 25-08-2007 13:00:00 26.62 C 10.43 g/m*3 26.62 C 0 km/h
183 25-08-2007 14:00:00 28.72 C 9.73 g/m*3 28.72 C 0 km/h
184 25-08-2007 15:00:00 30.32 C 8.58 g/m*3 30.32 C 0 km/h
185 25-08-2007 16:00:00 30.24 C 9.4 g/m*3 30.24 C 0 km/h
186 25-08-2007 17:00:00 29.26 C 9.03 g/m*3 29.26 C 0 km/h
187 25-08-2007 18:00:00 29.48 C 9.43 g/m*3 29.48 C 0 km/h
188 25-08-2007 19:00:00 27.5 C 9.58 g/m*3 27.5 C 0 km/h
189 25-08-2007 20:00:00 24.84 C 11 g/m*3 24.84 C 0 km/h
190 25-08-2007 21:00:00 22.94 C 11.68 g/m*3 22.94 C 0 km/h
191 25-08-2007 22:00:00 21.4 C 12.04 g/m*3 21.4 C 0 km/h
192 25-08-2007 23:00:00 20.26 C 12.39 g/m*3 20.26 C 0 km/h
193 26-08-2007 00:00:00 19.4 C 12.61 g/m*3 19.4 C 0 km/h
194 26-08-2007 01:00:00 18.62 C 12.59 g/m*3 18.62 C 0 km/h
195 26-08-2007 02:00:00 17.88 C 12.51 g/m*3 17.88 C 0 km/h
196 26-08-2007 03:00:00 17.34 C 12.43 g/m*3 17.34 C 0 km/h
197 26-08-2007 04:00:00 16.74 C 12.31 g/m*3 16.74 C 0 km/h
198 26-08-2007 05:00:00 16.22 C 11.98 g/m*3 16.22 C 0 km/h
199 26-08-2007 06:00:00 16.34 C 12.13 g/m*3 16.34 C 0 km/h
200 26-08-2007 07:00:00 16.08 C 12.1 g/m*3 16.08 C 0 km/h
Sensor: Nr:Datum:Temp:Abs-Feuchte:Windchill:Wind:
Aussen-T/F 201 26-08-2007 08:00:00 16.22 C 12.15 g/m*3 16.22 C 0 km/h
202 26-08-2007 09:00:00 17.66 C 12.19 g/m*3 17.66 C 0 km/h
203 26-08-2007 10:00:00 19.28 C 12.36 g/m*3 19.28 C 0 km/h
204 26-08-2007 11:00:00 22.34 C 12.15 g/m*3 22.34 C 0 km/h
205 26-08-2007 12:00:00 24.52 C 11.25 g/m*3 24.52 C 0 km/h
206 26-08-2007 13:00:00 26.32 C 10.51 g/m*3 26.32 C 0 km/h
207 26-08-2007 14:00:00 28.84 C 10.02 g/m*3 28.84 C 0 km/h
208 26-08-2007 15:00:00 29.8 C 9.24 g/m*3 29.8 C 0 km/h
209 26-08-2007 16:00:00 30.38 C 8.11 g/m*3 30.38 C 0 km/h
210 26-08-2007 17:00:00 29.62 C 8.02 g/m*3 29.62 C 0 km/h
211 26-08-2007 18:00:00 29.34 C 7.96 g/m*3 29.34 C 0 km/h
212 26-08-2007 19:00:00 26.98 C 9.36 g/m*3 26.98 C 0 km/h
213 26-08-2007 20:00:00 23.98 C 11.74 g/m*3 23.98 C 0 km/h
214 26-08-2007 21:00:00 22.52 C 11.96 g/m*3 22.52 C 0 km/h
215 26-08-2007 22:00:00 21.1 C 11.98 g/m*3 21.1 C 0 km/h
216 26-08-2007 23:00:00 20.28 C 11.91 g/m*3 20.28 C 0 km/h
217 27-08-2007 00:00:00 20.1 C 11.86 g/m*3 20.1 C 0 km/h
218 27-08-2007 01:00:00 19.7 C 11.48 g/m*3 19.7 C 0 km/h
219 27-08-2007 02:00:00 18.96 C 11.32 g/m*3 18.96 C 0 km/h
220 27-08-2007 03:00:00 18.62 C 10.99 g/m*3 18.62 C 0 km/h
221 27-08-2007 04:00:00 18.24 C 10.5 g/m*3 18.24 C 0 km/h
222 27-08-2007 05:00:00 17.74 C 10.04 g/m*3 17.74 C 0 km/h
223 27-08-2007 06:00:00 16.52 C 10.23 g/m*3 16.52 C 0 km/h
224 27-08-2007 07:00:00 16.48 C 10.24 g/m*3 16.48 C 0 km/h
225 27-08-2007 08:00:00 16.74 C 10.06 g/m*3 16.74 C 0 km/h
Sensor: Nr:Datum:Temp:Abs-Feuchte:Windchill:Wind:
Aussen-T/F 226 27-08-2007 09:00:00 17.76 C 9.9 g/m*3 17.76 C 0 km/h
227 27-08-2007 10:00:00 18.54 C 9.26 g/m*3 18.54 C 0 km/h
228 27-08-2007 11:00:00 20.44 C 8.33 g/m*3 20.44 C 0 km/h
229 27-08-2007 12:00:00 21.18 C 7.52 g/m*3 21.18 C 0 km/h
230 27-08-2007 13:00:00 22.54 C 7.53 g/m*3 22.54 C 0 km/h
231 27-08-2007 14:00:00 24.02 C 6.67 g/m*3 24.02 C 0 km/h
232 27-08-2007 15:00:00 24.4 C 6.59 g/m*3 24.4 C 0 km/h
233 27-08-2007 16:00:00 23.42 C 6.36 g/m*3 23.42 C 0 km/h
234 27-08-2007 17:00:00 22.64 C 6.48 g/m*3 22.64 C 0 km/h
235 27-08-2007 18:00:00 20.82 C 6.45 g/m*3 20.82 C 0 km/h
236 27-08-2007 19:00:00 20.3 C 6.4 g/m*3 20.3 C 0 km/h
237 27-08-2007 20:00:00 18.96 C 6.41 g/m*3 18.96 C 0 km/h
238 27-08-2007 21:00:00 18.06 C 7.03 g/m*3 18.06 C 0 km/h
239 27-08-2007 22:00:00 17.28 C 7.36 g/m*3 17.28 C 0 km/h
240 27-08-2007 23:00:00 15.4 C 7.59 g/m*3 15.4 C 0 km/h
241 28-08-2007 00:00:00 14.18 C 7.88 g/m*3 14.18 C 0 km/h
242 28-08-2007 01:00:00 13.6 C 8.17 g/m*3 13.6 C 0 km/h
243 28-08-2007 02:00:00 12.8 C 8.18 g/m*3 12.8 C 0 km/h
244 28-08-2007 03:00:00 11.98 C 8.22 g/m*3 11.98 C 0 km/h
245 28-08-2007 04:00:00 11.44 C 8.31 g/m*3 11.44 C 0 km/h
246 28-08-2007 05:00:00 11.1 C 8.4 g/m*3 11.1 C 0 km/h
247 28-08-2007 06:00:00 11.14 C 8.38 g/m*3 11.14 C 0 km/h
248 28-08-2007 07:00:00 11.1 C 8.46 g/m*3 11.1 C 0 km/h
249 28-08-2007 08:00:00 12.02 C 8.77 g/m*3 12.02 C 0 km/h
250 28-08-2007 09:00:00 14.1 C 9.05 g/m*3 14.1 C 0 km/h
Sensor: Nr:Datum:Temp:Abs-Feuchte:Windchill:Wind:
Aussen-T/F 251 28-08-2007 10:00:00 17.18 C 8.6 g/m*3 17.18 C 0 km/h
252 28-08-2007 11:00:00 18.62 C 7.9 g/m*3 18.62 C 0 km/h
253 28-08-2007 12:00:00 19.7 C 7.47 g/m*3 19.7 C 0 km/h
254 28-08-2007 13:00:00 20.84 C 6.9 g/m*3 20.84 C 0 km/h
255 28-08-2007 14:00:00 22.5 C 6.19 g/m*3 22.5 C 0 km/h
256 28-08-2007 15:00:00 23.3 C 5.56 g/m*3 23.3 C 0 km/h
257 28-08-2007 16:00:00 21.82 C 6.34 g/m*3 21.82 C 0 km/h
258 28-08-2007 17:00:00 21.86 C 6.51 g/m*3 21.86 C 0 km/h
259 28-08-2007 18:00:00 21.2 C 6.63 g/m*3 21.2 C 0 km/h
260 28-08-2007 19:00:00 18.86 C 6.53 g/m*3 18.86 C 0 km/h
261 28-08-2007 20:00:00 17.64 C 7.28 g/m*3 17.64 C 0 km/h
262 28-08-2007 21:00:00 16.52 C 7.96 g/m*3 16.52 C 0 km/h
263 28-08-2007 22:00:00 15.74 C 8.07 g/m*3 15.74 C 0 km/h
264 28-08-2007 23:00:00 14.88 C 7.97 g/m*3 14.88 C 0 km/h
265 29-08-2007 00:00:00 14.1 C 7.6 g/m*3 14.1 C 0 km/h
266 29-08-2007 01:00:00 13.68 C 7.29 g/m*3 13.68 C 0 km/h
267 29-08-2007 02:00:00 13.54 C 7.06 g/m*3 13.54 C 0 km/h
268 29-08-2007 03:00:00 13.54 C 6.94 g/m*3 13.54 C 0 km/h
269 29-08-2007 04:00:00 13.18 C 6.72 g/m*3 13.18 C 0 km/h
270 29-08-2007 05:00:00 13.02 C 6.86 g/m*3 13.02 C 0 km/h
271 29-08-2007 06:00:00 12.62 C 6.89 g/m*3 12.62 C 0 km/h
272 29-08-2007 07:00:00 12.96 C 7.13 g/m*3 12.96 C 0 km/h
273 29-08-2007 08:00:00 13.94 C 7.23 g/m*3 13.94 C 0 km/h
274 29-08-2007 09:00:00 14.74 C 7.19 g/m*3 14.74 C 0 km/h
275 29-08-2007 10:00:00 15.7 C 7.12 g/m*3 15.7 C 0 km/h
Sensor: Nr:Datum:Temp:Abs-Feuchte:Windchill:Wind:
Aussen-T/F 276 29-08-2007 11:00:00 17.92 C 6.97 g/m*3 17.92 C 0 km/h
277 29-08-2007 12:00:00 19.64 C 6.6 g/m*3 19.64 C 0 km/h
278 29-08-2007 13:00:00 20.76 C 5.93 g/m*3 20.76 C 0 km/h
279 29-08-2007 14:00:00 23 C 5.34 g/m*3 23 C 0 km/h
280 29-08-2007 15:00:00 23.08 C 4.79 g/m*3 23.08 C 0 km/h
281 29-08-2007 16:00:00 24.3 C 4.43 g/m*3 24.3 C 0 km/h
282 29-08-2007 17:00:00 24.66 C 4.52 g/m*3 24.66 C 0 km/h
283 29-08-2007 18:00:00 23.56 C 4.67 g/m*3 23.56 C 0 km/h
284 29-08-2007 19:00:00 21.76 C 5.4 g/m*3 21.76 C 0 km/h
285 29-08-2007 20:00:00 18.92 C 5.9 g/m*3 18.92 C 0 km/h
286 29-08-2007 21:00:00 17.3 C 6.01 g/m*3 17.3 C 0 km/h
287 29-08-2007 22:00:00 15.04 C 6.27 g/m*3 15.04 C 0 km/h
288 29-08-2007 23:00:00 13.88 C 6.42 g/m*3 13.88 C 0 km/h
289 30-08-2007 00:00:00 12.86 C 6.45 g/m*3 12.86 C 0 km/h
290 30-08-2007 01:00:00 12.04 C 6.54 g/m*3 12.04 C 0 km/h
291 30-08-2007 02:00:00 10.96 C 6.63 g/m*3 10.96 C 0 km/h
292 30-08-2007 03:00:00 10 C 6.71 g/m*3 10 C 0 km/h
293 30-08-2007 04:00:00 9.38 C 6.76 g/m*3 9.38 C 0 km/h
294 30-08-2007 05:00:00 8.68 C 6.72 g/m*3 8.68 C 0 km/h
295 30-08-2007 06:00:00 8.1 C 6.79 g/m*3 8.1 C 0 km/h
296 30-08-2007 07:00:00 7.94 C 6.9 g/m*3 7.94 C 0 km/h
297 30-08-2007 08:00:00 8.6 C 7.18 g/m*3 8.6 C 0 km/h
298 30-08-2007 09:00:00 10.38 C 7.58 g/m*3 10.38 C 0 km/h
299 30-08-2007 10:00:00 13.44 C 7.48 g/m*3 13.44 C 0 km/h
300 30-08-2007 11:00:00 16.54 C 6.67 g/m*3 16.54 C 0 km/h
Sensor: Nr:Datum:Temp:Abs-Feuchte:Windchill:Wind:
Aussen-T/F 301 30-08-2007 12:00:00 18.14 C 5.95 g/m*3 18.14 C 0 km/h
302 30-08-2007 13:00:00 19.42 C 5.58 g/m*3 19.42 C 0 km/h
303 30-08-2007 14:00:00 20.92 C 5.14 g/m*3 20.92 C 0 km/h
304 30-08-2007 15:00:00 22.44 C 4.78 g/m*3 22.44 C 0 km/h
305 30-08-2007 16:00:00 23.22 C 4.7 g/m*3 23.22 C 0 km/h
306 30-08-2007 17:00:00 23.22 C 5.2 g/m*3 23.22 C 0 km/h
307 30-08-2007 18:00:00 20.62 C 5.95 g/m*3 20.62 C 0 km/h
308 30-08-2007 19:00:00 19.52 C 6.49 g/m*3 19.52 C 0 km/h
309 30-08-2007 20:00:00 18.76 C 6.75 g/m*3 18.76 C 0 km/h
310 30-08-2007 21:00:00 18.08 C 7.07 g/m*3 18.08 C 0 km/h
311 30-08-2007 22:00:00 17.82 C 7.54 g/m*3 17.82 C 0 km/h
312 30-08-2007 23:00:00 17.74 C 8.2 g/m*3 17.74 C 0 km/h
313 31-08-2007 00:00:00 17.3 C 8.87 g/m*3 17.3 C 0 km/h
314 31-08-2007 01:00:00 17.04 C 9.46 g/m*3 17.04 C 0 km/h
315 31-08-2007 02:00:00 16.86 C 9.7 g/m*3 16.86 C 0 km/h
316 31-08-2007 03:00:00 16.7 C 9.69 g/m*3 16.7 C 0 km/h
317 31-08-2007 04:00:00 16.72 C 9.76 g/m*3 16.72 C 0 km/h
318 31-08-2007 05:00:00 16.46 C 10 g/m*3 16.46 C 0 km/h
319 31-08-2007 06:00:00 15.84 C 10.61 g/m*3 15.84 C 0 km/h
320 31-08-2007 07:00:00 16.22 C 10.41 g/m*3 16.22 C 0 km/h
321 31-08-2007 08:00:00 16.96 C 10.1 g/m*3 16.96 C 0 km/h
322 31-08-2007 09:00:00 17.38 C 10.24 g/m*3 17.38 C 0 km/h
323 31-08-2007 10:00:00 16.5 C 11.12 g/m*3 16.5 C 0 km/h
324 31-08-2007 11:00:00 16 C 11.66 g/m*3 16 C 0 km/h
325 31-08-2007 12:00:00 16.64 C 12.06 g/m*3 16.64 C 0 km/h
Sensor: Nr:Datum:Temp:Abs-Feuchte:Windchill:Wind:
Aussen-T/F 326 31-08-2007 13:00:00 18.02 C 12.3 g/m*3 18.02 C 0 km/h
327 31-08-2007 14:00:00 19 C 11.96 g/m*3 19 C 0 km/h
328 31-08-2007 15:00:00 20.22 C 9.98 g/m*3 20.22 C 0 km/h
329 31-08-2007 16:00:00 20.98 C 8.56 g/m*3 20.98 C 0 km/h
330 31-08-2007 17:00:00 20.5 C 7.51 g/m*3 20.5 C 0 km/h
331 31-08-2007 18:00:00 19.92 C 7.22 g/m*3 19.92 C 0 km/h
332 31-08-2007 19:00:00 18.5 C 7.4 g/m*3 18.5 C 0 km/h
333 31-08-2007 20:00:00 17.96 C 8.15 g/m*3 17.96 C 0 km/h
334 31-08-2007 21:00:00 16.96 C 9.32 g/m*3 16.96 C 0 km/h
335 31-08-2007 22:00:00 16.82 C 9.36 g/m*3 16.82 C 0 km/h
336 31-08-2007 23:00:00 16.48 C 9.62 g/m*3 16.48 C 0 km/h
337 01-09-2007 00:00:00 15.54 C 10.44 g/m*3 15.54 C 0 km/h
338 01-09-2007 01:00:00 15.4 C 10.27 g/m*3 15.4 C 0 km/h
339 01-09-2007 02:00:00 15.3 C 10 g/m*3 15.3 C 0 km/h
340 01-09-2007 03:00:00 15.62 C 9.77 g/m*3 15.62 C 0 km/h
341 01-09-2007 04:00:00 15.18 C 9.96 g/m*3 15.18 C 0 km/h
342 01-09-2007 05:00:00 14.24 C 10.65 g/m*3 14.24 C 0 km/h
343 01-09-2007 06:00:00 14.52 C 10.56 g/m*3 14.52 C 0 km/h
344 01-09-2007 07:00:00 14.64 C 10.51 g/m*3 14.64 C 0 km/h
345 01-09-2007 08:00:00 15.3 C 10.45 g/m*3 15.3 C 0 km/h
346 01-09-2007 09:00:00 16.28 C 10.23 g/m*3 16.28 C 0 km/h
347 01-09-2007 10:00:00 17.78 C 10.1 g/m*3 17.78 C 0 km/h
348 01-09-2007 11:00:00 17.18 C 10.82 g/m*3 17.18 C 0 km/h
349 01-09-2007 12:00:00 18.24 C 10.22 g/m*3 18.24 C 0 km/h
350 01-09-2007 13:00:00 19.68 C 10.45 g/m*3 19.68 C 0 km/h
Sensor: Nr:Datum:Temp:Abs-Feuchte:Windchill:Wind:
Aussen-T/F 351 01-09-2007 14:00:00 20.42 C 10.02 g/m*3 20.42 C 0 km/h
352 01-09-2007 15:00:00 20.06 C 10.72 g/m*3 20.06 C 0 km/h
353 01-09-2007 16:00:00 21.56 C 8.51 g/m*3 21.56 C 0 km/h
354 01-09-2007 17:00:00 21.72 C 8.33 g/m*3 21.72 C 0 km/h
355 01-09-2007 18:00:00 20.84 C 9.44 g/m*3 20.84 C 0 km/h
356 01-09-2007 19:00:00 19.2 C 9.79 g/m*3 19.2 C 0 km/h
357 01-09-2007 20:00:00 17.62 C 9.22 g/m*3 17.62 C 0 km/h
358 01-09-2007 21:00:00 16.1 C 8.94 g/m*3 16.1 C 0 km/h
359 01-09-2007 22:00:00 15.66 C 8.7 g/m*3 15.66 C 0 km/h
360 01-09-2007 23:00:00 14.66 C 8.79 g/m*3 14.66 C 0 km/h
361 02-09-2007 00:00:00 14.48 C 9.04 g/m*3 14.48 C 0 km/h
362 02-09-2007 01:00:00 14.3 C 9.19 g/m*3 14.3 C 0 km/h
363 02-09-2007 02:00:00 14.12 C 9.36 g/m*3 14.12 C 0 km/h
364 02-09-2007 03:00:00 14 C 9.41 g/m*3 14 C 0 km/h
365 02-09-2007 04:00:00 14.08 C 9.33 g/m*3 14.08 C 0 km/h
366 02-09-2007 05:00:00 13.98 C 9.42 g/m*3 13.98 C 0 km/h
367 02-09-2007 06:00:00 14.04 C 9.41 g/m*3 14.04 C 0 km/h
368 02-09-2007 07:00:00 14.32 C 9.45 g/m*3 14.32 C 0 km/h
369 02-09-2007 08:00:00 14.96 C 9.57 g/m*3 14.96 C 0 km/h
370 02-09-2007 09:00:00 16.56 C 9.5 g/m*3 16.56 C 0 km/h
371 02-09-2007 10:00:00 17.8 C 9.47 g/m*3 17.8 C 0 km/h
372 02-09-2007 11:00:00 19.48 C 9.45 g/m*3 19.48 C 0 km/h
373 02-09-2007 12:00:00 20.44 C 8.65 g/m*3 20.44 C 0 km/h
374 02-09-2007 13:00:00 20.5 C 7.76 g/m*3 20.5 C 0 km/h
375 02-09-2007 14:00:00 21.34 C 6.88 g/m*3 21.34 C 0 km/h
Sensor: Nr:Datum:Temp:Abs-Feuchte:Windchill:Wind:
Aussen-T/F 376 02-09-2007 15:00:00 20.56 C 7.32 g/m*3 20.56 C 0 km/h
377 02-09-2007 16:00:00 20.68 C 7.66 g/m*3 20.68 C 0 km/h
378 02-09-2007 17:00:00 20.28 C 7.69 g/m*3 20.28 C 0 km/h
379 02-09-2007 18:00:00 19.52 C 8.17 g/m*3 19.52 C 0 km/h
380 02-09-2007 19:00:00 19.08 C 8.45 g/m*3 19.08 C 0 km/h
381 02-09-2007 20:00:00 18.14 C 8.7 g/m*3 18.14 C 0 km/h
382 02-09-2007 21:00:00 18.16 C 8.87 g/m*3 18.16 C 0 km/h
383 02-09-2007 22:00:00 18.14 C 8.8 g/m*3 18.14 C 0 km/h
384 02-09-2007 23:00:00 17.58 C 9.23 g/m*3 17.58 C 0 km/h
385 03-09-2007 00:00:00 16.98 C 9.1 g/m*3 16.98 C 0 km/h
386 03-09-2007 01:00:00 16.44 C 9.07 g/m*3 16.44 C 0 km/h
387 03-09-2007 02:00:00 15.84 C 9.04 g/m*3 15.84 C 0 km/h
388 03-09-2007 03:00:00 15.68 C 8.98 g/m*3 15.68 C 0 km/h
389 03-09-2007 04:00:00 15.96 C 8.43 g/m*3 15.96 C 0 km/h
390 03-09-2007 05:00:00 15.74 C 8.58 g/m*3 15.74 C 0 km/h
391 03-09-2007 06:00:00 15.6 C 8.56 g/m*3 15.6 C 0 km/h
392 03-09-2007 07:00:00 15.56 C 8.89 g/m*3 15.56 C 0 km/h
393 03-09-2007 08:00:00 15.12 C 9.56 g/m*3 15.12 C 0 km/h
394 03-09-2007 09:00:00 14.7 C 10.25 g/m*3 14.7 C 0 km/h
395 03-09-2007 10:00:00 14.32 C 10.75 g/m*3 14.32 C 0 km/h
396 03-09-2007 11:00:00 14.52 C 11.41 g/m*3 14.52 C 0 km/h
397 03-09-2007 12:00:00 14 C 11 g/m*3 14 C 0 km/h
398 03-09-2007 13:00:00 14.76 C 10.54 g/m*3 14.76 C 0 km/h
399 03-09-2007 14:00:00 16.68 C 9.71 g/m*3 16.68 C 0 km/h
400 03-09-2007 15:00:00 19.14 C 7.79 g/m*3 19.14 C 0 km/h
Sensor: Nr:Datum:Temp:Abs-Feuchte:Windchill:Wind:
Aussen-T/F 401 03-09-2007 16:00:00 18.76 C 7.26 g/m*3 18.76 C 0 km/h
402 03-09-2007 17:00:00 20.76 C 6.21 g/m*3 20.76 C 0 km/h
403 03-09-2007 18:00:00 19.78 C 5.97 g/m*3 19.78 C 0 km/h
404 03-09-2007 19:00:00 17.98 C 6.41 g/m*3 17.98 C 0 km/h
405 03-09-2007 20:00:00 13.82 C 8.9 g/m*3 13.82 C 0 km/h
406 03-09-2007 21:00:00 12.48 C 9.07 g/m*3 12.48 C 0 km/h
407 03-09-2007 22:00:00 12.04 C 8.7 g/m*3 12.04 C 0 km/h
408 03-09-2007 23:00:00 11.32 C 8.68 g/m*3 11.32 C 0 km/h
409 04-09-2007 00:00:00 10.98 C 8.52 g/m*3 10.98 C 0 km/h
410 04-09-2007 01:00:00 11.02 C 8.46 g/m*3 11.02 C 0 km/h
411 04-09-2007 02:00:00 10.94 C 8.12 g/m*3 10.94 C 0 km/h
412 04-09-2007 03:00:00 10.82 C 8.02 g/m*3 10.82 C 0 km/h
413 04-09-2007 04:00:00 10.52 C 7.85 g/m*3 10.52 C 0 km/h
414 04-09-2007 05:00:00 10.66 C 7.8 g/m*3 10.66 C 0 km/h
415 04-09-2007 06:00:00 10.32 C 7.65 g/m*3 10.32 C 0 km/h
416 04-09-2007 07:00:00 10.76 C 7.47 g/m*3 10.76 C 0 km/h
417 04-09-2007 08:00:00 10.88 C 7.39 g/m*3 10.88 C 0 km/h
418 04-09-2007 09:00:00 10.86 C 7.7 g/m*3 10.86 C 0 km/h
419 04-09-2007 10:00:00 12.66 C 7.15 g/m*3 12.66 C 0 km/h
420 04-09-2007 11:00:00 13.56 C 6.2 g/m*3 13.56 C 0 km/h
421 04-09-2007 12:00:00 14.12 C 6 g/m*3 14.12 C 0 km/h
422 04-09-2007 13:00:00 14.64 C 6.27 g/m*3 14.64 C 0 km/h
423 04-09-2007 14:00:00 15.12 C 5.92 g/m*3 15.12 C 0 km/h
424 04-09-2007 15:00:00 15.14 C 6 g/m*3 15.14 C 0 km/h
425 04-09-2007 16:00:00 17.7 C 5.55 g/m*3 17.7 C 0 km/h
Sensor: Nr:Datum:Temp:Abs-Feuchte:Windchill:Wind:
Aussen-T/F 426 04-09-2007 17:00:00 15.38 C 5.93 g/m*3 15.38 C 0 km/h
427 04-09-2007 18:00:00 17.8 C 5.59 g/m*3 17.8 C 0 km/h
428 04-09-2007 19:00:00 16.64 C 5.35 g/m*3 16.64 C 0 km/h
429 04-09-2007 20:00:00 14.04 C 5.95 g/m*3 14.04 C 0 km/h
430 04-09-2007 21:00:00 12.48 C 6.39 g/m*3 12.48 C 0 km/h
431 04-09-2007 22:00:00 11.58 C 6.33 g/m*3 11.58 C 0 km/h
432 04-09-2007 23:00:00 10.6 C 6.52 g/m*3 10.6 C 0 km/h
433 05-09-2007 00:00:00 9.8 C 6.72 g/m*3 9.8 C 0 km/h
434 05-09-2007 01:00:00 9.06 C 7.08 g/m*3 9.06 C 0 km/h
435 05-09-2007 02:00:00 8.475 C 7.2 g/m*3 8.48 C 0 km/h
436 05-09-2007 03:00:00 7.98 C 7.12 g/m*3 7.98 C 0 km/h
437 05-09-2007 04:00:00 7.4 C 7 g/m*3 7.4 C 0 km/h
438 05-09-2007 05:00:00 7.16 C 7 g/m*3 7.16 C 0 km/h
439 05-09-2007 06:00:00 7.3 C 7.17 g/m*3 7.3 C 0 km/h
440 05-09-2007 07:00:00 7.86 C 7.47 g/m*3 7.86 C 0 km/h
441 05-09-2007 08:00:00 9.2 C 7.54 g/m*3 9.2 C 0 km/h
442 05-09-2007 09:00:00 10.9 C 7.1 g/m*3 10.9 C 0 km/h
443 05-09-2007 10:00:00 12.7 C 6.83 g/m*3 12.7 C 0 km/h
444 05-09-2007 11:00:00 15.02 C 6.68 g/m*3 15.02 C 0 km/h
445 05-09-2007 12:00:00 15.58 C 5.79 g/m*3 15.58 C 0 km/h
446 05-09-2007 13:00:00 16.68 C 5.37 g/m*3 16.68 C 0 km/h
447 05-09-2007 14:00:00 17.34 C 5.11 g/m*3 17.34 C 0 km/h
448 05-09-2007 15:00:00 18.18 C 5.4 g/m*3 18.18 C 0 km/h
449 05-09-2007 16:00:00 18.02 C 5.66 g/m*3 18.02 C 0 km/h
450 05-09-2007 17:00:00 16.98 C 5.72 g/m*3 16.98 C 0 km/h
Sensor: Nr:Datum:Temp:Abs-Feuchte:Windchill:Wind:
Aussen-T/F 451 05-09-2007 18:00:00 16.28 C 5.82 g/m*3 16.28 C 0 km/h
452 05-09-2007 19:00:00 15.4 C 6.15 g/m*3 15.4 C 0 km/h
453 05-09-2007 20:00:00 14.36 C 6.71 g/m*3 14.36 C 0 km/h
454 05-09-2007 21:00:00 13.82 C 6.97 g/m*3 13.82 C 0 km/h
455 05-09-2007 22:00:00 13.56 C 7.07 g/m*3 13.56 C 0 km/h
456 05-09-2007 23:00:00 13.46 C 7.14 g/m*3 13.46 C 0 km/h
457 06-09-2007 00:00:00 13.38 C 7.11 g/m*3 13.38 C 0 km/h
458 06-09-2007 01:00:00 13.28 C 7.22 g/m*3 13.28 C 0 km/h
459 06-09-2007 02:00:00 13.14 C 7.37 g/m*3 13.14 C 0 km/h
460 06-09-2007 03:00:00 13.02 C 7.56 g/m*3 13.02 C 0 km/h
461 06-09-2007 04:00:00 12.76 C 8.36 g/m*3 12.76 C 0 km/h
462 06-09-2007 05:00:00 12.46 C 9.04 g/m*3 12.46 C 0 km/h
463 06-09-2007 06:00:00 12.48 C 9.22 g/m*3 12.48 C 0 km/h
464 06-09-2007 07:00:00 12.68 C 9.47 g/m*3 12.68 C 0 km/h
465 06-09-2007 08:00:00 12.9 C 9.78 g/m*3 12.9 C 0 km/h
466 06-09-2007 09:00:00 13.54 C 10.08 g/m*3 13.54 C 0 km/h
467 06-09-2007 10:00:00 14.26 C 10.17 g/m*3 14.26 C 0 km/h
468 06-09-2007 11:00:00 14.28 C 10.65 g/m*3 14.28 C 0 km/h
469 06-09-2007 12:00:00 15.06 C 11.07 g/m*3 15.06 C 0 km/h
470 06-09-2007 13:00:00 15.9 C 11 g/m*3 15.9 C 0 km/h
471 06-09-2007 14:00:00 15.84 C 11.25 g/m*3 15.84 C 0 km/h
472 06-09-2007 15:00:00 16.26 C 11.46 g/m*3 16.26 C 0 km/h
473 06-09-2007 16:00:00 16.7 C 12.05 g/m*3 16.7 C 0 km/h
474 06-09-2007 17:00:00 19.92 C 10.7 g/m*3 19.92 C 0 km/h
475 06-09-2007 18:00:00 21.36 C 8.38 g/m*3 21.36 C 0 km/h
Sensor: Nr:Datum:Temp:Abs-Feuchte:Windchill:Wind:
Aussen-T/F 476 06-09-2007 19:00:00 20.34 C 8 g/m*3 20.34 C 0 km/h
477 06-09-2007 20:00:00 16.96 C 8.72 g/m*3 16.96 C 0 km/h
478 06-09-2007 21:00:00 15.34 C 8.93 g/m*3 15.34 C 0 km/h
479 06-09-2007 22:00:00 14.64 C 8.88 g/m*3 14.64 C 0 km/h
480 06-09-2007 23:00:00 13.72 C 8.23 g/m*3 13.72 C 0 km/h
481 07-09-2007 00:00:00 13.38 C 7.78 g/m*3 13.38 C 0 km/h
482 07-09-2007 01:00:00 13.38 C 7.83 g/m*3 13.38 C 0 km/h
483 07-09-2007 02:00:00 13.58 C 8.2 g/m*3 13.58 C 0 km/h
484 07-09-2007 03:00:00 14.32 C 8.83 g/m*3 14.32 C 0 km/h
485 07-09-2007 04:00:00 14.32 C 9.23 g/m*3 14.32 C 0 km/h
486 07-09-2007 05:00:00 13.66 C 9.97 g/m*3 13.66 C 0 km/h
487 07-09-2007 06:00:00 13.72 C 10.43 g/m*3 13.72 C 0 km/h
488 07-09-2007 07:00:00 13.92 C 10.39 g/m*3 13.92 C 0 km/h
489 07-09-2007 08:00:00 14.28 C 9.82 g/m*3 14.28 C 0 km/h
490 07-09-2007 09:00:00 15.1 C 8.77 g/m*3 15.1 C 0 km/h
491 07-09-2007 10:00:00 16.04 C 8.82 g/m*3 16.04 C 0 km/h
492 07-09-2007 11:00:00 16.58 C 8.47 g/m*3 16.58 C 0 km/h
493 07-09-2007 12:00:00 17.2 C 8.17 g/m*3 17.2 C 0 km/h
494 07-09-2007 13:00:00 17.44 C 8.62 g/m*3 17.44 C 0 km/h
495 07-09-2007 14:00:00 18.66 C 8.78 g/m*3 18.66 C 0 km/h
496 07-09-2007 15:00:00 18.82 C 8.8 g/m*3 18.82 C 0 km/h
497 07-09-2007 16:00:00 18.18 C 9.28 g/m*3 18.18 C 0 km/h
498 07-09-2007 17:00:00 18.26 C 9.3 g/m*3 18.26 C 0 km/h
499 07-09-2007 18:00:00 18.04 C 9.18 g/m*3 18.04 C 0 km/h
500 07-09-2007 19:00:00 17.6 C 9.36 g/m*3 17.6 C 0 km/h
Sensor: Nr:Datum:Temp:Abs-Feuchte:Windchill:Wind:
Aussen-T/F 501 07-09-2007 20:00:00 16.88 C 9.77 g/m*3 16.88 C 0 km/h
502 07-09-2007 21:00:00 16.7 C 9.92 g/m*3 16.7 C 0 km/h
503 07-09-2007 22:00:00 16.32 C 9.97 g/m*3 16.32 C 0 km/h
504 07-09-2007 23:00:00 16 C 10.14 g/m*3 16 C 0 km/h
505 08-09-2007 00:00:00 15.5 C 10.18 g/m*3 15.5 C 0 km/h
506 08-09-2007 01:00:00 14.74 C 10.15 g/m*3 14.74 C 0 km/h
507 08-09-2007 02:00:00 13.94 C 10.09 g/m*3 13.94 C 0 km/h
508 08-09-2007 03:00:00 13.04 C 9.82 g/m*3 13.04 C 0 km/h
509 08-09-2007 04:00:00 12.34 C 9.67 g/m*3 12.34 C 0 km/h
510 08-09-2007 05:00:00 12.34 C 9.82 g/m*3 12.34 C 0 km/h
511 08-09-2007 06:00:00 12.14 C 9.74 g/m*3 12.14 C 0 km/h
512 08-09-2007 07:00:00 12.38 C 9.93 g/m*3 12.38 C 0 km/h
513 08-09-2007 08:00:00 13.16 C 10.24 g/m*3 13.16 C 0 km/h
514 08-09-2007 09:00:00 13.42 C 9.92 g/m*3 13.42 C 0 km/h
515 08-09-2007 10:00:00 14.08 C 10.09 g/m*3 14.08 C 0 km/h
516 08-09-2007 11:00:00 14.54 C 10.02 g/m*3 14.54 C 0 km/h
517 08-09-2007 12:00:00 14.68 C 10.51 g/m*3 14.68 C 0 km/h
518 08-09-2007 13:00:00 15.88 C 10.63 g/m*3 15.88 C 0 km/h
519 08-09-2007 14:00:00 18.1 C 10.23 g/m*3 18.1 C 0 km/h
520 08-09-2007 15:00:00 17.98 C 9.7 g/m*3 17.98 C 0 km/h
521 08-09-2007 16:00:00 17.96 C 9.5 g/m*3 17.96 C 0 km/h
522 08-09-2007 17:00:00 17.86 C 9.72 g/m*3 17.86 C 0 km/h
523 08-09-2007 18:00:00 17.8 C 9.41 g/m*3 17.8 C 0 km/h
524 08-09-2007 19:00:00 17.22 C 9.68 g/m*3 17.22 C 0 km/h
525 08-09-2007 20:00:00 16.58 C 9.85 g/m*3 16.58 C 0 km/h
Sensor: Nr:Datum:Temp:Abs-Feuchte:Windchill:Wind:
Aussen-T/F 526 08-09-2007 21:00:00 16.22 C 9.91 g/m*3 16.22 C 0 km/h
527 08-09-2007 22:00:00 15.78 C 10.06 g/m*3 15.78 C 0 km/h
528 08-09-2007 23:00:00 15.6 C 10.16 g/m*3 15.6 C 0 km/h
529 09-09-2007 00:00:00 15.56 C 10.27 g/m*3 15.56 C 0 km/h
530 09-09-2007 01:00:00 15.54 C 10.39 g/m*3 15.54 C 0 km/h
531 09-09-2007 02:00:00 15.58 C 10.6 g/m*3 15.58 C 0 km/h
532 09-09-2007 03:00:00 14.46 C 10.92 g/m*3 14.46 C 0 km/h
533 09-09-2007 04:00:00 14.06 C 10.97 g/m*3 14.06 C 0 km/h
534 09-09-2007 05:00:00 14 C 10.95 g/m*3 14 C 0 km/h
535 09-09-2007 06:00:00 13.84 C 10.7 g/m*3 13.84 C 0 km/h
536 09-09-2007 07:00:00 13.84 C 10.73 g/m*3 13.84 C 0 km/h
537 09-09-2007 08:00:00 13.58 C 10.48 g/m*3 13.58 C 0 km/h
538 09-09-2007 09:00:00 14.1 C 10.56 g/m*3 14.1 C 0 km/h
539 09-09-2007 10:00:00 14.84 C 9.8 g/m*3 14.84 C 0 km/h
540 09-09-2007 11:00:00 14.84 C 8.86 g/m*3 14.84 C 0 km/h
541 09-09-2007 12:00:00 16.26 C 7.03 g/m*3 16.26 C 0 km/h
542 09-09-2007 13:00:00 16.76 C 7.33 g/m*3 16.76 C 0 km/h
543 09-09-2007 14:00:00 16.94 C 7.5 g/m*3 16.94 C 0 km/h
544 09-09-2007 15:00:00 17.6 C 6.9 g/m*3 17.6 C 0 km/h
545 09-09-2007 16:00:00 18.02 C 7.04 g/m*3 18.02 C 0 km/h
546 09-09-2007 17:00:00 17.5 C 7.28 g/m*3 17.5 C 0 km/h
547 09-09-2007 18:00:00 16.9 C 7.36 g/m*3 16.9 C 0 km/h
548 09-09-2007 19:00:00 16.14 C 7.69 g/m*3 16.14 C 0 km/h
549 09-09-2007 20:00:00 15.26 C 8.1 g/m*3 15.26 C 0 km/h
550 09-09-2007 21:00:00 13.46 C 8.26 g/m*3 13.46 C 0 km/h
Sensor: Nr:Datum:Temp:Abs-Feuchte:Windchill:Wind:
Aussen-T/F 551 09-09-2007 22:00:00 12.34 C 8.47 g/m*3 12.34 C 0 km/h
552 09-09-2007 23:00:00 11.58 C 8.51 g/m*3 11.58 C 0 km/h
553 10-09-2007 00:00:00 10.84 C 8.32 g/m*3 10.84 C 0 km/h
554 10-09-2007 01:00:00 10.3 C 8.27 g/m*3 10.3 C 0 km/h
555 10-09-2007 02:00:00 9.94 C 8.18 g/m*3 9.94 C 0 km/h
556 10-09-2007 03:00:00 9.58 C 8.14 g/m*3 9.58 C 0 km/h
557 10-09-2007 04:00:00 9.2 C 7.97 g/m*3 9.2 C 0 km/h
558 10-09-2007 05:00:00 9 C 8.04 g/m*3 9 C 0 km/h
559 10-09-2007 06:00:00 9.56 C 8.15 g/m*3 9.56 C 0 km/h
560 10-09-2007 07:00:00 10.26 C 8.22 g/m*3 10.26 C 0 km/h
561 10-09-2007 08:00:00 11.2 C 8.25 g/m*3 11.2 C 0 km/h
562 10-09-2007 09:00:00 12.4 C 8.17 g/m*3 12.4 C 0 km/h
563 10-09-2007 10:00:00 13.14 C 8.12 g/m*3 13.14 C 0 km/h
564 10-09-2007 11:00:00 13.8 C 8.15 g/m*3 13.8 C 0 km/h
565 10-09-2007 12:00:00 14.28 C 8.32 g/m*3 14.28 C 0 km/h
566 10-09-2007 13:00:00 15.4 C 8.59 g/m*3 15.4 C 0 km/h
567 10-09-2007 14:00:00 16.74 C 8.8 g/m*3 16.74 C 0 km/h
568 10-09-2007 15:00:00 17.9 C 8.55 g/m*3 17.9 C 0 km/h
569 10-09-2007 16:00:00 16.88 C 9.31 g/m*3 16.88 C 0 km/h
570 10-09-2007 17:00:00 13.9 C 9.76 g/m*3 13.9 C 0 km/h
571 10-09-2007 18:00:00 13.26 C 9.75 g/m*3 13.26 C 0 km/h
572 10-09-2007 19:00:00 12.64 C 9.74 g/m*3 12.64 C 0 km/h
573 10-09-2007 20:00:00 11.9 C 9.57 g/m*3 11.9 C 0 km/h
574 10-09-2007 21:00:00 11.56 C 9.35 g/m*3 11.56 C 0 km/h
575 10-09-2007 22:00:00 11.82 C 8.73 g/m*3 11.82 C 0 km/h
Sensor: Nr:Datum:Temp:Abs-Feuchte:Windchill:Wind:
Aussen-T/F 576 10-09-2007 23:00:00 12.28 C 8.07 g/m*3 12.28 C 0 km/h
577 11-09-2007 00:00:00 11.8 C 8.46 g/m*3 11.8 C 0 km/h
578 11-09-2007 01:00:00 11.98 C 8.34 g/m*3 11.98 C 0 km/h
579 11-09-2007 02:00:00 12.28 C 7.98 g/m*3 12.28 C 0 km/h
580 11-09-2007 03:00:00 12.24 C 7.92 g/m*3 12.24 C 0 km/h
581 11-09-2007 04:00:00 11.84 C 8.42 g/m*3 11.84 C 0 km/h
582 11-09-2007 05:00:00 11.76 C 8.71 g/m*3 11.76 C 0 km/h
583 11-09-2007 06:00:00 11.6 C 8.96 g/m*3 11.6 C 0 km/h
584 11-09-2007 07:00:00 11.5 C 9.09 g/m*3 11.5 C 0 km/h
585 11-09-2007 08:00:00 12.16 C 9.11 g/m*3 12.16 C 0 km/h
586 11-09-2007 09:00:00 13.08 C 8.94 g/m*3 13.08 C 0 km/h
587 11-09-2007 10:00:00 14.72 C 8.77 g/m*3 14.72 C 0 km/h
588 11-09-2007 11:00:00 14.44 C 9.05 g/m*3 14.44 C 0 km/h
589 11-09-2007 12:00:00 16.4 C 8.65 g/m*3 16.4 C 0 km/h
590 11-09-2007 13:00:00 16.08 C 8.21 g/m*3 16.08 C 0 km/h
591 11-09-2007 14:00:00 16.9 C 8.08 g/m*3 16.9 C 0 km/h
592 11-09-2007 15:00:00 17.52 C 7.97 g/m*3 17.52 C 0 km/h
593 11-09-2007 16:00:00 17.84 C 7.85 g/m*3 17.84 C 0 km/h
594 11-09-2007 17:00:00 17.58 C 7.82 g/m*3 17.58 C 0 km/h
595 11-09-2007 18:00:00 17.22 C 7.95 g/m*3 17.22 C 0 km/h
596 11-09-2007 19:00:00 16.34 C 8.54 g/m*3 16.34 C 0 km/h
597 11-09-2007 20:00:00 15.44 C 8.67 g/m*3 15.44 C 0 km/h
598 11-09-2007 21:00:00 15.02 C 8.76 g/m*3 15.02 C 0 km/h
599 11-09-2007 22:00:00 14.66 C 8.79 g/m*3 14.66 C 0 km/h
600 11-09-2007 23:00:00 14.44 C 8.87 g/m*3 14.44 C 0 km/h
Sensor: Nr:Datum:Temp:Abs-Feuchte:Windchill:Wind:
Aussen-T/F 601 12-09-2007 00:00:00 14.44 C 8.82 g/m*3 14.44 C 0 km/h
602 12-09-2007 01:00:00 13.82 C 8.88 g/m*3 13.82 C 0 km/h
603 12-09-2007 02:00:00 12.82 C 9.11 g/m*3 12.82 C 0 km/h
604 12-09-2007 03:00:00 12.96 C 9.23 g/m*3 12.96 C 0 km/h
605 12-09-2007 04:00:00 12.94 C 9.29 g/m*3 12.94 C 0 km/h
606 12-09-2007 05:00:00 12.86 C 9.31 g/m*3 12.86 C 0 km/h
607 12-09-2007 06:00:00 12.76 C 9.34 g/m*3 12.76 C 0 km/h
608 12-09-2007 07:00:00 12.7 C 9.42 g/m*3 12.7 C 0 km/h
609 12-09-2007 08:00:00 13.32 C 9.46 g/m*3 13.32 C 0 km/h
610 12-09-2007 09:00:00 14.54 C 9.05 g/m*3 14.54 C 0 km/h
611 12-09-2007 10:00:00 15.1 C 8.57 g/m*3 15.1 C 0 km/h
612 12-09-2007 11:00:00 16.48 C 8.27 g/m*3 16.48 C 0 km/h
613 12-09-2007 12:00:00 16.78 C 7.85 g/m*3 16.78 C 0 km/h
614 12-09-2007 13:00:00 16.28 C 7.84 g/m*3 16.28 C 0 km/h
615 12-09-2007 14:00:00 17.08 C 7.56 g/m*3 17.08 C 0 km/h
616 12-09-2007 15:00:00 18.5 C 6.99 g/m*3 18.5 C 0 km/h
617 12-09-2007 16:00:00 19.66 C 7.15 g/m*3 19.66 C 0 km/h
618 12-09-2007 17:00:00 19.62 C 6.73 g/m*3 19.62 C 0 km/h
619 12-09-2007 18:00:00 19.36 C 7.46 g/m*3 19.36 C 0 km/h
620 12-09-2007 19:00:00 16.1 C 7.37 g/m*3 16.1 C 0 km/h
621 12-09-2007 20:00:00 14.12 C 7.87 g/m*3 14.12 C 0 km/h
622 12-09-2007 21:00:00 13.14 C 8.1 g/m*3 13.14 C 0 km/h
623 12-09-2007 22:00:00 12.08 C 8.23 g/m*3 12.08 C 0 km/h
624 12-09-2007 23:00:00 11.2 C 8.25 g/m*3 11.2 C 0 km/h
625 13-09-2007 00:00:00 10.56 C 8.24 g/m*3 10.56 C 0 km/h
Sensor: Nr:Datum:Temp:Abs-Feuchte:Windchill:Wind:
Aussen-T/F 626 13-09-2007 01:00:00 9.94 C 8.05 g/m*3 9.94 C 0 km/h
627 13-09-2007 02:00:00 9.28 C 7.9 g/m*3 9.28 C 0 km/h
628 13-09-2007 03:00:00 8.74 C 7.68 g/m*3 8.74 C 0 km/h
629 13-09-2007 04:00:00 8.16 C 7.45 g/m*3 8.16 C 0 km/h
630 13-09-2007 05:00:00 8 C 7.47 g/m*3 8 C 0 km/h
631 13-09-2007 06:00:00 8.22 C 7.65 g/m*3 8.22 C 0 km/h
632 13-09-2007 07:00:00 8.4 C 7.77 g/m*3 8.4 C 0 km/h
633 13-09-2007 08:00:00 9.1 C 7.84 g/m*3 9.1 C 0 km/h
634 13-09-2007 09:00:00 10.26 C 7.89 g/m*3 10.26 C 0 km/h
635 13-09-2007 10:00:00 12.4 C 8.11 g/m*3 12.4 C 0 km/h
636 13-09-2007 11:00:00 14.86 C 8.39 g/m*3 14.86 C 0 km/h
637 13-09-2007 12:00:00 17.2 C 9.05 g/m*3 17.2 C 0 km/h
638 13-09-2007 13:00:00 19.94 C 8.16 g/m*3 19.94 C 0 km/h
639 13-09-2007 14:00:00 22.6 C 7.19 g/m*3 22.6 C 0 km/h
640 13-09-2007 15:00:00 23.08 C 7.1 g/m*3 23.08 C 0 km/h
641 13-09-2007 16:00:00 23.92 C 7.28 g/m*3 23.92 C 0 km/h
642 13-09-2007 17:00:00 22.98 C 7.31 g/m*3 22.98 C 0 km/h
643 13-09-2007 18:00:00 22.86 C 7.42 g/m*3 22.86 C 0 km/h
644 13-09-2007 19:00:00 19.56 C 8.32 g/m*3 19.56 C 0 km/h
645 13-09-2007 20:00:00 16.16 C 8.56 g/m*3 16.16 C 0 km/h
646 13-09-2007 21:00:00 15.06 C 8.8 g/m*3 15.06 C 0 km/h
647 13-09-2007 22:00:00 14.06 C 8.86 g/m*3 14.06 C 0 km/h
648 13-09-2007 23:00:00 13.08 C 8.78 g/m*3 13.08 C 0 km/h
649 14-09-2007 00:00:00 12.2 C 8.57 g/m*3 12.2 C 0 km/h
650 14-09-2007 01:00:00 11.36 C 8.42 g/m*3 11.36 C 0 km/h
Sensor: Nr:Datum:Temp:Abs-Feuchte:Windchill:Wind:
Aussen-T/F 651 14-09-2007 02:00:00 10.68 C 8.14 g/m*3 10.68 C 0 km/h
652 14-09-2007 03:00:00 9.94 C 7.92 g/m*3 9.94 C 0 km/h
653 14-09-2007 04:00:00 9.44 C 7.87 g/m*3 9.44 C 0 km/h
654 14-09-2007 05:00:00 9.48 C 8.05 g/m*3 9.48 C 0 km/h
655 14-09-2007 06:00:00 9.46 C 8.13 g/m*3 9.46 C 0 km/h
656 14-09-2007 07:00:00 9.36 C 7.87 g/m*3 9.36 C 0 km/h
657 14-09-2007 08:00:00 9.78 C 7.99 g/m*3 9.78 C 0 km/h
658 14-09-2007 09:00:00 10.1 C 8.08 g/m*3 10.1 C 0 km/h
659 14-09-2007 10:00:00 11.62 C 8.43 g/m*3 11.62 C 0 km/h
660 14-09-2007 11:00:00 13.72 C 8.92 g/m*3 13.72 C 0 km/h
661 14-09-2007 12:00:00 16.66 C 9.33 g/m*3 16.66 C 0 km/h
662 14-09-2007 13:00:00 20.32 C 8.98 g/m*3 20.32 C 0 km/h
663 14-09-2007 14:00:00 22.92 C 8.31 g/m*3 22.92 C 0 km/h
664 14-09-2007 15:00:00 23.36 C 8.1 g/m*3 23.36 C 0 km/h
665 14-09-2007 16:00:00 24.38 C 7.42 g/m*3 24.38 C 0 km/h
666 14-09-2007 17:00:00 25.04 C 7.11 g/m*3 25.04 C 0 km/h
667 14-09-2007 18:00:00 21.98 C 7.37 g/m*3 21.98 C 0 km/h
668 14-09-2007 19:00:00 20.1 C 7.41 g/m*3 20.1 C 0 km/h
669 14-09-2007 20:00:00 19.32 C 7.51 g/m*3 19.32 C 0 km/h
670 14-09-2007 21:00:00 18.6 C 7.83 g/m*3 18.6 C 0 km/h
671 14-09-2007 22:00:00 18.34 C 7.9 g/m*3 18.34 C 0 km/h
672 14-09-2007 23:00:00 18.26 C 8.14 g/m*3 18.26 C 0 km/h
673 15-09-2007 00:00:00 17.38 C 9.06 g/m*3 17.38 C 0 km/h
674 15-09-2007 01:00:00 15.84 C 10.07 g/m*3 15.84 C 0 km/h
675 15-09-2007 02:00:00 15.44 C 9.77 g/m*3 15.44 C 0 km/h
Sensor: Nr:Datum:Temp:Abs-Feuchte:Windchill:Wind:
Aussen-T/F 676 15-09-2007 03:00:00 14.88 C 9.39 g/m*3 14.88 C 0 km/h
677 15-09-2007 04:00:00 14.04 C 9.26 g/m*3 14.04 C 0 km/h
678 15-09-2007 05:00:00 12.78 C 9.11 g/m*3 12.78 C 0 km/h
679 15-09-2007 06:00:00 12.1 C 9.03 g/m*3 12.1 C 0 km/h
680 15-09-2007 07:00:00 11.44 C 8.91 g/m*3 11.44 C 0 km/h
681 15-09-2007 08:00:00 11.64 C 9.09 g/m*3 11.64 C 0 km/h
682 15-09-2007 09:00:00 13.28 C 9.46 g/m*3 13.28 C 0 km/h
683 15-09-2007 10:00:00 15.68 C 8.79 g/m*3 15.68 C 0 km/h
684 15-09-2007 11:00:00 17.08 C 7.39 g/m*3 17.08 C 0 km/h
685 15-09-2007 12:00:00 18.4 C 7.24 g/m*3 18.4 C 0 km/h
686 15-09-2007 13:00:00 20.66 C 6.54 g/m*3 20.66 C 0 km/h
687 15-09-2007 14:00:00 22.14 C 5.71 g/m*3 22.14 C 0 km/h
688 15-09-2007 15:00:00 22.42 C 5.13 g/m*3 22.42 C 0 km/h
689 15-09-2007 16:00:00 23.76 C 5.45 g/m*3 23.76 C 0 km/h
690 15-09-2007 17:00:00 24.74 C 5.22 g/m*3 24.74 C 0 km/h
691 15-09-2007 18:00:00 24.92 C 5.64 g/m*3 24.92 C 0 km/h
692 15-09-2007 19:00:00 20.28 C 6.46 g/m*3 20.28 C 0 km/h
693 15-09-2007 20:00:00 16.2 C 6.54 g/m*3 16.2 C 0 km/h
694 15-09-2007 21:00:00 14.46 C 6.87 g/m*3 14.46 C 0 km/h
695 15-09-2007 22:00:00 13.24 C 7.14 g/m*3 13.24 C 0 km/h
696 15-09-2007 23:00:00 12.06 C 7.25 g/m*3 12.06 C 0 km/h
697 16-09-2007 00:00:00 11.18 C 7.27 g/m*3 11.18 C 0 km/h
698 16-09-2007 01:00:00 10.42 C 7.26 g/m*3 10.42 C 0 km/h
699 16-09-2007 02:00:00 9.62 C 7.17 g/m*3 9.62 C 0 km/h
700 16-09-2007 03:00:00 9.06 C 7.17 g/m*3 9.06 C 0 km/h
Sensor: Nr:Datum:Temp:Abs-Feuchte:Windchill:Wind:
Aussen-T/F 701 16-09-2007 04:00:00 8.66 C 7.21 g/m*3 8.66 C 0 km/h
702 16-09-2007 05:00:00 8.7 C 7.21 g/m*3 8.7 C 0 km/h
703 16-09-2007 06:00:00 8.24 C 7.12 g/m*3 8.24 C 0 km/h
704 16-09-2007 07:00:00 8.02 C 7.04 g/m*3 8.02 C 0 km/h
705 16-09-2007 08:00:00 8.14 C 7.09 g/m*3 8.14 C 0 km/h
706 16-09-2007 09:00:00 9.08 C 7.46 g/m*3 9.08 C 0 km/h
707 16-09-2007 10:00:00 11.76 C 7.94 g/m*3 11.76 C 0 km/h
708 16-09-2007 11:00:00 15.36 C 8.34 g/m*3 15.36 C 0 km/h
709 16-09-2007 12:00:00 18.76 C 7.9 g/m*3 18.76 C 0 km/h
710 16-09-2007 13:00:00 20.82 C 7.61 g/m*3 20.82 C 0 km/h
711 16-09-2007 14:00:00 22.76 C 7.26 g/m*3 22.76 C 0 km/h
712 16-09-2007 15:00:00 24.06 C 6.9 g/m*3 24.06 C 0 km/h
713 16-09-2007 16:00:00 24.3 C 7.13 g/m*3 24.3 C 0 km/h
714 16-09-2007 17:00:00 24 C 7.27 g/m*3 24 C 0 km/h
715 16-09-2007 18:00:00 24.24 C 7.67 g/m*3 24.24 C 0 km/h
716 16-09-2007 19:00:00 21.44 C 8.42 g/m*3 21.44 C 0 km/h
717 16-09-2007 20:00:00 18.66 C 8.88 g/m*3 18.66 C 0 km/h
718 16-09-2007 21:00:00 17.42 C 9.23 g/m*3 17.42 C 0 km/h
719 16-09-2007 22:00:00 16.4 C 9.49 g/m*3 16.4 C 0 km/h
720 16-09-2007 23:00:00 15.38 C 9.5 g/m*3 15.38 C 0 km/h
721 17-09-2007 00:00:00 14.56 C 9.61 g/m*3 14.56 C 0 km/h
722 17-09-2007 01:00:00 13.94 C 9.64 g/m*3 13.94 C 0 km/h
723 17-09-2007 02:00:00 13.4 C 9.46 g/m*3 13.4 C 0 km/h
724 17-09-2007 03:00:00 12.92 C 9.34 g/m*3 12.92 C 0 km/h
725 17-09-2007 04:00:00 12.42 C 9.26 g/m*3 12.42 C 0 km/h
Sensor: Nr:Datum:Temp:Abs-Feuchte:Windchill:Wind:
Aussen-T/F 726 17-09-2007 05:00:00 12.52 C 9.64 g/m*3 12.52 C 0 km/h
727 17-09-2007 06:00:00 12.64 C 9.78 g/m*3 12.64 C 0 km/h
728 17-09-2007 07:00:00 11.46 C 9.15 g/m*3 11.46 C 0 km/h
729 17-09-2007 08:00:00 12.1 C 9.5 g/m*3 12.1 C 0 km/h
730 17-09-2007 09:00:00 13.48 C 10 g/m*3 13.48 C 0 km/h
731 17-09-2007 10:00:00 16.3 C 10.24 g/m*3 16.3 C 0 km/h
732 17-09-2007 11:00:00 19.56 C 10.04 g/m*3 19.56 C 0 km/h
733 17-09-2007 12:00:00 20.66 C 9.05 g/m*3 20.66 C 0 km/h
734 17-09-2007 13:00:00 21.88 C 8.4 g/m*3 21.88 C 0 km/h
735 17-09-2007 14:00:00 22.48 C 8.54 g/m*3 22.48 C 0 km/h
736 17-09-2007 15:00:00 23.3 C 8.53 g/m*3 23.3 C 0 km/h
737 17-09-2007 16:00:00 22.56 C 8.9 g/m*3 22.56 C 0 km/h
738 17-09-2007 17:00:00 21.78 C 9.66 g/m*3 21.78 C 0 km/h
739 17-09-2007 18:00:00 20.72 C 10.02 g/m*3 20.72 C 0 km/h
740 17-09-2007 19:00:00 19.78 C 10.48 g/m*3 19.78 C 0 km/h
741 17-09-2007 20:00:00 17.96 C 10.76 g/m*3 17.96 C 0 km/h
742 17-09-2007 21:00:00 15.36 C 11.72 g/m*3 15.36 C 0 km/h
743 17-09-2007 22:00:00 14.6 C 11.36 g/m*3 14.6 C 0 km/h
744 17-09-2007 23:00:00 14.14 C 10.9 g/m*3 14.14 C 0 km/h
745 18-09-2007 00:00:00 13.84 C 10.61 g/m*3 13.84 C 0 km/h
746 18-09-2007 01:00:00 13.7 C 10.28 g/m*3 13.7 C 0 km/h
747 18-09-2007 02:00:00 12.66 C 9.82 g/m*3 12.66 C 0 km/h
748 18-09-2007 03:00:00 11.84 C 9.69 g/m*3 11.84 C 0 km/h
749 18-09-2007 04:00:00 11.56 C 9.68 g/m*3 11.56 C 0 km/h
750 18-09-2007 05:00:00 10.74 C 9.08 g/m*3 10.74 C 0 km/h
Sensor: Nr:Datum:Temp:Abs-Feuchte:Windchill:Wind:
Aussen-T/F 751 18-09-2007 06:00:00 10.38 C 8.86 g/m*3 10.38 C 0 km/h
752 18-09-2007 07:00:00 10.22 C 8.79 g/m*3 10.22 C 0 km/h
753 18-09-2007 08:00:00 10.48 C 8.8 g/m*3 10.48 C 0 km/h
754 18-09-2007 09:00:00 10.62 C 8.37 g/m*3 10.62 C 0 km/h
755 18-09-2007 10:00:00 11.28 C 8.44 g/m*3 11.28 C 0 km/h
756 18-09-2007 11:00:00 12.92 C 7.72 g/m*3 12.92 C 0 km/h
757 18-09-2007 12:00:00 11.68 C 8.27 g/m*3 11.68 C 0 km/h
758 18-09-2007 13:00:00 11.1 C 8.66 g/m*3 11.1 C 0 km/h
759 18-09-2007 14:00:00 11.68 C 8.19 g/m*3 11.68 C 0 km/h
760 18-09-2007 15:00:00 12.16 C 8.42 g/m*3 12.16 C 0 km/h
761 18-09-2007 16:00:00 11.42 C 8.1 g/m*3 11.42 C 0 km/h
762 18-09-2007 17:00:00 13.8 C 7.32 g/m*3 13.8 C 0 km/h
763 18-09-2007 18:00:00 13.38 C 5.9 g/m*3 13.38 C 0 km/h
764 18-09-2007 19:00:00 12.58 C 6.32 g/m*3 12.58 C 0 km/h
765 18-09-2007 20:00:00 10.48 C 6.7 g/m*3 10.48 C 0 km/h
766 18-09-2007 21:00:00 9.8 C 6.72 g/m*3 9.8 C 0 km/h
767 18-09-2007 22:00:00 8.74 C 6.9 g/m*3 8.74 C 0 km/h
768 18-09-2007 23:00:00 8.18 C 6.69 g/m*3 8.18 C 0 km/h
769 19-09-2007 00:00:00 7.74 C 6.63 g/m*3 7.74 C 0 km/h
770 19-09-2007 01:00:00 6.86 C 6.56 g/m*3 6.86 C 0 km/h
771 19-09-2007 02:00:00 6.26 C 6.53 g/m*3 6.26 C 0 km/h
772 19-09-2007 03:00:00 5.76 C 6.49 g/m*3 5.76 C 0 km/h
773 19-09-2007 04:00:00 5.76 C 6.53 g/m*3 5.76 C 0 km/h
774 19-09-2007 05:00:00 5.72 C 6.5 g/m*3 5.72 C 0 km/h
775 19-09-2007 06:00:00 5.9 C 6.53 g/m*3 5.9 C 0 km/h
Sensor: Nr:Datum:Temp:Abs-Feuchte:Windchill:Wind:
Aussen-T/F 776 19-09-2007 07:00:00 6.22 C 6.55 g/m*3 6.22 C 0 km/h
777 19-09-2007 08:00:00 6.9 C 6.74 g/m*3 6.9 C 0 km/h
778 19-09-2007 09:00:00 7.7 C 6.96 g/m*3 7.7 C 0 km/h
779 19-09-2007 10:00:00 9.68 C 6.67 g/m*3 9.68 C 0 km/h
780 19-09-2007 11:00:00 11.48 C 6.07 g/m*3 11.48 C 0 km/h
781 19-09-2007 12:00:00 13.46 C 5.58 g/m*3 13.46 C 0 km/h
782 19-09-2007 13:00:00 13.84 C 5.64 g/m*3 13.84 C 0 km/h
783 19-09-2007 14:00:00 15.74 C 5.07 g/m*3 15.74 C 0 km/h
784 19-09-2007 15:00:00 16.18 C 4.88 g/m*3 16.18 C 0 km/h
785 19-09-2007 16:00:00 15.64 C 5.15 g/m*3 15.64 C 0 km/h
786 19-09-2007 17:00:00 15.12 C 5.37 g/m*3 15.12 C 0 km/h
787 19-09-2007 18:00:00 15.16 C 5.57 g/m*3 15.16 C 0 km/h
788 19-09-2007 19:00:00 13.5 C 5.75 g/m*3 13.5 C 0 km/h
789 19-09-2007 20:00:00 11.5 C 5.97 g/m*3 11.5 C 0 km/h
790 19-09-2007 21:00:00 10.28 C 6.26 g/m*3 10.28 C 0 km/h
791 19-09-2007 22:00:00 10.58 C 6.38 g/m*3 10.58 C 0 km/h
792 19-09-2007 23:00:00 10.88 C 6 g/m*3 10.88 C 0 km/h
793 20-09-2007 00:00:00 11.7 C 5.56 g/m*3 11.7 C 0 km/h
794 20-09-2007 01:00:00 10.58 C 6.57 g/m*3 10.58 C 0 km/h
795 20-09-2007 02:00:00 9.98 C 7.36 g/m*3 9.98 C 0 km/h
796 20-09-2007 03:00:00 9.5 C 7.81 g/m*3 9.5 C 0 km/h
797 20-09-2007 04:00:00 9.54 C 8.03 g/m*3 9.54 C 0 km/h
798 20-09-2007 05:00:00 9.58 C 7.65 g/m*3 9.58 C 0 km/h
799 20-09-2007 06:00:00 9.52 C 7.31 g/m*3 9.52 C 0 km/h
800 20-09-2007 07:00:00 9.02 C 7.31 g/m*3 9.02 C 0 km/h
Sensor: Nr:Datum:Temp:Abs-Feuchte:Windchill:Wind:
Aussen-T/F 801 20-09-2007 08:00:00 9.88 C 7.65 g/m*3 9.88 C 0 km/h
802 20-09-2007 09:00:00 11.16 C 7.24 g/m*3 11.16 C 0 km/h
803 20-09-2007 10:00:00 12.9 C 6.58 g/m*3 12.9 C 0 km/h
804 20-09-2007 11:00:00 14.7 C 6.3 g/m*3 14.7 C 0 km/h
805 20-09-2007 12:00:00 15.72 C 6.05 g/m*3 15.72 C 0 km/h
806 20-09-2007 13:00:00 16.72 C 5.83 g/m*3 16.72 C 0 km/h
807 20-09-2007 14:00:00 17.86 C 5.51 g/m*3 17.86 C 0 km/h
808 20-09-2007 15:00:00 19.08 C 5.5 g/m*3 19.08 C 0 km/h
809 20-09-2007 16:00:00 20.52 C 5.52 g/m*3 20.52 C 0 km/h
810 20-09-2007 17:00:00 20.7 C 5.65 g/m*3 20.7 C 0 km/h
811 20-09-2007 18:00:00 20.32 C 5.95 g/m*3 20.32 C 0 km/h
812 20-09-2007 19:00:00 17.3 C 6.28 g/m*3 17.3 C 0 km/h
813 20-09-2007 20:00:00 15 C 6.59 g/m*3 15 C 0 km/h
814 20-09-2007 21:00:00 13.48 C 6.99 g/m*3 13.48 C 0 km/h
815 20-09-2007 22:00:00 12.32 C 7.24 g/m*3 12.32 C 0 km/h
816 20-09-2007 23:00:00 11.26 C 7.28 g/m*3 11.26 C 0 km/h
817 21-09-2007 00:00:00 10.4 C 7.34 g/m*3 10.4 C 0 km/h
818 21-09-2007 01:00:00 9.86 C 7.38 g/m*3 9.86 C 0 km/h
819 21-09-2007 02:00:00 9.18 C 7.15 g/m*3 9.18 C 0 km/h
820 21-09-2007 03:00:00 8.54 C 7.14 g/m*3 8.54 C 0 km/h
821 21-09-2007 04:00:00 8.04 C 7.06 g/m*3 8.04 C 0 km/h
822 21-09-2007 05:00:00 7.62 C 7.03 g/m*3 7.62 C 0 km/h
823 21-09-2007 06:00:00 7.34 C 6.91 g/m*3 7.34 C 0 km/h
824 21-09-2007 07:00:00 6.84 C 6.79 g/m*3 6.84 C 0 km/h
825 21-09-2007 08:00:00 7.18 C 6.96 g/m*3 7.18 C 0 km/h
Sensor: Nr:Datum:Temp:Abs-Feuchte:Windchill:Wind:
Aussen-T/F 826 21-09-2007 09:00:00 8.38 C 7.54 g/m*3 8.38 C 0 km/h
827 21-09-2007 10:00:00 11.86 C 7.73 g/m*3 11.86 C 0 km/h
828 21-09-2007 11:00:00 15.42 C 7.97 g/m*3 15.42 C 0 km/h
829 21-09-2007 12:00:00 18.26 C 6.99 g/m*3 18.26 C 0 km/h
830 21-09-2007 13:00:00 19.14 C 6.9 g/m*3 19.14 C 0 km/h
831 21-09-2007 14:00:00 21.64 C 6.58 g/m*3 21.64 C 0 km/h
832 21-09-2007 15:00:00 23.56 C 6.15 g/m*3 23.56 C 0 km/h
833 21-09-2007 16:00:00 24.88 C 6.13 g/m*3 24.88 C 0 km/h
834 21-09-2007 17:00:00 25.04 C 6.04 g/m*3 25.04 C 0 km/h
835 21-09-2007 18:00:00 23.88 C 6.79 g/m*3 23.88 C 0 km/h
836 21-09-2007 19:00:00 18.96 C 7.28 g/m*3 18.96 C 0 km/h
837 21-09-2007 20:00:00 16.44 C 7.33 g/m*3 16.44 C 0 km/h
838 21-09-2007 21:00:00 15.34 C 7.59 g/m*3 15.34 C 0 km/h
839 21-09-2007 22:00:00 14.04 C 7.74 g/m*3 14.04 C 0 km/h
840 21-09-2007 23:00:00 12.76 C 7.62 g/m*3 12.76 C 0 km/h
841 22-09-2007 00:00:00 11.78 C 7.69 g/m*3 11.78 C 0 km/h
842 22-09-2007 01:00:00 11.34 C 7.65 g/m*3 11.34 C 0 km/h
843 22-09-2007 02:00:00 10.8 C 7.77 g/m*3 10.8 C 0 km/h
844 22-09-2007 03:00:00 10.56 C 7.67 g/m*3 10.56 C 0 km/h
845 22-09-2007 04:00:00 10.08 C 7.69 g/m*3 10.08 C 0 km/h
846 22-09-2007 05:00:00 9.6 C 7.6 g/m*3 9.6 C 0 km/h
847 22-09-2007 06:00:00 9.1 C 7.42 g/m*3 9.1 C 0 km/h
848 22-09-2007 07:00:00 8.66 C 7.45 g/m*3 8.66 C 0 km/h
849 22-09-2007 08:00:00 9.2 C 7.66 g/m*3 9.2 C 0 km/h
850 22-09-2007 09:00:00 9.9 C 7.81 g/m*3 9.9 C 0 km/h
Sensor: Nr:Datum:Temp:Abs-Feuchte:Windchill:Wind:
Aussen-T/F 851 22-09-2007 10:00:00 11.68 C 8.36 g/m*3 11.68 C 0 km/h
852 22-09-2007 11:00:00 14.64 C 8.78 g/m*3 14.64 C 0 km/h
853 22-09-2007 12:00:00 17.74 C 9.07 g/m*3 17.74 C 0 km/h
854 22-09-2007 13:00:00 20.56 C 9.18 g/m*3 20.56 C 0 km/h
855 22-09-2007 14:00:00 24.04 C 8.5 g/m*3 24.04 C 0 km/h
856 22-09-2007 15:00:00 26.22 C 8.43 g/m*3 26.22 C 0 km/h
857 22-09-2007 16:00:00 27.84 C 7.71 g/m*3 27.84 C 0 km/h
858 22-09-2007 17:00:00 27.9 C 7.68 g/m*3 27.9 C 0 km/h
859 22-09-2007 18:00:00 24.86 C 7.9 g/m*3 24.86 C 0 km/h
860 22-09-2007 19:00:00 20.86 C 8.21 g/m*3 20.86 C 0 km/h
861 22-09-2007 20:00:00 18.58 C 8.62 g/m*3 18.58 C 0 km/h
862 22-09-2007 21:00:00 17.1 C 9.2 g/m*3 17.1 C 0 km/h
863 22-09-2007 22:00:00 15.74 C 9.36 g/m*3 15.74 C 0 km/h
864 22-09-2007 23:00:00 14.64 C 9.26 g/m*3 14.64 C 0 km/h
865 23-09-2007 00:00:00 13.86 C 9.11 g/m*3 13.86 C 0 km/h
866 23-09-2007 01:00:00 13.16 C 9.09 g/m*3 13.16 C 0 km/h
867 23-09-2007 02:00:00 12.46 C 8.93 g/m*3 12.46 C 0 km/h
868 23-09-2007 03:00:00 11.96 C 8.87 g/m*3 11.96 C 0 km/h
869 23-09-2007 04:00:00 11.58 C 8.82 g/m*3 11.58 C 0 km/h
870 23-09-2007 05:00:00 11.16 C 8.59 g/m*3 11.16 C 0 km/h
871 23-09-2007 06:00:00 10.74 C 8.47 g/m*3 10.74 C 0 km/h
872 23-09-2007 07:00:00 10.78 C 8.55 g/m*3 10.78 C 0 km/h
873 23-09-2007 08:00:00 12.12 C 9.02 g/m*3 12.12 C 0 km/h
874 23-09-2007 09:00:00 12.64 C 9.14 g/m*3 12.64 C 0 km/h
875 23-09-2007 10:00:00 14.5 C 9.78 g/m*3 14.5 C 0 km/h
Sensor: Nr:Datum:Temp:Abs-Feuchte:Windchill:Wind:
Aussen-T/F 876 23-09-2007 11:00:00 17.34 C 9.95 g/m*3 17.34 C 0 km/h
877 23-09-2007 12:00:00 19.9 C 10.27 g/m*3 19.9 C 0 km/h
878 23-09-2007 13:00:00 22.6 C 9.84 g/m*3 22.6 C 0 km/h
879 23-09-2007 14:00:00 25.54 C 8.64 g/m*3 25.54 C 0 km/h
880 23-09-2007 15:00:00 26.84 C 7.86 g/m*3 26.84 C 0 km/h
881 23-09-2007 16:00:00 29.5 C 7.32 g/m*3 29.5 C 0 km/h
882 23-09-2007 17:00:00 29.14 C 7.64 g/m*3 29.14 C 0 km/h
883 23-09-2007 18:00:00 26.7 C 7.85 g/m*3 26.7 C 0 km/h
884 23-09-2007 19:00:00 21.92 C 8.62 g/m*3 21.92 C 0 km/h
885 23-09-2007 20:00:00 19.64 C 8.56 g/m*3 19.64 C 0 km/h
886 23-09-2007 21:00:00 18.92 C 8.6 g/m*3 18.92 C 0 km/h
887 23-09-2007 22:00:00 17.78 C 8.55 g/m*3 17.78 C 0 km/h
888 23-09-2007 23:00:00 16.5 C 8.85 g/m*3 16.5 C 0 km/h
889 24-09-2007 00:00:00 15.94 C 9.1 g/m*3 15.94 C 0 km/h
890 24-09-2007 01:00:00 15.18 C 9.1 g/m*3 15.18 C 0 km/h
891 24-09-2007 02:00:00 14.5 C 9.2 g/m*3 14.5 C 0 km/h
892 24-09-2007 03:00:00 14.36 C 9.4 g/m*3 14.36 C 0 km/h
893 24-09-2007 04:00:00 13.72 C 9.32 g/m*3 13.72 C 0 km/h
894 24-09-2007 05:00:00 13.26 C 9.38 g/m*3 13.26 C 0 km/h
895 24-09-2007 06:00:00 12.84 C 9.39 g/m*3 12.84 C 0 km/h
896 24-09-2007 07:00:00 12.44 C 9.4 g/m*3 12.44 C 0 km/h
897 24-09-2007 08:00:00 12.5 C 9.59 g/m*3 12.5 C 0 km/h
898 24-09-2007 09:00:00 13.36 C 10.25 g/m*3 13.36 C 0 km/h
899 24-09-2007 10:00:00 16.04 C 10.73 g/m*3 16.04 C 0 km/h
900 24-09-2007 11:00:00 19.04 C 8.49 g/m*3 19.04 C 0 km/h
Sensor: Nr:Datum:Temp:Abs-Feuchte:Windchill:Wind:
Aussen-T/F 901 24-09-2007 12:00:00 21.54 C 7.79 g/m*3 21.54 C 0 km/h
902 24-09-2007 13:00:00 22.72 C 7.36 g/m*3 22.72 C 0 km/h
903 24-09-2007 14:00:00 23.76 C 7.51 g/m*3 23.76 C 0 km/h
904 24-09-2007 15:00:00 23.6 C 7.44 g/m*3 23.6 C 0 km/h
905 24-09-2007 16:00:00 22.72 C 7.24 g/m*3 22.72 C 0 km/h
906 24-09-2007 17:00:00 21.88 C 7.48 g/m*3 21.88 C 0 km/h
907 24-09-2007 18:00:00 20.48 C 8.07 g/m*3 20.48 C 0 km/h
908 24-09-2007 19:00:00 17.92 C 9.88 g/m*3 17.92 C 0 km/h
909 24-09-2007 20:00:00 17.12 C 10.29 g/m*3 17.12 C 0 km/h
910 24-09-2007 21:00:00 14.46 C 10.15 g/m*3 14.46 C 0 km/h
911 24-09-2007 22:00:00 14.38 C 10.59 g/m*3 14.38 C 0 km/h
912 24-09-2007 23:00:00 13.24 C 9.65 g/m*3 13.24 C 0 km/h
913 25-09-2007 00:00:00 12.12 C 9.47 g/m*3 12.12 C 0 km/h
914 25-09-2007 01:00:00 11.78 C 9.5 g/m*3 11.78 C 0 km/h
915 25-09-2007 02:00:00 11.74 C 9.54 g/m*3 11.74 C 0 km/h
916 25-09-2007 03:00:00 11.14 C 9.11 g/m*3 11.14 C 0 km/h
917 25-09-2007 04:00:00 10.76 C 8.87 g/m*3 10.76 C 0 km/h
918 25-09-2007 05:00:00 10.56 C 8.72 g/m*3 10.56 C 0 km/h
919 25-09-2007 06:00:00 10.22 C 8.5 g/m*3 10.22 C 0 km/h
920 25-09-2007 07:00:00 10.14 C 8.34 g/m*3 10.14 C 0 km/h
921 25-09-2007 08:00:00 10.06 C 8.38 g/m*3 10.06 C 0 km/h
922 25-09-2007 09:00:00 10.94 C 8.34 g/m*3 10.94 C 0 km/h
923 25-09-2007 10:00:00 12.62 C 7.71 g/m*3 12.62 C 0 km/h
924 25-09-2007 11:00:00 13.68 C 7.24 g/m*3 13.68 C 0 km/h
925 25-09-2007 12:00:00 14.42 C 6.76 g/m*3 14.42 C 0 km/h
Sensor: Nr:Datum:Temp:Abs-Feuchte:Windchill:Wind:
Aussen-T/F 926 25-09-2007 13:00:00 16.06 C 6.45 g/m*3 16.06 C 0 km/h
927 25-09-2007 14:00:00 15.84 C 6.34 g/m*3 15.84 C 0 km/h
928 25-09-2007 15:00:00 16.04 C 6.31 g/m*3 16.04 C 0 km/h
929 25-09-2007 16:00:00 17 C 6.08 g/m*3 17 C 0 km/h
930 25-09-2007 17:00:00 16.38 C 5.88 g/m*3 16.38 C 0 km/h
931 25-09-2007 18:00:00 16.82 C 5.84 g/m*3 16.82 C 0 km/h
932 25-09-2007 19:00:00 14.08 C 6.11 g/m*3 14.08 C 0 km/h
933 25-09-2007 20:00:00 12.36 C 6.41 g/m*3 12.36 C 0 km/h
934 25-09-2007 21:00:00 11.82 C 6.6 g/m*3 11.82 C 0 km/h
935 25-09-2007 22:00:00 11.8 C 6.69 g/m*3 11.8 C 0 km/h
936 25-09-2007 23:00:00 11.68 C 6.79 g/m*3 11.68 C 0 km/h
937 26-09-2007 00:00:00 11.52 C 6.89 g/m*3 11.52 C 0 km/h
938 26-09-2007 01:00:00 11.38 C 6.91 g/m*3 11.38 C 0 km/h
939 26-09-2007 02:00:00 11.3 C 7.14 g/m*3 11.3 C 0 km/h
940 26-09-2007 03:00:00 11.12 C 7.26 g/m*3 11.12 C 0 km/h
941 26-09-2007 04:00:00 10.82 C 7.2 g/m*3 10.82 C 0 km/h
942 26-09-2007 05:00:00 10.46 C 7.24 g/m*3 10.46 C 0 km/h
943 26-09-2007 06:00:00 9.94 C 7.64 g/m*3 9.94 C 0 km/h
944 26-09-2007 07:00:00 9.16 C 7.54 g/m*3 9.16 C 0 km/h
945 26-09-2007 08:00:00 10.14 C 7.98 g/m*3 10.14 C 0 km/h
946 26-09-2007 09:00:00 11.1 C 7.84 g/m*3 11.1 C 0 km/h
947 26-09-2007 10:00:00 13.62 C 7.28 g/m*3 13.62 C 0 km/h
948 26-09-2007 11:00:00 15.36 C 7.13 g/m*3 15.36 C 0 km/h
949 26-09-2007 12:00:00 15.16 C 7.12 g/m*3 15.16 C 0 km/h
950 26-09-2007 13:00:00 13.66 C 8.32 g/m*3 13.66 C 0 km/h
Sensor: Nr:Datum:Temp:Abs-Feuchte:Windchill:Wind:
Aussen-T/F 951 26-09-2007 14:00:00 14.98 C 9.37 g/m*3 14.98 C 0 km/h
952 26-09-2007 15:00:00 16.74 C 8.29 g/m*3 16.74 C 0 km/h
953 26-09-2007 16:00:00 17.6 C 7.62 g/m*3 17.6 C 0 km/h
954 26-09-2007 17:00:00 14.58 C 8.07 g/m*3 14.58 C 0 km/h
955 26-09-2007 18:00:00 12.44 C 8.94 g/m*3 12.44 C 0 km/h
956 26-09-2007 19:00:00 11.8 C 8.53 g/m*3 11.8 C 0 km/h
957 26-09-2007 20:00:00 11.4 C 8.4 g/m*3 11.4 C 0 km/h
958 26-09-2007 21:00:00 10.8 C 8.2 g/m*3 10.8 C 0 km/h
959 26-09-2007 22:00:00 9.9 C 8.01 g/m*3 9.9 C 0 km/h
960 26-09-2007 23:00:00 9.44 C 8.02 g/m*3 9.44 C 0 km/h
961 27-09-2007 00:00:00 9.58 C 8.14 g/m*3 9.58 C 0 km/h
962 27-09-2007 01:00:00 9.92 C 8.26 g/m*3 9.92 C 0 km/h
963 27-09-2007 02:00:00 9.84 C 8.19 g/m*3 9.84 C 0 km/h
964 27-09-2007 03:00:00 9.62 C 8.07 g/m*3 9.62 C 0 km/h
965 27-09-2007 04:00:00 9.42 C 8.06 g/m*3 9.42 C 0 km/h
966 27-09-2007 05:00:00 9.26 C 8.16 g/m*3 9.26 C 0 km/h
967 27-09-2007 06:00:00 9.2 C 8.22 g/m*3 9.2 C 0 km/h
968 27-09-2007 07:00:00 9.24 C 8.29 g/m*3 9.24 C 0 km/h
969 27-09-2007 08:00:00 9.42 C 8.42 g/m*3 9.42 C 0 km/h
970 27-09-2007 09:00:00 9.5 C 8.52 g/m*3 9.5 C 0 km/h
971 27-09-2007 10:00:00 9.62 C 8.62 g/m*3 9.62 C 0 km/h
972 27-09-2007 11:00:00 9.94 C 8.86 g/m*3 9.94 C 0 km/h
973 27-09-2007 12:00:00 10.16 C 8.98 g/m*3 10.16 C 0 km/h
974 27-09-2007 13:00:00 10.38 C 9.14 g/m*3 10.38 C 0 km/h
975 27-09-2007 14:00:00 10.7 C 9.33 g/m*3 10.7 C 0 km/h
Sensor: Nr:Datum:Temp:Abs-Feuchte:Windchill:Wind:
Aussen-T/F 976 27-09-2007 15:00:00 10.94 C 9.47 g/m*3 10.94 C 0 km/h
977 27-09-2007 16:00:00 11.08 C 9.56 g/m*3 11.08 C 0 km/h
978 27-09-2007 17:00:00 11.1 C 9.57 g/m*3 11.1 C 0 km/h
979 27-09-2007 18:00:00 11 C 9.51 g/m*3 11 C 0 km/h
980 27-09-2007 19:00:00 11 C 9.51 g/m*3 11 C 0 km/h
981 27-09-2007 20:00:00 11 C 9.51 g/m*3 11 C 0 km/h
982 27-09-2007 21:00:00 10.98 C 9.5 g/m*3 10.98 C 0 km/h
983 27-09-2007 22:00:00 10.8 C 9.39 g/m*3 10.8 C 0 km/h
984 27-09-2007 23:00:00 10.88 C 9.44 g/m*3 10.88 C 0 km/h
985 28-09-2007 00:00:00 10.8 C 9.39 g/m*3 10.8 C 0 km/h
986 28-09-2007 01:00:00 10.68 C 9.32 g/m*3 10.68 C 0 km/h
987 28-09-2007 02:00:00 10.625 C 9.29 g/m*3 10.63 C 0 km/h
988 28-09-2007 03:00:00 10.84 C 9.41 g/m*3 10.84 C 0 km/h
989 28-09-2007 04:00:00 10.82 C 9.4 g/m*3 10.82 C 0 km/h
990 28-09-2007 05:00:00 10.8 C 9.39 g/m*3 10.8 C 0 km/h
991 28-09-2007 06:00:00 10.74 C 9.35 g/m*3 10.74 C 0 km/h
992 28-09-2007 07:00:00 10.66 C 9.31 g/m*3 10.66 C 0 km/h
993 28-09-2007 08:00:00 10.6 C 9.27 g/m*3 10.6 C 0 km/h
994 28-09-2007 09:00:00 11.14 C 9.59 g/m*3 11.14 C 0 km/h
995 28-09-2007 10:00:00 11.78 C 9.8 g/m*3 11.78 C 0 km/h
996 28-09-2007 11:00:00 13.24 C 8.84 g/m*3 13.24 C 0 km/h
997 28-09-2007 12:00:00 14.18 C 8.12 g/m*3 14.18 C 0 km/h
998 28-09-2007 13:00:00 14.86 C 8.06 g/m*3 14.86 C 0 km/h
999 28-09-2007 14:00:00 15.78 C 7.48 g/m*3 15.78 C 0 km/h
1000 28-09-2007 15:00:00 16.3 C 7.16 g/m*3 16.3 C 0 km/h
Sensor: Nr:Datum:Temp:Abs-Feuchte:Windchill:Wind:
Aussen-T/F 1001 28-09-2007 16:00:00 16.1 C 7.02 g/m*3 16.1 C 0 km/h
1002 28-09-2007 17:00:00 14.46 C 8.39 g/m*3 14.46 C 0 km/h
1003 28-09-2007 18:00:00 13.5 C 8.4 g/m*3 13.5 C 0 km/h
1004 28-09-2007 19:00:00 12.92 C 8.03 g/m*3 12.92 C 0 km/h
1005 28-09-2007 20:00:00 12.52 C 7.49 g/m*3 12.52 C 0 km/h
1006 28-09-2007 21:00:00 12.28 C 7.57 g/m*3 12.28 C 0 km/h
1007 28-09-2007 22:00:00 12.1 C 7.76 g/m*3 12.1 C 0 km/h
1008 28-09-2007 23:00:00 11.94 C 8.03 g/m*3 11.94 C 0 km/h
1009 29-09-2007 00:00:00 11.84 C 8.15 g/m*3 11.84 C 0 km/h
1010 29-09-2007 01:00:00 11.84 C 8.21 g/m*3 11.84 C 0 km/h
1011 29-09-2007 02:00:00 12.04 C 8.18 g/m*3 12.04 C 0 km/h
1012 29-09-2007 03:00:00 12.08 C 8.16 g/m*3 12.08 C 0 km/h
1013 29-09-2007 04:00:00 11.72 C 8.15 g/m*3 11.72 C 0 km/h
1014 29-09-2007 05:00:00 11.76 C 8.08 g/m*3 11.76 C 0 km/h
1015 29-09-2007 06:00:00 11.78 C 8.05 g/m*3 11.78 C 0 km/h
1016 29-09-2007 07:00:00 11.98 C 8.26 g/m*3 11.98 C 0 km/h
1017 29-09-2007 08:00:00 12.14 C 8.67 g/m*3 12.14 C 0 km/h
1018 29-09-2007 09:00:00 12.56 C 9.05 g/m*3 12.56 C 0 km/h
1019 29-09-2007 10:00:00 13.06 C 9.27 g/m*3 13.06 C 0 km/h
1020 29-09-2007 11:00:00 12.62 C 9.57 g/m*3 12.62 C 0 km/h
1021 29-09-2007 12:00:00 14.43333 C 8.85 g/m*3 14.43 C 0 km/h
1022 29-09-2007 13:00:00 14.62105 C 8.43 g/m*3 14.62 C 0 km/h
1023 29-09-2007 14:00:00 14.455 C 8.3 g/m*3 14.46 C 0 km/h
1024 29-09-2007 15:00:00 16.775 C 7.6 g/m*3 16.77 C 0 km/h
1025 29-09-2007 16:00:00 15.815 C 7.5 g/m*3 15.82 C 0 km/h
Sensor: Nr:Datum:Temp:Abs-Feuchte:Windchill:Wind:
Aussen-T/F 1026 29-09-2007 17:00:00 15.375 C 7.52 g/m*3 15.38 C 0 km/h
1027 29-09-2007 18:00:00 14.21 C 7.91 g/m*3 14.21 C 0 km/h
1028 29-09-2007 19:00:00 12.44 C 9.04 g/m*3 12.44 C 0 km/h
1029 29-09-2007 20:00:00 12.135 C 9.24 g/m*3 12.14 C 0 km/h
1030 29-09-2007 21:00:00 12.04 C 9.32 g/m*3 12.04 C 0 km/h
1031 29-09-2007 22:00:00 12.395 C 9.34 g/m*3 12.4 C 0 km/h
1032 29-09-2007 23:00:00 12.66 C 9.25 g/m*3 12.66 C 0 km/h
1033 30-09-2007 00:00:00 12.78 C 9.26 g/m*3 12.78 C 0 km/h
1034 30-09-2007 01:00:00 12.855 C 9.28 g/m*3 12.86 C 0 km/h
1035 30-09-2007 02:00:00 12.825 C 9.41 g/m*3 12.83 C 0 km/h
1036 30-09-2007 03:00:00 12.63 C 9.55 g/m*3 12.63 C 0 km/h
1037 30-09-2007 04:00:00 12.54 C 9.57 g/m*3 12.54 C 0 km/h
1038 30-09-2007 05:00:00 12.395 C 9.44 g/m*3 12.4 C 0 km/h
1039 30-09-2007 06:00:00 11.225 C 8.97 g/m*3 11.23 C 0 km/h
1040 30-09-2007 07:00:00 10.56 C 8.86 g/m*3 10.56 C 0 km/h
1041 30-09-2007 08:00:00 10.83 C 9.13 g/m*3 10.83 C 0 km/h
1042 30-09-2007 09:00:00 11.265 C 9.37 g/m*3 11.27 C 0 km/h
1043 30-09-2007 10:00:00 12.285 C 9.94 g/m*3 12.29 C 0 km/h
1044 30-09-2007 11:00:00 14.47 C 8.99 g/m*3 14.47 C 0 km/h
1045 30-09-2007 12:00:00 16.21 C 8.24 g/m*3 16.21 C 0 km/h
1046 30-09-2007 13:00:00 18.595 C 7.95 g/m*3 18.6 C 0 km/h
1047 30-09-2007 14:00:00 19.315 C 7.79 g/m*3 19.32 C 0 km/h
1048 30-09-2007 15:00:00 21.6 C 7.62 g/m*3 21.6 C 0 km/h
1049 30-09-2007 16:00:00 21.105 C 7.91 g/m*3 21.11 C 0 km/h
1050 30-09-2007 17:00:00 20.995 C 8.09 g/m*3 21 C 0 km/h
Sensor: Nr:Datum:Temp:Abs-Feuchte:Windchill:Wind:
Aussen-T/F 1051 30-09-2007 18:00:00 17.19 C 8.47 g/m*3 17.19 C 0 km/h
1052 30-09-2007 19:00:00 14.905 C 8.38 g/m*3 14.91 C 0 km/h
1053 30-09-2007 20:00:00 13.845 C 8.69 g/m*3 13.85 C 0 km/h
1054 30-09-2007 21:00:00 13.785 C 8.89 g/m*3 13.79 C 0 km/h
1055 30-09-2007 22:00:00 13.405 C 9.04 g/m*3 13.41 C 0 km/h
1056 30-09-2007 23:00:00 12.715 C 8.89 g/m*3 12.72 C 0 km/h
1057 01-10-2007 00:00:00 11.865 C 8.78 g/m*3 11.87 C 0 km/h
1058 01-10-2007 01:00:00 11.555 C 8.81 g/m*3 11.56 C 0 km/h
1059 01-10-2007 02:00:00 11.13684 C 8.6 g/m*3 11.14 C 0 km/h
1060 01-10-2007 03:00:00 10.545 C 8.44 g/m*3 10.55 C 0 km/h
1061 01-10-2007 04:00:00 10.185 C 8.38 g/m*3 10.19 C 0 km/h
1062 01-10-2007 05:00:00 10.255 C 8.5 g/m*3 10.26 C 0 km/h
1063 01-10-2007 06:00:00 10.225 C 8.51 g/m*3 10.23 C 0 km/h
1064 01-10-2007 07:00:00 10.055 C 8.4 g/m*3 10.06 C 0 km/h
1065 01-10-2007 08:00:00 10.11 C 8.5 g/m*3 10.11 C 0 km/h
1066 01-10-2007 09:00:00 11.36 C 8.86 g/m*3 11.36 C 0 km/h
1067 01-10-2007 10:00:00 12.9 C 8.89 g/m*3 12.9 C 0 km/h
1068 01-10-2007 11:00:00 14.56 C 9.02 g/m*3 14.56 C 0 km/h
1069 01-10-2007 12:00:00 16.795 C 8.93 g/m*3 16.8 C 0 km/h
1070 01-10-2007 13:00:00 18.735 C 8.9 g/m*3 18.74 C 0 km/h
1071 01-10-2007 14:00:00 20.85 C 8.98 g/m*3 20.85 C 0 km/h
1072 01-10-2007 15:00:00 21.465 C 9.61 g/m*3 21.47 C 0 km/h
1073 01-10-2007 16:00:00 20.805 C 10.13 g/m*3 20.81 C 0 km/h
1074 01-10-2007 17:00:00 19.43 C 10.8 g/m*3 19.43 C 0 km/h
1075 01-10-2007 18:00:00 18.2 C 11.12 g/m*3 18.2 C 0 km/h
Sensor: Nr:Datum:Temp:Abs-Feuchte:Windchill:Wind:
Aussen-T/F 1076 01-10-2007 19:00:00 17.35 C 11.32 g/m*3 17.35 C 0 km/h
1077 01-10-2007 20:00:00 16.18 C 11.67 g/m*3 16.18 C 0 km/h
1078 01-10-2007 21:00:00 16.19 C 11.9 g/m*3 16.19 C 0 km/h
1079 01-10-2007 22:00:00 16.015 C 11.62 g/m*3 16.02 C 0 km/h
1080 01-10-2007 23:00:00 15.93 C 11.49 g/m*3 15.93 C 0 km/h
1081 02-10-2007 00:00:00 14.835 C 10.93 g/m*3 14.84 C 0 km/h
1082 02-10-2007 01:00:00 14.36 C 10.84 g/m*3 14.36 C 0 km/h
1083 02-10-2007 02:00:00 13.885 C 10.69 g/m*3 13.89 C 0 km/h
1084 02-10-2007 03:00:00 13.47 C 10.64 g/m*3 13.47 C 0 km/h
1085 02-10-2007 04:00:00 13.745 C 10.92 g/m*3 13.75 C 0 km/h
1086 02-10-2007 05:00:00 13.8 C 10.96 g/m*3 13.8 C 0 km/h
1087 02-10-2007 06:00:00 13.78 C 10.95 g/m*3 13.78 C 0 km/h
1088 02-10-2007 07:00:00 13.845 C 10.99 g/m*3 13.85 C 0 km/h
1089 02-10-2007 08:00:00 14.515 C 11.38 g/m*3 14.52 C 0 km/h
1090 02-10-2007 09:00:00 15.24 C 11.57 g/m*3 15.24 C 0 km/h
1091 02-10-2007 10:00:00 16.525 C 11.65 g/m*3 16.52 C 0 km/h
1092 02-10-2007 11:00:00 18.215 C 11.57 g/m*3 18.22 C 0 km/h
1093 02-10-2007 12:00:00 19.46 C 11.34 g/m*3 19.46 C 0 km/h
1094 02-10-2007 13:00:00 20.905 C 11.4 g/m*3 20.91 C 0 km/h
1095 02-10-2007 14:00:00 22.19 C 11.34 g/m*3 22.19 C 0 km/h
1096 02-10-2007 15:00:00 23.08 C 11.01 g/m*3 23.08 C 0 km/h
1097 02-10-2007 16:00:00 22.435 C 10.84 g/m*3 22.44 C 0 km/h
1098 02-10-2007 17:00:00 20.82 C 11.47 g/m*3 20.82 C 0 km/h
1099 02-10-2007 18:00:00 19.685 C 11.7 g/m*3 19.68 C 0 km/h
1100 02-10-2007 19:00:00 18.525 C 11.88 g/m*3 18.52 C 0 km/h
Sensor: Nr:Datum:Temp:Abs-Feuchte:Windchill:Wind:
Aussen-T/F 1101 02-10-2007 20:00:00 18.145 C 11.82 g/m*3 18.15 C 0 km/h
1102 02-10-2007 21:00:00 17.59 C 11.85 g/m*3 17.59 C 0 km/h
1103 02-10-2007 22:00:00 17.455 C 11.9 g/m*3 17.45 C 0 km/h
1104 02-10-2007 23:00:00 17.135 C 11.74 g/m*3 17.14 C 0 km/h
1105 03-10-2007 00:00:00 17.05 C 11.77 g/m*3 17.05 C 0 km/h
1106 03-10-2007 01:00:00 16.805 C 11.85 g/m*3 16.81 C 0 km/h
1107 03-10-2007 02:00:00 16.455 C 11.71 g/m*3 16.45 C 0 km/h
1108 03-10-2007 03:00:00 15.84 C 11.48 g/m*3 15.84 C 0 km/h
1109 03-10-2007 04:00:00 15.9 C 11.48 g/m*3 15.9 C 0 km/h
1110 03-10-2007 05:00:00 15.885 C 11.08 g/m*3 15.89 C 0 km/h
1111 03-10-2007 06:00:00 15.025 C 10.84 g/m*3 15.03 C 0 km/h
1112 03-10-2007 07:00:00 15.16 C 10.99 g/m*3 15.16 C 0 km/h
1113 03-10-2007 08:00:00 15.63 C 10.93 g/m*3 15.63 C 0 km/h
1114 03-10-2007 09:00:00 16.57 C 10.67 g/m*3 16.57 C 0 km/h
1115 03-10-2007 10:00:00 17.36 C 10.55 g/m*3 17.36 C 0 km/h
1116 03-10-2007 11:00:00 17.045 C 10.63 g/m*3 17.05 C 0 km/h
1117 03-10-2007 12:00:00 18.285 C 10.76 g/m*3 18.29 C 0 km/h
1118 03-10-2007 13:00:00 19.385 C 11.25 g/m*3 19.39 C 0 km/h
1119 03-10-2007 14:00:00 19.72 C 11.44 g/m*3 19.72 C 0 km/h
1120 03-10-2007 15:00:00 20.69 C 11.49 g/m*3 20.69 C 0 km/h
1121 03-10-2007 16:00:00 20.26 C 11.63 g/m*3 20.26 C 0 km/h
1122 03-10-2007 17:00:00 20.16 C 11.57 g/m*3 20.16 C 0 km/h
1123 03-10-2007 18:00:00 19.105 C 11.78 g/m*3 19.11 C 0 km/h
1124 03-10-2007 19:00:00 18.175 C 11.75 g/m*3 18.18 C 0 km/h
1125 03-10-2007 20:00:00 17.535 C 11.89 g/m*3 17.54 C 0 km/h
Sensor: Nr:Datum:Temp:Abs-Feuchte:Windchill:Wind:
Aussen-T/F 1126 03-10-2007 21:00:00 16.995 C 11.96 g/m*3 17 C 0 km/h
1127 03-10-2007 22:00:00 16.26 C 12.15 g/m*3 16.26 C 0 km/h
1128 03-10-2007 23:00:00 16.11 C 12.24 g/m*3 16.11 C 0 km/h
1129 04-10-2007 00:00:00 15.925 C 12.23 g/m*3 15.93 C 0 km/h
1130 04-10-2007 01:00:00 15.455 C 11.94 g/m*3 15.46 C 0 km/h
1131 04-10-2007 02:00:00 15.01053 C 11.71 g/m*3 15.01 C 0 km/h
1132 04-10-2007 03:00:00 14.715 C 11.68 g/m*3 14.72 C 0 km/h
1133 04-10-2007 04:00:00 14.985 C 11.92 g/m*3 14.99 C 0 km/h
1134 04-10-2007 05:00:00 14.96 C 11.9 g/m*3 14.96 C 0 km/h
1135 04-10-2007 06:00:00 14.515 C 11.59 g/m*3 14.52 C 0 km/h
1136 04-10-2007 07:00:00 14.77 C 11.92 g/m*3 14.77 C 0 km/h
1137 04-10-2007 08:00:00 15.01 C 12.11 g/m*3 15.01 C 0 km/h
1138 04-10-2007 09:00:00 15.155 C 12.04 g/m*3 15.16 C 0 km/h
1139 04-10-2007 10:00:00 15.42 C 12.17 g/m*3 15.42 C 0 km/h
1140 04-10-2007 11:00:00 16.855 C 12.09 g/m*3 16.86 C 0 km/h
1141 04-10-2007 12:00:00 18.505 C 12.11 g/m*3 18.51 C 0 km/h
1142 04-10-2007 13:00:00 21.235 C 11.44 g/m*3 21.24 C 0 km/h
1143 04-10-2007 14:00:00 22.675 C 10.73 g/m*3 22.68 C 0 km/h
1144 04-10-2007 15:00:00 24.08 C 9.94 g/m*3 24.08 C 0 km/h
1145 04-10-2007 16:00:00 21.905 C 10.16 g/m*3 21.91 C 0 km/h
1146 04-10-2007 17:00:00 21.1 C 10.13 g/m*3 21.1 C 0 km/h
1147 04-10-2007 18:00:00 19.665 C 10.07 g/m*3 19.67 C 0 km/h
1148 04-10-2007 19:00:00 18.165 C 10.32 g/m*3 18.17 C 0 km/h
1149 04-10-2007 20:00:00 17.175 C 10.45 g/m*3 17.18 C 0 km/h
1150 04-10-2007 21:00:00 17.085 C 10.62 g/m*3 17.09 C 0 km/h
Sensor: Nr:Datum:Temp:Abs-Feuchte:Windchill:Wind:
Aussen-T/F 1151 04-10-2007 22:00:00 16.23 C 10.64 g/m*3 16.23 C 0 km/h
1152 04-10-2007 23:00:00 15.365 C 10.5 g/m*3 15.37 C 0 km/h
1153 05-10-2007 00:00:00 14.62 C 10.46 g/m*3 14.62 C 0 km/h
1154 05-10-2007 01:00:00 14.08 C 10.18 g/m*3 14.08 C 0 km/h
1155 05-10-2007 02:00:00 13.605 C 10.23 g/m*3 13.61 C 0 km/h
1156 05-10-2007 03:00:00 13.325 C 9.99 g/m*3 13.33 C 0 km/h
1157 05-10-2007 04:00:00 13.58 C 10.07 g/m*3 13.58 C 0 km/h
1158 05-10-2007 05:00:00 13.825 C 10.14 g/m*3 13.83 C 0 km/h
1159 05-10-2007 06:00:00 13.795 C 10.12 g/m*3 13.8 C 0 km/h
1160 05-10-2007 07:00:00 13.46 C 9.92 g/m*3 13.46 C 0 km/h
1161 05-10-2007 08:00:00 13.365 C 9.89 g/m*3 13.37 C 0 km/h
1162 05-10-2007 09:00:00 13.8 C 10.18 g/m*3 13.8 C 0 km/h
1163 05-10-2007 10:00:00 14.44 C 9.15 g/m*3 14.44 C 0 km/h
1164 05-10-2007 11:00:00 14.935 C 8.34 g/m*3 14.94 C 0 km/h
1165 05-10-2007 12:00:00 15.815 C 7.61 g/m*3 15.82 C 0 km/h
1166 05-10-2007 13:00:00 17.485 C 6.98 g/m*3 17.49 C 0 km/h
1167 05-10-2007 14:00:00 19.97 C 6.52 g/m*3 19.97 C 0 km/h
1168 05-10-2007 15:00:00 21.175 C 6.3 g/m*3 21.18 C 0 km/h
1169 05-10-2007 16:00:00 21.85 C 6.03 g/m*3 21.85 C 0 km/h
1170 05-10-2007 17:00:00 21.215 C 6.1 g/m*3 21.22 C 0 km/h
1171 05-10-2007 18:00:00 19.54 C 7.02 g/m*3 19.54 C 0 km/h
1172 05-10-2007 19:00:00 16.525 C 7.39 g/m*3 16.52 C 0 km/h
1173 05-10-2007 20:00:00 14.78 C 7.08 g/m*3 14.78 C 0 km/h
1174 05-10-2007 21:00:00 13.32 C 7.16 g/m*3 13.32 C 0 km/h
1175 05-10-2007 22:00:00 12.285 C 7.35 g/m*3 12.29 C 0 km/h
Sensor: Nr:Datum:Temp:Abs-Feuchte:Windchill:Wind:
Aussen-T/F 1176 05-10-2007 23:00:00 11.365 C 7.37 g/m*3 11.37 C 0 km/h
1177 06-10-2007 00:00:00 10.59 C 7.35 g/m*3 10.59 C 0 km/h
1178 06-10-2007 01:00:00 9.78 C 7.32 g/m*3 9.78 C 0 km/h
1179 06-10-2007 02:00:00 9.155 C 7.34 g/m*3 9.15 C 0 km/h
1180 06-10-2007 03:00:00 8.625 C 7.32 g/m*3 8.63 C 0 km/h
1181 06-10-2007 04:00:00 8.13 C 7.22 g/m*3 8.13 C 0 km/h
1182 06-10-2007 05:00:00 7.68 C 7.13 g/m*3 7.68 C 0 km/h
1183 06-10-2007 06:00:00 7.18 C 6.98 g/m*3 7.18 C 0 km/h
1184 06-10-2007 07:00:00 6.695 C 6.84 g/m*3 6.7 C 0 km/h
1185 06-10-2007 08:00:00 6.67 C 6.87 g/m*3 6.67 C 0 km/h
1186 06-10-2007 09:00:00 7.085 C 7.09 g/m*3 7.09 C 0 km/h
1187 06-10-2007 10:00:00 8.96 C 8.03 g/m*3 8.96 C 0 km/h
1188 06-10-2007 11:00:00 11.69 C 8.14 g/m*3 11.69 C 0 km/h
1189 06-10-2007 12:00:00 13.815 C 7.47 g/m*3 13.82 C 0 km/h
1190 06-10-2007 13:00:00 16.385 C 6.9 g/m*3 16.39 C 0 km/h
1191 06-10-2007 14:00:00 18.78 C 6.54 g/m*3 18.78 C 0 km/h
1192 06-10-2007 15:00:00 20.775 C 6.48 g/m*3 20.78 C 0 km/h
1193 06-10-2007 16:00:00 21.555 C 6.56 g/m*3 21.56 C 0 km/h
1194 06-10-2007 17:00:00 21.215 C 6.58 g/m*3 21.22 C 0 km/h
1195 06-10-2007 18:00:00 18.435 C 7.11 g/m*3 18.43 C 0 km/h
1196 06-10-2007 19:00:00 14.53 C 7.28 g/m*3 14.53 C 0 km/h
1197 06-10-2007 20:00:00 13.29 C 7.56 g/m*3 13.29 C 0 km/h
1198 06-10-2007 21:00:00 12.54 C 7.64 g/m*3 12.54 C 0 km/h
1199 06-10-2007 22:00:00 11.83 C 7.62 g/m*3 11.83 C 0 km/h
1200 06-10-2007 23:00:00 10.78 C 7.59 g/m*3 10.78 C 0 km/h
Sensor: Nr:Datum:Temp:Abs-Feuchte:Windchill:Wind:
Aussen-T/F 1201 07-10-2007 00:00:00 9.77 C 7.52 g/m*3 9.77 C 0 km/h
1202 07-10-2007 01:00:00 9.09 C 7.4 g/m*3 9.09 C 0 km/h
1203 07-10-2007 02:00:00 8.47 C 7.27 g/m*3 8.47 C 0 km/h
1204 07-10-2007 03:00:00 7.965 C 7.14 g/m*3 7.97 C 0 km/h
1205 07-10-2007 04:00:00 7.36 C 6.92 g/m*3 7.36 C 0 km/h
1206 07-10-2007 05:00:00 7.105 C 6.97 g/m*3 7.11 C 0 km/h
1207 07-10-2007 06:00:00 7.315 C 7.11 g/m*3 7.32 C 0 km/h
1208 07-10-2007 07:00:00 7.19 C 6.99 g/m*3 7.19 C 0 km/h
1209 07-10-2007 08:00:00 7.58 C 7.23 g/m*3 7.58 C 0 km/h
1210 07-10-2007 09:00:00 8.005 C 7.21 g/m*3 8.01 C 0 km/h
1211 07-10-2007 10:00:00 8.775 C 7.36 g/m*3 8.78 C 0 km/h
1212 07-10-2007 11:00:00 9.98 C 7.65 g/m*3 9.98 C 0 km/h
1213 07-10-2007 12:00:00 12.005 C 7.94 g/m*3 12.01 C 0 km/h
1214 07-10-2007 13:00:00 14.84 C 7.9 g/m*3 14.84 C 0 km/h
1215 07-10-2007 14:00:00 18.145 C 7.58 g/m*3 18.15 C 0 km/h
1216 07-10-2007 15:00:00 19.925 C 7.04 g/m*3 19.93 C 0 km/h
1217 07-10-2007 16:00:00 21.075 C 7.4 g/m*3 21.08 C 0 km/h
1218 07-10-2007 17:00:00 20.235 C 7.53 g/m*3 20.24 C 0 km/h
1219 07-10-2007 18:00:00 16.78 C 7.56 g/m*3 16.78 C 0 km/h
1220 07-10-2007 19:00:00 13.695 C 7.72 g/m*3 13.7 C 0 km/h
1221 07-10-2007 20:00:00 12.37 C 7.99 g/m*3 12.37 C 0 km/h
1222 07-10-2007 21:00:00 11.27 C 7.87 g/m*3 11.27 C 0 km/h
1223 07-10-2007 22:00:00 10.25 C 7.59 g/m*3 10.25 C 0 km/h
1224 07-10-2007 23:00:00 9.4 C 7.41 g/m*3 9.4 C 0 km/h
1225 08-10-2007 00:00:00 8.745 C 7.31 g/m*3 8.74 C 0 km/h
Sensor: Nr:Datum:Temp:Abs-Feuchte:Windchill:Wind:
Aussen-T/F 1226 08-10-2007 01:00:00 8.015 C 7.08 g/m*3 8.02 C 0 km/h
1227 08-10-2007 02:00:00 7.46 C 6.96 g/m*3 7.46 C 0 km/h
1228 08-10-2007 03:00:00 6.95 C 6.86 g/m*3 6.95 C 0 km/h
1229 08-10-2007 04:00:00 7.03 C 6.9 g/m*3 7.03 C 0 km/h
1230 08-10-2007 05:00:00 6.98 C 6.81 g/m*3 6.98 C 0 km/h
1231 08-10-2007 06:00:00 6.71 C 6.76 g/m*3 6.71 C 0 km/h
1232 08-10-2007 07:00:00 6.6 C 6.61 g/m*3 6.6 C 0 km/h
1233 08-10-2007 08:00:00 6.54 C 6.58 g/m*3 6.54 C 0 km/h
1234 08-10-2007 09:00:00 6.56 C 6.7 g/m*3 6.56 C 0 km/h
1235 08-10-2007 10:00:00 7.275 C 6.87 g/m*3 7.28 C 0 km/h
1236 08-10-2007 11:00:00 8.92 C 7.18 g/m*3 8.92 C 0 km/h
1237 08-10-2007 12:00:00 10.96 C 7.47 g/m*3 10.96 C 0 km/h
1238 08-10-2007 13:00:00 13.21 C 7.93 g/m*3 13.21 C 0 km/h
1239 08-10-2007 14:00:00 16.59 C 8.08 g/m*3 16.59 C 0 km/h
1240 08-10-2007 15:00:00 19.18 C 7.86 g/m*3 19.18 C 0 km/h
1241 08-10-2007 16:00:00 20.085 C 7.56 g/m*3 20.09 C 0 km/h
1242 08-10-2007 17:00:00 17.5 C 7.81 g/m*3 17.5 C 0 km/h
1243 08-10-2007 18:00:00 15.305 C 7.71 g/m*3 15.31 C 0 km/h
1244 08-10-2007 19:00:00 13.53 C 7.9 g/m*3 13.53 C 0 km/h
1245 08-10-2007 20:00:00 12.32 C 8.03 g/m*3 12.32 C 0 km/h
1246 08-10-2007 21:00:00 11.25 C 7.96 g/m*3 11.25 C 0 km/h
1247 08-10-2007 22:00:00 10.445 C 7.89 g/m*3 10.45 C 0 km/h
1248 08-10-2007 23:00:00 9.605 C 7.82 g/m*3 9.61 C 0 km/h
1249 09-10-2007 00:00:00 9.06 C 7.72 g/m*3 9.06 C 0 km/h
1250 09-10-2007 01:00:00 8.445 C 7.53 g/m*3 8.45 C 0 km/h
Sensor: Nr:Datum:Temp:Abs-Feuchte:Windchill:Wind:
Aussen-T/F 1251 09-10-2007 02:00:00 8.17895 C 7.5 g/m*3 8.18 C 0 km/h
1252 09-10-2007 03:00:00 8.09 C 7.48 g/m*3 8.09 C 0 km/h
1253 09-10-2007 04:00:00 8.23 C 7.54 g/m*3 8.23 C 0 km/h
1254 09-10-2007 05:00:00 8.14 C 7.42 g/m*3 8.14 C 0 km/h
1255 09-10-2007 06:00:00 8.31 C 7.54 g/m*3 8.31 C 0 km/h
1256 09-10-2007 07:00:00 8.835 C 7.76 g/m*3 8.84 C 0 km/h
1257 09-10-2007 08:00:00 9.195 C 7.85 g/m*3 9.2 C 0 km/h
1258 09-10-2007 09:00:00 9.845 C 7.96 g/m*3 9.85 C 0 km/h
1259 09-10-2007 10:00:00 10.865 C 8.03 g/m*3 10.87 C 0 km/h
1260 09-10-2007 11:00:00 12.095 C 8.04 g/m*3 12.1 C 0 km/h
1261 09-10-2007 12:00:00 13.625 C 7.93 g/m*3 13.63 C 0 km/h
1262 09-10-2007 13:00:00 15.1 C 7.93 g/m*3 15.1 C 0 km/h
1263 09-10-2007 14:00:00 16.66 C 7.99 g/m*3 16.66 C 0 km/h
1264 09-10-2007 15:00:00 17.775 C 8.06 g/m*3 17.77 C 0 km/h
1265 09-10-2007 16:00:00 17.61 C 8.34 g/m*3 17.61 C 0 km/h
1266 09-10-2007 17:00:00 16.785 C 8.58 g/m*3 16.79 C 0 km/h
1267 09-10-2007 18:00:00 15.155 C 8.69 g/m*3 15.16 C 0 km/h
1268 09-10-2007 19:00:00 14.31 C 8.83 g/m*3 14.31 C 0 km/h
1269 09-10-2007 20:00:00 13.945 C 8.52 g/m*3 13.95 C 0 km/h
1270 09-10-2007 21:00:00 13.675 C 8.29 g/m*3 13.68 C 0 km/h
1271 09-10-2007 22:00:00 12.805 C 7.98 g/m*3 12.81 C 0 km/h
1272 09-10-2007 23:00:00 12.285 C 7.86 g/m*3 12.29 C 0 km/h
1273 10-10-2007 00:00:00 11.605 C 7.82 g/m*3 11.61 C 0 km/h
1274 10-10-2007 01:00:00 11.41 C 8.05 g/m*3 11.41 C 0 km/h
1275 10-10-2007 02:00:00 11.885 C 8.04 g/m*3 11.89 C 0 km/h
Sensor: Nr:Datum:Temp:Abs-Feuchte:Windchill:Wind:
Aussen-T/F 1276 10-10-2007 03:00:00 11.54 C 8.12 g/m*3 11.54 C 0 km/h
1277 10-10-2007 04:00:00 11.39 C 8.16 g/m*3 11.39 C 0 km/h
1278 10-10-2007 05:00:00 11.075 C 8.09 g/m*3 11.08 C 0 km/h
1279 10-10-2007 06:00:00 10.98 C 8.08 g/m*3 10.98 C 0 km/h
1280 10-10-2007 07:00:00 11.07 C 8.18 g/m*3 11.07 C 0 km/h
1281 10-10-2007 08:00:00 11.17 C 8.3 g/m*3 11.17 C 0 km/h
1282 10-10-2007 09:00:00 11.83 C 8.47 g/m*3 11.83 C 0 km/h
1283 10-10-2007 10:00:00 13.33 C 8.37 g/m*3 13.33 C 0 km/h
1284 10-10-2007 11:00:00 14.345 C 8.03 g/m*3 14.35 C 0 km/h
1285 10-10-2007 12:00:00 15.835 C 7.79 g/m*3 15.84 C 0 km/h
1286 10-10-2007 13:00:00 16.985 C 7.73 g/m*3 16.99 C 0 km/h
1287 10-10-2007 14:00:00 18.5 C 8.01 g/m*3 18.5 C 0 km/h
1288 10-10-2007 15:00:00 20.78 C 7.23 g/m*3 20.78 C 0 km/h
1289 10-10-2007 16:00:00 21.23 C 6.95 g/m*3 21.23 C 0 km/h
1290 10-10-2007 17:00:00 20.6 C 7.3 g/m*3 20.6 C 0 km/h
1291 10-10-2007 18:00:00 18.095 C 7.33 g/m*3 18.1 C 0 km/h
1292 10-10-2007 19:00:00 16.415 C 7.29 g/m*3 16.42 C 0 km/h
1293 10-10-2007 20:00:00 15.57 C 7.46 g/m*3 15.57 C 0 km/h
1294 10-10-2007 21:00:00 15.09 C 7.59 g/m*3 15.09 C 0 km/h
1295 10-10-2007 22:00:00 14.505 C 7.6 g/m*3 14.51 C 0 km/h
1296 10-10-2007 23:00:00 13.695 C 7.44 g/m*3 13.7 C 0 km/h
1297 11-10-2007 00:00:00 11.985 C 7.14 g/m*3 11.99 C 0 km/h
1298 11-10-2007 01:00:00 10.88 C 7.07 g/m*3 10.88 C 0 km/h
1299 11-10-2007 02:00:00 9.88 C 7.03 g/m*3 9.88 C 0 km/h
1300 11-10-2007 03:00:00 9.05 C 7.02 g/m*3 9.05 C 0 km/h
Sensor: Nr:Datum:Temp:Abs-Feuchte:Windchill:Wind:
Aussen-T/F 1301 11-10-2007 04:00:00 8.215 C 6.89 g/m*3 8.22 C 0 km/h
1302 11-10-2007 05:00:00 7.64 C 6.86 g/m*3 7.64 C 0 km/h
1303 11-10-2007 06:00:00 6.97 C 6.76 g/m*3 6.97 C 0 km/h
1304 11-10-2007 07:00:00 6.505 C 6.74 g/m*3 6.51 C 0 km/h
1305 11-10-2007 08:00:00 6.87 C 6.96 g/m*3 6.87 C 0 km/h
1306 11-10-2007 09:00:00 7.42 C 7.06 g/m*3 7.42 C 0 km/h
1307 11-10-2007 10:00:00 9.01 C 7.23 g/m*3 9.01 C 0 km/h
1308 11-10-2007 11:00:00 10.215 C 7.32 g/m*3 10.22 C 0 km/h
1309 11-10-2007 12:00:00 11.62 C 7.69 g/m*3 11.62 C 0 km/h
1310 11-10-2007 13:00:00 14.99 C 7.56 g/m*3 14.99 C 0 km/h
1311 11-10-2007 14:00:00 17.875 C 6.86 g/m*3 17.88 C 0 km/h
1312 11-10-2007 15:00:00 19.51 C 6.73 g/m*3 19.51 C 0 km/h
1313 11-10-2007 16:00:00 20.31 C 6.91 g/m*3 20.31 C 0 km/h
1314 11-10-2007 17:00:00 18.165 C 6.96 g/m*3 18.17 C 0 km/h
1315 11-10-2007 18:00:00 14.705 C 7.03 g/m*3 14.71 C 0 km/h
1316 11-10-2007 19:00:00 12.935 C 7.12 g/m*3 12.94 C 0 km/h
1317 11-10-2007 20:00:00 11.755 C 7.26 g/m*3 11.76 C 0 km/h
1318 11-10-2007 21:00:00 10.88 C 7.35 g/m*3 10.88 C 0 km/h
1319 11-10-2007 22:00:00 9.87 C 7.42 g/m*3 9.87 C 0 km/h
1320 11-10-2007 23:00:00 9.455 C 7.53 g/m*3 9.46 C 0 km/h
1321 12-10-2007 00:00:00 9.74 C 7.72 g/m*3 9.74 C 0 km/h
1322 12-10-2007 01:00:00 10.38 C 7.89 g/m*3 10.38 C 0 km/h
1323 12-10-2007 02:00:00 10.6 C 8.05 g/m*3 10.6 C 0 km/h
1324 12-10-2007 03:00:00 10.845 C 8.07 g/m*3 10.85 C 0 km/h
1325 12-10-2007 04:00:00 10.99 C 8.03 g/m*3 10.99 C 0 km/h
Sensor: Nr:Datum:Temp:Abs-Feuchte:Windchill:Wind:
Aussen-T/F 1326 12-10-2007 05:00:00 10.86 C 7.71 g/m*3 10.86 C 0 km/h
1327 12-10-2007 06:00:00 10.665 C 7.5 g/m*3 10.67 C 0 km/h
1328 12-10-2007 07:00:00 10.425 C 7.34 g/m*3 10.43 C 0 km/h
1329 12-10-2007 08:00:00 10.535 C 7.2 g/m*3 10.54 C 0 km/h
1330 12-10-2007 09:00:00 10.895 C 7.24 g/m*3 10.9 C 0 km/h
1331 12-10-2007 10:00:00 11.675 C 7.33 g/m*3 11.68 C 0 km/h
1332 12-10-2007 11:00:00 12.255 C 7.51 g/m*3 12.26 C 0 km/h
1333 12-10-2007 12:00:00 12.67 C 7.74 g/m*3 12.67 C 0 km/h
1334 12-10-2007 13:00:00 13.18 C 8.05 g/m*3 13.18 C 0 km/h
1335 12-10-2007 14:00:00 13.705 C 8.13 g/m*3 13.71 C 0 km/h
1336 12-10-2007 15:00:00 14.135 C 8.2 g/m*3 14.14 C 0 km/h
1337 12-10-2007 16:00:00 14.465 C 8.54 g/m*3 14.47 C 0 km/h
1338 12-10-2007 17:00:00 14.44 C 8.8 g/m*3 14.44 C 0 km/h
1339 12-10-2007 18:00:00 14.295 C 9.33 g/m*3 14.3 C 0 km/h
1340 12-10-2007 19:00:00 14.06 C 9.58 g/m*3 14.06 C 0 km/h
1341 12-10-2007 20:00:00 13.41 C 9.53 g/m*3 13.41 C 0 km/h
1342 12-10-2007 21:00:00 13.38 C 9.54 g/m*3 13.38 C 0 km/h
1343 12-10-2007 22:00:00 13.32 C 9.3 g/m*3 13.32 C 0 km/h
1344 12-10-2007 23:00:00 12.66 C 9.65 g/m*3 12.66 C 0 km/h
1345 13-10-2007 00:00:00 12.495 C 9.7 g/m*3 12.5 C 0 km/h
1346 13-10-2007 01:00:00 12.365 C 9.69 g/m*3 12.37 C 0 km/h
1347 13-10-2007 02:00:00 12.51 C 9.64 g/m*3 12.51 C 0 km/h
1348 13-10-2007 03:00:00 12.395 C 9.33 g/m*3 12.4 C 0 km/h
1349 13-10-2007 04:00:00 12.055 C 9.09 g/m*3 12.06 C 0 km/h
1350 13-10-2007 05:00:00 11.95 C 8.89 g/m*3 11.95 C 0 km/h
Sensor: Nr:Datum:Temp:Abs-Feuchte:Windchill:Wind:
Aussen-T/F 1351 13-10-2007 06:00:00 11.725 C 8.29 g/m*3 11.73 C 0 km/h
1352 13-10-2007 07:00:00 11.49 C 8.13 g/m*3 11.49 C 0 km/h
1353 13-10-2007 08:00:00 11.39 C 8.09 g/m*3 11.39 C 0 km/h
1354 13-10-2007 09:00:00 12.38 C 8.2 g/m*3 12.38 C 0 km/h
1355 13-10-2007 10:00:00 13.635 C 7.97 g/m*3 13.64 C 0 km/h
1356 13-10-2007 11:00:00 14.72 C 6.88 g/m*3 14.72 C 0 km/h
1357 13-10-2007 12:00:00 15.275 C 6.05 g/m*3 15.28 C 0 km/h
1358 13-10-2007 13:00:00 15.94 C 6.1 g/m*3 15.94 C 0 km/h
1359 13-10-2007 14:00:00 18.12 C 6.12 g/m*3 18.12 C 0 km/h
1360 13-10-2007 15:00:00 20.035 C 5.89 g/m*3 20.04 C 0 km/h
1361 13-10-2007 16:00:00 21.95 C 5.77 g/m*3 21.95 C 0 km/h
1362 13-10-2007 17:00:00 21.53 C 6.03 g/m*3 21.53 C 0 km/h
1363 13-10-2007 18:00:00 17.165 C 6.25 g/m*3 17.17 C 0 km/h
1364 13-10-2007 19:00:00 13.705 C 6.49 g/m*3 13.71 C 0 km/h
1365 13-10-2007 20:00:00 12.275 C 6.76 g/m*3 12.28 C 0 km/h
1366 13-10-2007 21:00:00 11.035 C 6.85 g/m*3 11.04 C 0 km/h
1367 13-10-2007 22:00:00 9.91 C 6.88 g/m*3 9.91 C 0 km/h
1368 13-10-2007 23:00:00 9.025 C 6.86 g/m*3 9.03 C 0 km/h
1369 14-10-2007 00:00:00 8.245 C 6.75 g/m*3 8.24 C 0 km/h
1370 14-10-2007 01:00:00 7.565 C 6.62 g/m*3 7.57 C 0 km/h
1371 14-10-2007 02:00:00 6.93 C 6.47 g/m*3 6.93 C 0 km/h
1372 14-10-2007 03:00:00 6.335 C 6.32 g/m*3 6.34 C 0 km/h
1373 14-10-2007 04:00:00 5.74 C 6.2 g/m*3 5.74 C 0 km/h
1374 14-10-2007 05:00:00 5.04 C 6.02 g/m*3 5.04 C 0 km/h
1375 14-10-2007 06:00:00 4.475 C 5.91 g/m*3 4.47 C 0 km/h
Sensor: Nr:Datum:Temp:Abs-Feuchte:Windchill:Wind:
Aussen-T/F 1376 14-10-2007 07:00:00 4.25 C 5.89 g/m*3 4.25 C 0 km/h
1377 14-10-2007 08:00:00 4.455 C 6.02 g/m*3 4.46 C 0 km/h
1378 14-10-2007 09:00:00 4.385 C 5.91 g/m*3 4.39 C 0 km/h
1379 14-10-2007 10:00:00 5.43 C 6.33 g/m*3 5.43 C 0 km/h
1380 14-10-2007 11:00:00 7.525 C 7.24 g/m*3 7.53 C 0 km/h
1381 14-10-2007 12:00:00 10.43 C 7.61 g/m*3 10.43 C 0 km/h
1382 14-10-2007 13:00:00 14.5 C 6.69 g/m*3 14.5 C 0 km/h
1383 14-10-2007 14:00:00 17.85 C 5.42 g/m*3 17.85 C 0 km/h
1384 14-10-2007 15:00:00 19.88 C 4.86 g/m*3 19.88 C 0 km/h
1385 14-10-2007 16:00:00 20.84 C 5.26 g/m*3 20.84 C 0 km/h
1386 14-10-2007 17:00:00 19.655 C 5.36 g/m*3 19.66 C 0 km/h
1387 14-10-2007 18:00:00 15.55 C 5.12 g/m*3 15.55 C 0 km/h
1388 14-10-2007 19:00:00 12.08 C 5.41 g/m*3 12.08 C 0 km/h
1389 14-10-2007 20:00:00 10.81 C 5.69 g/m*3 10.81 C 0 km/h
1390 14-10-2007 21:00:00 9.565 C 5.84 g/m*3 9.57 C 0 km/h
1391 14-10-2007 22:00:00 8.655 C 5.94 g/m*3 8.65 C 0 km/h
1392 14-10-2007 23:00:00 8.6 C 5.93 g/m*3 8.6 C 0 km/h
1393 15-10-2007 00:00:00 8.6 C 5.93 g/m*3 8.6 C 0 km/h
1394 15-10-2007 01:00:00 6.4 C 5.97 g/m*3 6.4 C 0 km/h
1395 15-10-2007 02:00:00 5.67 C 5.96 g/m*3 5.67 C 0 km/h
1396 15-10-2007 03:00:00 5.04 C 5.85 g/m*3 5.04 C 0 km/h
1397 15-10-2007 04:00:00 4.56 C 5.75 g/m*3 4.56 C 0 km/h
1398 15-10-2007 05:00:00 4.225 C 5.7 g/m*3 4.22 C 0 km/h
1399 15-10-2007 06:00:00 3.925 C 5.63 g/m*3 3.93 C 0 km/h
1400 15-10-2007 07:00:00 3.345 C 5.42 g/m*3 3.35 C 0 km/h
Sensor: Nr:Datum:Temp:Abs-Feuchte:Windchill:Wind:
Aussen-T/F 1401 15-10-2007 08:00:00 3.365 C 5.51 g/m*3 3.37 C 0 km/h
1402 15-10-2007 09:00:00 4.86 C 6.03 g/m*3 4.86 C 0 km/h
1403 15-10-2007 10:00:00 5.645 C 6.27 g/m*3 5.65 C 0 km/h
1404 15-10-2007 11:00:00 8.055 C 7.27 g/m*3 8.06 C 0 km/h
1405 15-10-2007 12:00:00 11.74 C 8.04 g/m*3 11.74 C 0 km/h
1406 15-10-2007 13:00:00 15.68 C 8.32 g/m*3 15.68 C 0 km/h
1407 15-10-2007 14:00:00 18.75 C 8.5 g/m*3 18.75 C 0 km/h
1408 15-10-2007 15:00:00 20.49 C 8.19 g/m*3 20.49 C 0 km/h
1409 15-10-2007 16:00:00 21.31 C 7.72 g/m*3 21.31 C 0 km/h
1410 15-10-2007 17:00:00 20.685 C 8.25 g/m*3 20.69 C 0 km/h
1411 15-10-2007 18:00:00 17.985 C 8.76 g/m*3 17.99 C 0 km/h
1412 15-10-2007 19:00:00 15.37 C 9 g/m*3 15.37 C 0 km/h
1413 15-10-2007 20:00:00 14.15 C 8.87 g/m*3 14.15 C 0 km/h
1414 15-10-2007 21:00:00 13.125 C 8.85 g/m*3 13.13 C 0 km/h
1415 15-10-2007 22:00:00 12.555 C 8.94 g/m*3 12.56 C 0 km/h
1416 15-10-2007 23:00:00 11.87 C 8.71 g/m*3 11.87 C 0 km/h
1417 16-10-2007 00:00:00 10.94 C 8.52 g/m*3 10.94 C 0 km/h
1418 16-10-2007 01:00:00 10.305 C 8.36 g/m*3 10.31 C 0 km/h
1419 16-10-2007 02:00:00 9.895 C 8.31 g/m*3 9.9 C 0 km/h
1420 16-10-2007 03:00:00 9.235 C 8.03 g/m*3 9.24 C 0 km/h
1421 16-10-2007 04:00:00 10.27 C 8.6 g/m*3 10.27 C 0 km/h
1422 16-10-2007 05:00:00 10.565 C 8.63 g/m*3 10.57 C 0 km/h
1423 16-10-2007 06:00:00 11.055 C 8.77 g/m*3 11.06 C 0 km/h
1424 16-10-2007 07:00:00 11.485 C 8.19 g/m*3 11.49 C 0 km/h
1425 16-10-2007 08:00:00 11.3 C 7.32 g/m*3 11.3 C 0 km/h
Sensor: Nr:Datum:Temp:Abs-Feuchte:Windchill:Wind:
Aussen-T/F 1426 16-10-2007 09:00:00 11.08 C 7.25 g/m*3 11.08 C 0 km/h
1427 16-10-2007 10:00:00 11.625 C 7.34 g/m*3 11.63 C 0 km/h
1428 16-10-2007 11:00:00 13.205 C 7.37 g/m*3 13.21 C 0 km/h
1429 16-10-2007 12:00:00 14.91 C 7.21 g/m*3 14.91 C 0 km/h
1430 16-10-2007 13:00:00 17.36 C 6.9 g/m*3 17.36 C 0 km/h
1431 16-10-2007 14:00:00 19.065 C 6.73 g/m*3 19.07 C 0 km/h
1432 16-10-2007 15:00:00 20.315 C 7.27 g/m*3 20.32 C 0 km/h
1433 16-10-2007 16:00:00 21.185 C 7.9 g/m*3 21.19 C 0 km/h
1434 16-10-2007 17:00:00 20.505 C 8.36 g/m*3 20.51 C 0 km/h
1435 16-10-2007 18:00:00 17.775 C 8.9 g/m*3 17.77 C 0 km/h
1436 16-10-2007 19:00:00 15.525 C 8.98 g/m*3 15.53 C 0 km/h
1437 16-10-2007 20:00:00 14.27 C 8.92 g/m*3 14.27 C 0 km/h
1438 16-10-2007 21:00:00 13.28 C 8.94 g/m*3 13.28 C 0 km/h
1439 16-10-2007 22:00:00 12.385 C 8.88 g/m*3 12.39 C 0 km/h
1440 16-10-2007 23:00:00 11.365 C 8.58 g/m*3 11.37 C 0 km/h
1441 17-10-2007 00:00:00 10.615 C 8.36 g/m*3 10.62 C 0 km/h
1442 17-10-2007 01:00:00 10.9 C 8.79 g/m*3 10.9 C 0 km/h
1443 17-10-2007 02:00:00 11.10526 C 8.72 g/m*3 11.11 C 0 km/h
1444 17-10-2007 03:00:00 10.42 C 8.32 g/m*3 10.42 C 0 km/h
1445 17-10-2007 04:00:00 9.04 C 7.8 g/m*3 9.04 C 0 km/h
1446 17-10-2007 05:00:00 8.645 C 7.77 g/m*3 8.65 C 0 km/h
1447 17-10-2007 06:00:00 8.21 C 7.63 g/m*3 8.21 C 0 km/h
1448 17-10-2007 07:00:00 7.88 C 7.55 g/m*3 7.88 C 0 km/h
1449 17-10-2007 08:00:00 7.915 C 7.6 g/m*3 7.92 C 0 km/h
1450 17-10-2007 09:00:00 8.21 C 7.72 g/m*3 8.21 C 0 km/h
Sensor: Nr:Datum:Temp:Abs-Feuchte:Windchill:Wind:
Aussen-T/F 1451 17-10-2007 10:00:00 9.255 C 8.23 g/m*3 9.26 C 0 km/h
1452 17-10-2007 11:00:00 11.09 C 8.65 g/m*3 11.09 C 0 km/h
1453 17-10-2007 12:00:00 14.27 C 9.14 g/m*3 14.27 C 0 km/h
1454 17-10-2007 13:00:00 16.51 C 8.66 g/m*3 16.51 C 0 km/h
1455 17-10-2007 14:00:00 16.335 C 8.53 g/m*3 16.34 C 0 km/h
1456 17-10-2007 15:00:00 16.71 C 8.42 g/m*3 16.71 C 0 km/h
1457 17-10-2007 16:00:00 16.83 C 8.56 g/m*3 16.83 C 0 km/h
1458 17-10-2007 17:00:00 16.2 C 8.32 g/m*3 16.2 C 0 km/h
1459 17-10-2007 18:00:00 15.525 C 8.51 g/m*3 15.53 C 0 km/h
1460 17-10-2007 19:00:00 13.955 C 9.5 g/m*3 13.96 C 0 km/h
1461 17-10-2007 20:00:00 10.925 C 8.31 g/m*3 10.93 C 0 km/h
1462 17-10-2007 21:00:00 10.935 C 8.14 g/m*3 10.94 C 0 km/h
1463 17-10-2007 22:00:00 10.655 C 7.96 g/m*3 10.66 C 0 km/h
1464 17-10-2007 23:00:00 10.695 C 7.75 g/m*3 10.7 C 0 km/h
1465 18-10-2007 00:00:00 10.44 C 7.21 g/m*3 10.44 C 0 km/h
1466 18-10-2007 01:00:00 10.47 C 6.73 g/m*3 10.47 C 0 km/h
1467 18-10-2007 02:00:00 10.01 C 6.64 g/m*3 10.01 C 0 km/h
1468 18-10-2007 03:00:00 9.31 C 6.68 g/m*3 9.31 C 0 km/h
1469 18-10-2007 04:00:00 8.725 C 6.5 g/m*3 8.73 C 0 km/h
1470 18-10-2007 05:00:00 8.42 C 6.41 g/m*3 8.42 C 0 km/h
1471 18-10-2007 06:00:00 8.405 C 6.41 g/m*3 8.4 C 0 km/h
1472 18-10-2007 07:00:00 8.19 C 6.52 g/m*3 8.19 C 0 km/h
1473 18-10-2007 08:00:00 8.505 C 6.51 g/m*3 8.51 C 0 km/h
1474 18-10-2007 09:00:00 8.585 C 6.56 g/m*3 8.59 C 0 km/h
1475 18-10-2007 10:00:00 9.85 C 6.52 g/m*3 9.85 C 0 km/h
Sensor: Nr:Datum:Temp:Abs-Feuchte:Windchill:Wind:
Aussen-T/F 1476 18-10-2007 11:00:00 10.825 C 6.36 g/m*3 10.83 C 0 km/h
1477 18-10-2007 12:00:00 11.49 C 6.27 g/m*3 11.49 C 0 km/h
1478 18-10-2007 13:00:00 11.985 C 5.9 g/m*3 11.99 C 0 km/h
1479 18-10-2007 14:00:00 12.595 C 5.83 g/m*3 12.6 C 0 km/h
1480 18-10-2007 15:00:00 13.855 C 5.43 g/m*3 13.86 C 0 km/h
1481 18-10-2007 16:00:00 11.005 C 6.46 g/m*3 11.01 C 0 km/h
1482 18-10-2007 17:00:00 10.93 C 6.64 g/m*3 10.93 C 0 km/h
1483 18-10-2007 18:00:00 10.36 C 6.25 g/m*3 10.36 C 0 km/h
1484 18-10-2007 19:00:00 9.48 C 6.33 g/m*3 9.48 C 0 km/h
1485 18-10-2007 20:00:00 8.54 C 6.2 g/m*3 8.54 C 0 km/h
1486 18-10-2007 21:00:00 7.6 C 6.3 g/m*3 7.6 C 0 km/h
1487 18-10-2007 22:00:00 7.005 C 6.4 g/m*3 7.01 C 0 km/h
1488 18-10-2007 23:00:00 6.23 C 6.35 g/m*3 6.23 C 0 km/h
1489 19-10-2007 00:00:00 6.55 C 6.6 g/m*3 6.55 C 0 km/h
1490 19-10-2007 01:00:00 6.605 C 6.53 g/m*3 6.61 C 0 km/h
1491 19-10-2007 02:00:00 6.82 C 6.37 g/m*3 6.82 C 0 km/h
1492 19-10-2007 03:00:00 6.86 C 6.37 g/m*3 6.86 C 0 km/h
1493 19-10-2007 04:00:00 6.865 C 6.35 g/m*3 6.87 C 0 km/h
1494 19-10-2007 05:00:00 6.75 C 6.3 g/m*3 6.75 C 0 km/h
1495 19-10-2007 06:00:00 6.945 C 6.13 g/m*3 6.95 C 0 km/h
1496 19-10-2007 07:00:00 6.78 C 6.16 g/m*3 6.78 C 0 km/h
1497 19-10-2007 08:00:00 6.445 C 6.3 g/m*3 6.45 C 0 km/h
1498 19-10-2007 09:00:00 7.255 C 6.45 g/m*3 7.26 C 0 km/h
1499 19-10-2007 10:00:00 8.35 C 6.23 g/m*3 8.35 C 0 km/h
1500 19-10-2007 11:00:00 9.625 C 5.98 g/m*3 9.63 C 0 km/h
Sensor: Nr:Datum:Temp:Abs-Feuchte:Windchill:Wind:
Aussen-T/F 1501 19-10-2007 12:00:00 9.79 C 5.84 g/m*3 9.79 C 0 km/h
1502 19-10-2007 13:00:00 10.48 C 5.63 g/m*3 10.48 C 0 km/h
1503 19-10-2007 14:00:00 10.37 C 5.56 g/m*3 10.37 C 0 km/h
1504 19-10-2007 15:00:00 10.485 C 5.65 g/m*3 10.49 C 0 km/h
1505 19-10-2007 16:00:00 9.78 C 5.96 g/m*3 9.78 C 0 km/h
1506 19-10-2007 17:00:00 8.87 C 6.17 g/m*3 8.87 C 0 km/h
1507 19-10-2007 18:00:00 8.06 C 5.86 g/m*3 8.06 C 0 km/h
1508 19-10-2007 19:00:00 6.88 C 5.98 g/m*3 6.88 C 0 km/h
1509 19-10-2007 20:00:00 5.735 C 5.84 g/m*3 5.74 C 0 km/h
1510 19-10-2007 21:00:00 5.34 C 5.95 g/m*3 5.34 C 0 km/h
1511 19-10-2007 22:00:00 5.985 C 6.26 g/m*3 5.99 C 0 km/h
1512 19-10-2007 23:00:00 6.135 C 6.3 g/m*3 6.14 C 0 km/h
1513 20-10-2007 00:00:00 5.17 C 6 g/m*3 5.17 C 0 km/h
1514 20-10-2007 01:00:00 4.295 C 5.81 g/m*3 4.3 C 0 km/h
1515 20-10-2007 02:00:00 3.545 C 5.61 g/m*3 3.55 C 0 km/h
1516 20-10-2007 03:00:00 3.035 C 5.47 g/m*3 3.04 C 0 km/h
1517 20-10-2007 04:00:00 2.375 C 5.24 g/m*3 2.38 C 0 km/h
1518 20-10-2007 05:00:00 1.895 C 5.13 g/m*3 1.9 C 0 km/h
1519 24-10-2007 13:00:00 7.93846 C 5.43 g/m*3 7.94 C 0 km/h
1520 24-10-2007 14:00:00 7.97 C 5.44 g/m*3 7.97 C 0 km/h
1521 24-10-2007 15:00:00 8.435 C 5.48 g/m*3 8.44 C 0 km/h
1522 24-10-2007 16:00:00 8.37 C 5.57 g/m*3 8.37 C 0 km/h
1523 24-10-2007 17:00:00 7.88 C 5.64 g/m*3 7.88 C 0 km/h
1524 24-10-2007 18:00:00 7.6 C 5.76 g/m*3 7.6 C 0 km/h
1525 24-10-2007 19:00:00 7.365 C 5.8 g/m*3 7.37 C 0 km/h
Sensor: Nr:Datum:Temp:Abs-Feuchte:Windchill:Wind:
Aussen-T/F 1526 24-10-2007 20:00:00 6.97 C 5.83 g/m*3 6.97 C 0 km/h
1527 24-10-2007 21:00:00 7.2 C 5.85 g/m*3 7.2 C 0 km/h
1528 24-10-2007 22:00:00 7.2 C 5.81 g/m*3 7.2 C 0 km/h
1529 24-10-2007 23:00:00 7.195 C 5.81 g/m*3 7.2 C 0 km/h
1530 25-10-2007 00:00:00 7.125 C 5.86 g/m*3 7.13 C 0 km/h
1531 25-10-2007 01:00:00 7 C 5.92 g/m*3 7 C 0 km/h
1532 25-10-2007 02:00:00 7 C 6.08 g/m*3 7 C 0 km/h
1533 25-10-2007 03:00:00 7.055 C 6.12 g/m*3 7.06 C 0 km/h
1534 25-10-2007 04:00:00 7.03 C 6.13 g/m*3 7.03 C 0 km/h
1535 25-10-2007 05:00:00 7.04 C 6.14 g/m*3 7.04 C 0 km/h
1536 25-10-2007 06:00:00 7.115 C 6.25 g/m*3 7.12 C 0 km/h
1537 25-10-2007 07:00:00 7.2 C 6.28 g/m*3 7.2 C 0 km/h
1538 25-10-2007 08:00:00 7.32 C 6.29 g/m*3 7.32 C 0 km/h
1539 25-10-2007 09:00:00 7.67 C 6.34 g/m*3 7.67 C 0 km/h
1540 25-10-2007 10:00:00 8.12 C 6.29 g/m*3 8.12 C 0 km/h
1541 25-10-2007 11:00:00 8.685 C 6.29 g/m*3 8.69 C 0 km/h
1542 25-10-2007 12:00:00 9.245 C 6.23 g/m*3 9.24 C 0 km/h
1543 25-10-2007 13:00:00 10.81 C 6.22 g/m*3 10.81 C 0 km/h
1544 25-10-2007 14:00:00 11.165 C 6.14 g/m*3 11.17 C 0 km/h
1545 25-10-2007 15:00:00 10.665 C 6.26 g/m*3 10.67 C 0 km/h
1546 25-10-2007 16:00:00 10.405 C 6.29 g/m*3 10.41 C 0 km/h
1547 25-10-2007 17:00:00 9.82 C 6.41 g/m*3 9.82 C 0 km/h
1548 25-10-2007 18:00:00 9.49 C 6.44 g/m*3 9.49 C 0 km/h
1549 25-10-2007 19:00:00 9.155 C 6.51 g/m*3 9.15 C 0 km/h
1550 25-10-2007 20:00:00 9.08 C 6.45 g/m*3 9.08 C 0 km/h
Sensor: Nr:Datum:Temp:Abs-Feuchte:Windchill:Wind:
Aussen-T/F 1551 25-10-2007 21:00:00 8.92 C 6.4 g/m*3 8.92 C 0 km/h
1552 25-10-2007 22:00:00 8.66 C 6.3 g/m*3 8.66 C 0 km/h
1553 25-10-2007 23:00:00 8.475 C 6.15 g/m*3 8.48 C 0 km/h
1554 26-10-2007 00:00:00 8.3 C 6.14 g/m*3 8.3 C 0 km/h
1555 26-10-2007 01:00:00 8.145 C 6.14 g/m*3 8.15 C 0 km/h
1556 26-10-2007 02:00:00 8.055 C 6.14 g/m*3 8.06 C 0 km/h
1557 26-10-2007 03:00:00 7.965 C 6.17 g/m*3 7.97 C 0 km/h
1558 26-10-2007 04:00:00 7.9 C 6.27 g/m*3 7.9 C 0 km/h
1559 26-10-2007 05:00:00 7.88 C 6.23 g/m*3 7.88 C 0 km/h
1560 26-10-2007 06:00:00 7.85 C 6.25 g/m*3 7.85 C 0 km/h
1561 26-10-2007 07:00:00 7.76 C 6.23 g/m*3 7.76 C 0 km/h
1562 26-10-2007 08:00:00 7.795 C 6.29 g/m*3 7.8 C 0 km/h
1563 26-10-2007 09:00:00 8.335 C 6.14 g/m*3 8.34 C 0 km/h
1564 26-10-2007 10:00:00 8.96 C 5.93 g/m*3 8.96 C 0 km/h
1565 26-10-2007 11:00:00 9.565 C 5.75 g/m*3 9.57 C 0 km/h
1566 26-10-2007 12:00:00 10.165 C 5.65 g/m*3 10.16 C 0 km/h
1567 26-10-2007 13:00:00 10.3 C 5.54 g/m*3 10.3 C 0 km/h
1568 26-10-2007 14:00:00 10.665 C 5.56 g/m*3 10.67 C 0 km/h
1569 26-10-2007 15:00:00 10.68 C 5.58 g/m*3 10.68 C 0 km/h
1570 26-10-2007 16:00:00 10.5 C 5.79 g/m*3 10.5 C 0 km/h
1571 26-10-2007 17:00:00 9.9 C 5.86 g/m*3 9.9 C 0 km/h
1572 26-10-2007 18:00:00 9.48 C 5.98 g/m*3 9.48 C 0 km/h
1573 26-10-2007 19:00:00 9.02 C 6.02 g/m*3 9.02 C 0 km/h
1574 26-10-2007 20:00:00 8.72 C 6.11 g/m*3 8.72 C 0 km/h
1575 26-10-2007 21:00:00 8.54 C 6.15 g/m*3 8.54 C 0 km/h
Sensor: Nr:Datum:Temp:Abs-Feuchte:Windchill:Wind:
Aussen-T/F 1576 26-10-2007 22:00:00 8.3 C 6.09 g/m*3 8.3 C 0 km/h
1577 26-10-2007 23:00:00 8.1 C 6.07 g/m*3 8.1 C 0 km/h
1578 27-10-2007 00:00:00 8.02 C 6.14 g/m*3 8.02 C 0 km/h
1579 27-10-2007 01:00:00 7.92 C 6.23 g/m*3 7.92 C 0 km/h
1580 27-10-2007 02:00:00 7.9 C 6.36 g/m*3 7.9 C 0 km/h
1581 27-10-2007 03:00:00 7.82 C 6.32 g/m*3 7.82 C 0 km/h
1582 27-10-2007 04:00:00 7.8 C 6.41 g/m*3 7.8 C 0 km/h
1583 27-10-2007 05:00:00 7.74 C 6.37 g/m*3 7.74 C 0 km/h
1584 27-10-2007 06:00:00 7.76 C 6.09 g/m*3 7.76 C 0 km/h
1585 27-10-2007 07:00:00 7.82 C 6.03 g/m*3 7.82 C 0 km/h
1586 27-10-2007 08:00:00 7.74 C 5.92 g/m*3 7.74 C 0 km/h
1587 27-10-2007 09:00:00 8.08 C 5.58 g/m*3 8.08 C 0 km/h
1588 27-10-2007 10:00:00 8.84 C 5.53 g/m*3 8.84 C 0 km/h
1589 27-10-2007 11:00:00 9.08 C 5.41 g/m*3 9.08 C 0 km/h
1590 27-10-2007 12:00:00 9.46 C 5.43 g/m*3 9.46 C 0 km/h
1591 27-10-2007 13:00:00 9.54 C 5.29 g/m*3 9.54 C 0 km/h
1592 27-10-2007 14:00:00 9.98 C 5.27 g/m*3 9.98 C 0 km/h
1593 27-10-2007 15:00:00 9.74 C 5.42 g/m*3 9.74 C 0 km/h
1594 27-10-2007 16:00:00 9.6 C 5.5 g/m*3 9.6 C 0 km/h
1595 27-10-2007 17:00:00 9.3 C 5.63 g/m*3 9.3 C 0 km/h
1596 27-10-2007 18:00:00 8.9 C 5.62 g/m*3 8.9 C 0 km/h
1597 27-10-2007 19:00:00 8.66 C 5.85 g/m*3 8.66 C 0 km/h
1598 27-10-2007 20:00:00 8.64 C 5.93 g/m*3 8.64 C 0 km/h
1599 27-10-2007 21:00:00 8.6 C 5.84 g/m*3 8.6 C 0 km/h
1600 27-10-2007 22:00:00 8.5 C 5.84 g/m*3 8.5 C 0 km/h
Sensor: Nr:Datum:Temp:Abs-Feuchte:Windchill:Wind:
Aussen-T/F 1601 27-10-2007 23:00:00 8.3 C 5.92 g/m*3 8.3 C 0 km/h
1602 28-10-2007 00:00:00 8.14 C 5.99 g/m*3 8.14 C 0 km/h
1603 28-10-2007 01:00:00 8.1 C 6.06 g/m*3 8.1 C 0 km/h
1604 28-10-2007 02:00:00 8.06 C 5.96 g/m*3 8.06 C 0 km/h
1605 28-10-2007 03:00:00 7.92 C 6.04 g/m*3 7.92 C 0 km/h
1606 28-10-2007 04:00:00 7.87 C 6.06 g/m*3 7.87 C 0 km/h
1607 28-10-2007 05:00:00 7.74 C 6.13 g/m*3 7.74 C 0 km/h
1608 28-10-2007 06:00:00 7.7 C 6.23 g/m*3 7.7 C 0 km/h
1609 28-10-2007 07:00:00 7.92 C 6.07 g/m*3 7.92 C 0 km/h
1610 28-10-2007 08:00:00 8.62 C 5.87 g/m*3 8.62 C 0 km/h
1611 28-10-2007 09:00:00 9.36 C 5.92 g/m*3 9.36 C 0 km/h
1612 28-10-2007 10:00:00 9.94 C 5.93 g/m*3 9.94 C 0 km/h
1613 28-10-2007 11:00:00 10.48 C 5.73 g/m*3 10.48 C 0 km/h
1614 28-10-2007 12:00:00 10.68 C 5.65 g/m*3 10.68 C 0 km/h
1615 28-10-2007 13:00:00 11.2 C 5.57 g/m*3 11.2 C 0 km/h
1616 28-10-2007 14:00:00 11.42 C 5.63 g/m*3 11.42 C 0 km/h
1617 28-10-2007 15:00:00 11.04 C 5.58 g/m*3 11.04 C 0 km/h
1618 28-10-2007 16:00:00 10.96 C 5.55 g/m*3 10.96 C 0 km/h
1619 28-10-2007 17:00:00 10.22 C 5.68 g/m*3 10.22 C 0 km/h
1620 28-10-2007 18:00:00 9.72 C 5.83 g/m*3 9.72 C 0 km/h
1621 28-10-2007 19:00:00 9.4 C 5.84 g/m*3 9.4 C 0 km/h
1622 28-10-2007 20:00:00 8.98 C 5.81 g/m*3 8.98 C 0 km/h
1623 28-10-2007 21:00:00 8.78 C 5.82 g/m*3 8.78 C 0 km/h
1624 28-10-2007 22:00:00 8.66 C 5.85 g/m*3 8.66 C 0 km/h
1625 28-10-2007 23:00:00 8.3 C 5.77 g/m*3 8.3 C 0 km/h
Sensor: Nr:Datum:Temp:Abs-Feuchte:Windchill:Wind:
Aussen-T/F 1626 29-10-2007 00:00:00 7.42 C 5.77 g/m*3 7.42 C 0 km/h
1627 29-10-2007 01:00:00 7 C 5.72 g/m*3 7 C 0 km/h
1628 29-10-2007 02:00:00 7.2 C 5.93 g/m*3 7.2 C 0 km/h
1629 29-10-2007 03:00:00 7.44 C 6 g/m*3 7.44 C 0 km/h
1630 29-10-2007 04:00:00 7.86 C 6 g/m*3 7.86 C 0 km/h
1631 29-10-2007 05:00:00 7.68 C 6.06 g/m*3 7.68 C 0 km/h
1632 29-10-2007 06:00:00 7.8 C 6.22 g/m*3 7.8 C 0 km/h
1633 29-10-2007 07:00:00 7.86 C 6.23 g/m*3 7.86 C 0 km/h
1634 29-10-2007 08:00:00 8.56 C 6.22 g/m*3 8.56 C 0 km/h
1635 29-10-2007 09:00:00 9.8 C 6.22 g/m*3 9.8 C 0 km/h
1636 29-10-2007 10:00:00 10.56 C 6.27 g/m*3 10.56 C 0 km/h
1637 29-10-2007 11:00:00 10.72 C 6.63 g/m*3 10.72 C 0 km/h
1638 29-10-2007 12:00:00 10.14 C 7.38 g/m*3 10.14 C 0 km/h
1639 29-10-2007 13:00:00 10.08 C 7.84 g/m*3 10.08 C 0 km/h
1640 29-10-2007 14:00:00 9.64 C 8.01 g/m*3 9.64 C 0 km/h
1641 29-10-2007 15:00:00 9.52 C 8.07 g/m*3 9.52 C 0 km/h
1642 29-10-2007 16:00:00 9.5 C 8.17 g/m*3 9.5 C 0 km/h
1643 29-10-2007 17:00:00 9.34 C 8.2 g/m*3 9.34 C 0 km/h
1644 29-10-2007 18:00:00 9.02 C 8.16 g/m*3 9.02 C 0 km/h
1645 29-10-2007 19:00:00 8.94 C 8.22 g/m*3 8.94 C 0 km/h
1646 29-10-2007 20:00:00 8.76 C 8.21 g/m*3 8.76 C 0 km/h
1647 29-10-2007 21:00:00 8.58 C 8.15 g/m*3 8.58 C 0 km/h
1648 29-10-2007 22:00:00 8.58 C 8.15 g/m*3 8.58 C 0 km/h
1649 29-10-2007 23:00:00 8.68 C 8.21 g/m*3 8.68 C 0 km/h
1650 30-10-2007 00:00:00 8.6 C 8.16 g/m*3 8.6 C 0 km/h
Sensor: Nr:Datum:Temp:Abs-Feuchte:Windchill:Wind:
Aussen-T/F 1651 30-10-2007 01:00:00 8.6 C 8.16 g/m*3 8.6 C 0 km/h
1652 30-10-2007 02:00:00 8.6 C 8.16 g/m*3 8.6 C 0 km/h
1653 30-10-2007 03:00:00 8.54 C 8.13 g/m*3 8.54 C 0 km/h
1654 30-10-2007 04:00:00 7.88 C 7.79 g/m*3 7.88 C 0 km/h
1655 30-10-2007 05:00:00 7.74 C 7.72 g/m*3 7.74 C 0 km/h
1656 30-10-2007 06:00:00 7.74 C 7.72 g/m*3 7.74 C 0 km/h
1657 30-10-2007 07:00:00 7.7 C 7.7 g/m*3 7.7 C 0 km/h
1658 30-10-2007 08:00:00 8.16 C 7.92 g/m*3 8.16 C 0 km/h
1659 30-10-2007 09:00:00 8.92 C 7.98 g/m*3 8.92 C 0 km/h
1660 30-10-2007 10:00:00 9.82 C 7.32 g/m*3 9.82 C 0 km/h
1661 30-10-2007 11:00:00 10.36 C 6.69 g/m*3 10.36 C 0 km/h
1662 30-10-2007 12:00:00 10.92 C 6.1 g/m*3 10.92 C 0 km/h
1663 30-10-2007 13:00:00 11.5 C 5.64 g/m*3 11.5 C 0 km/h
1664 30-10-2007 14:00:00 11.1 C 5.88 g/m*3 11.1 C 0 km/h
1665 30-10-2007 15:00:00 10.48 C 6.04 g/m*3 10.48 C 0 km/h
1666 30-10-2007 16:00:00 8.86 C 6.48 g/m*3 8.86 C 0 km/h
1667 30-10-2007 17:00:00 8.26 C 6.76 g/m*3 8.26 C 0 km/h
1668 30-10-2007 18:00:00 7.62 C 6.84 g/m*3 7.62 C 0 km/h
1669 30-10-2007 19:00:00 7.9 C 7.03 g/m*3 7.9 C 0 km/h
1670 30-10-2007 20:00:00 7.76 C 7.28 g/m*3 7.76 C 0 km/h
1671 30-10-2007 21:00:00 7.84 C 7.56 g/m*3 7.84 C 0 km/h
1672 30-10-2007 22:00:00 7.38 C 7.39 g/m*3 7.38 C 0 km/h
1673 30-10-2007 23:00:00 6.6 C 7.1 g/m*3 6.6 C 0 km/h
1674 31-10-2007 00:00:00 5.76 C 6.79 g/m*3 5.76 C 0 km/h
1675 31-10-2007 01:00:00 5.18 C 6.53 g/m*3 5.18 C 0 km/h
Sensor: Nr:Datum:Temp:Abs-Feuchte:Windchill:Wind:
Aussen-T/F 1676 31-10-2007 02:00:00 4.82 C 6.38 g/m*3 4.82 C 0 km/h
1677 31-10-2007 03:00:00 5.24 C 6.56 g/m*3 5.24 C 0 km/h
1678 31-10-2007 04:00:00 5.32 C 6.59 g/m*3 5.32 C 0 km/h
1679 31-10-2007 05:00:00 5.64 C 6.73 g/m*3 5.64 C 0 km/h
1680 31-10-2007 06:00:00 5.84 C 6.82 g/m*3 5.84 C 0 km/h
1681 31-10-2007 07:00:00 6.12 C 6.95 g/m*3 6.12 C 0 km/h
1682 31-10-2007 08:00:00 6.38 C 7.07 g/m*3 6.38 C 0 km/h
1683 31-10-2007 09:00:00 6.8 C 6.93 g/m*3 6.8 C 0 km/h
1684 31-10-2007 10:00:00 7.3 C 6.54 g/m*3 7.3 C 0 km/h
1685 31-10-2007 11:00:00 8.02 C 6.44 g/m*3 8.02 C 0 km/h
1686 31-10-2007 12:00:00 8.9 C 6.39 g/m*3 8.9 C 0 km/h
1687 31-10-2007 13:00:00 9.64 C 6.39 g/m*3 9.64 C 0 km/h
1688 31-10-2007 14:00:00 9.96 C 6.26 g/m*3 9.96 C 0 km/h
1689 31-10-2007 15:00:00 10.76 C 6.27 g/m*3 10.76 C 0 km/h
1690 31-10-2007 16:00:00 9.46 C 6.14 g/m*3 9.46 C 0 km/h
1691 31-10-2007 17:00:00 6.62 C 6.12 g/m*3 6.62 C 0 km/h
1692 31-10-2007 18:00:00 5.6 C 6.08 g/m*3 5.6 C 0 km/h
1693 31-10-2007 19:00:00 5 C 6.01 g/m*3 5 C 0 km/h
1694 31-10-2007 20:00:00 4.4 C 5.84 g/m*3 4.4 C 0 km/h
1695 31-10-2007 21:00:00 3.84 C 5.74 g/m*3 3.84 C 0 km/h
1696 31-10-2007 22:00:00 3.74 C 5.79 g/m*3 3.74 C 0 km/h
1697 31-10-2007 23:00:00 4.06 C 6 g/m*3 4.06 C 0 km/h
1698 01-11-2007 00:00:00 4.06 C 6 g/m*3 4.06 C 0 km/h
1699 01-11-2007 01:00:00 3.62 C 5.83 g/m*3 3.62 C 0 km/h
1700 01-11-2007 02:00:00 3.44 C 5.72 g/m*3 3.44 C 0 km/h
Sensor: Nr:Datum:Temp:Abs-Feuchte:Windchill:Wind:
Aussen-T/F 1701 01-11-2007 03:00:00 3.24 C 5.6 g/m*3 3.24 C 0 km/h
1702 01-11-2007 04:00:00 2.6 C 5.44 g/m*3 2.6 C 0 km/h
1703 01-11-2007 05:00:00 2.7 C 5.5 g/m*3 2.7 C 0 km/h
1704 01-11-2007 06:00:00 2.44 C 5.34 g/m*3 2.44 C 0 km/h
1705 01-11-2007 07:00:00 2.22 C 5.25 g/m*3 2.22 C 0 km/h
1706 01-11-2007 08:00:00 1.96 C 5.15 g/m*3 1.96 C 0 km/h
1707 01-11-2007 09:00:00 2.76 C 5.28 g/m*3 2.76 C 0 km/h
1708 01-11-2007 10:00:00 4.3 C 5.64 g/m*3 4.3 C 0 km/h
1709 01-11-2007 11:00:00 6.84 C 5.87 g/m*3 6.84 C 0 km/h
1710 01-11-2007 12:00:00 8.88 C 5.81 g/m*3 8.88 C 0 km/h
1711 01-11-2007 13:00:00 8.94 C 5.99 g/m*3 8.94 C 0 km/h
1712 01-11-2007 14:00:00 8.56 C 6.1 g/m*3 8.56 C 0 km/h
1713 01-11-2007 15:00:00 8.22 C 6.22 g/m*3 8.22 C 0 km/h
1714 01-11-2007 16:00:00 8.06 C 6.39 g/m*3 8.06 C 0 km/h
1715 01-11-2007 17:00:00 7.9 C 6.57 g/m*3 7.9 C 0 km/h
1716 01-11-2007 18:00:00 7.88 C 6.64 g/m*3 7.88 C 0 km/h
1717 01-11-2007 19:00:00 7.82 C 6.7 g/m*3 7.82 C 0 km/h
1718 01-11-2007 20:00:00 7.94 C 6.8 g/m*3 7.94 C 0 km/h
1719 01-11-2007 21:00:00 8.06 C 6.82 g/m*3 8.06 C 0 km/h
1720 01-11-2007 22:00:00 8.14 C 6.92 g/m*3 8.14 C 0 km/h
1721 01-11-2007 23:00:00 8.1 C 6.94 g/m*3 8.1 C 0 km/h
1722 02-11-2007 00:00:00 8.16 C 7.08 g/m*3 8.16 C 0 km/h
1723 02-11-2007 01:00:00 8.14 C 7.16 g/m*3 8.14 C 0 km/h
1724 02-11-2007 02:00:00 8.24 C 7.3 g/m*3 8.24 C 0 km/h
1725 02-11-2007 03:00:00 8.38 C 7.37 g/m*3 8.38 C 0 km/h
Sensor: Nr:Datum:Temp:Abs-Feuchte:Windchill:Wind:
Aussen-T/F 1726 02-11-2007 04:00:00 8.48 C 7.5 g/m*3 8.48 C 0 km/h
1727 02-11-2007 05:00:00 8.6 C 7.65 g/m*3 8.6 C 0 km/h
1728 02-11-2007 06:00:00 8.52 C 7.61 g/m*3 8.52 C 0 km/h
1729 02-11-2007 07:00:00 8.74 C 7.8 g/m*3 8.74 C 0 km/h
1730 02-11-2007 08:00:00 9.02 C 7.96 g/m*3 9.02 C 0 km/h
1731 02-11-2007 09:00:00 9.58 C 8.44 g/m*3 9.58 C 0 km/h
1732 02-11-2007 10:00:00 10.18 C 8.65 g/m*3 10.18 C 0 km/h
1733 02-11-2007 11:00:00 10.6 C 8.98 g/m*3 10.6 C 0 km/h
1734 02-11-2007 12:00:00 11.14 C 9.17 g/m*3 11.14 C 0 km/h
1735 02-11-2007 13:00:00 11.76 C 9.34 g/m*3 11.76 C 0 km/h
1736 02-11-2007 14:00:00 12.22 C 9.31 g/m*3 12.22 C 0 km/h
1737 02-11-2007 15:00:00 12.06 C 9.33 g/m*3 12.06 C 0 km/h
1738 02-11-2007 16:00:00 11.62 C 9.28 g/m*3 11.62 C 0 km/h
1739 02-11-2007 17:00:00 11.44 C 9.26 g/m*3 11.44 C 0 km/h
1740 02-11-2007 18:00:00 11.32 C 9.25 g/m*3 11.32 C 0 km/h
1741 02-11-2007 19:00:00 11.3 C 9.28 g/m*3 11.3 C 0 km/h
1742 02-11-2007 20:00:00 11.3 C 9.34 g/m*3 11.3 C 0 km/h
1743 02-11-2007 21:00:00 11.32 C 9.4 g/m*3 11.32 C 0 km/h
1744 02-11-2007 22:00:00 11.38 C 9.51 g/m*3 11.38 C 0 km/h
1745 02-11-2007 23:00:00 11.38 C 9.53 g/m*3 11.38 C 0 km/h
1746 03-11-2007 00:00:00 11.38 C 9.64 g/m*3 11.38 C 0 km/h
1747 03-11-2007 01:00:00 11.36 C 9.69 g/m*3 11.36 C 0 km/h
1748 03-11-2007 02:00:00 11.35 C 9.72 g/m*3 11.35 C 0 km/h
1749 03-11-2007 03:00:00 11.34 C 9.71 g/m*3 11.34 C 0 km/h
1750 03-11-2007 04:00:00 11.3 C 9.69 g/m*3 11.3 C 0 km/h
Sensor: Nr:Datum:Temp:Abs-Feuchte:Windchill:Wind:
Aussen-T/F 1751 03-11-2007 05:00:00 11.3 C 9.69 g/m*3 11.3 C 0 km/h
1752 03-11-2007 06:00:00 11.3 C 9.69 g/m*3 11.3 C 0 km/h
1753 03-11-2007 07:00:00 11.26 C 9.67 g/m*3 11.26 C 0 km/h
1754 03-11-2007 08:00:00 11.44 C 9.78 g/m*3 11.44 C 0 km/h
1755 03-11-2007 09:00:00 11.72 C 9.95 g/m*3 11.72 C 0 km/h
1756 03-11-2007 10:00:00 12.22 C 10.26 g/m*3 12.22 C 0 km/h
1757 03-11-2007 11:00:00 12.66 C 10.55 g/m*3 12.66 C 0 km/h
1758 03-11-2007 12:00:00 12.84 C 10.58 g/m*3 12.84 C 0 km/h
1759 03-11-2007 13:00:00 12.78 C 10.16 g/m*3 12.78 C 0 km/h
1760 03-11-2007 14:00:00 12.9 C 9.87 g/m*3 12.9 C 0 km/h
1761 03-11-2007 15:00:00 12.76 C 9.52 g/m*3 12.76 C 0 km/h
1762 03-11-2007 16:00:00 12.22 C 9.14 g/m*3 12.22 C 0 km/h
1763 03-11-2007 17:00:00 11.88 C 8.86 g/m*3 11.88 C 0 km/h
1764 03-11-2007 18:00:00 11.5 C 9.15 g/m*3 11.5 C 0 km/h
1765 03-11-2007 19:00:00 11.52 C 9.31 g/m*3 11.52 C 0 km/h
1766 03-11-2007 20:00:00 11.52 C 9.2 g/m*3 11.52 C 0 km/h
1767 03-11-2007 21:00:00 11.46 C 9.13 g/m*3 11.46 C 0 km/h
1768 03-11-2007 22:00:00 11.3 C 9.24 g/m*3 11.3 C 0 km/h
1769 03-11-2007 23:00:00 11.02 C 9.12 g/m*3 11.02 C 0 km/h
1770 04-11-2007 00:00:00 10.82 C 9.12 g/m*3 10.82 C 0 km/h
1771 04-11-2007 01:00:00 10.86 C 8.65 g/m*3 10.86 C 0 km/h
1772 04-11-2007 02:00:00 10.52 C 8.12 g/m*3 10.52 C 0 km/h
1773 04-11-2007 03:00:00 10.22 C 7.74 g/m*3 10.22 C 0 km/h
1774 04-11-2007 04:00:00 9.98 C 7.51 g/m*3 9.98 C 0 km/h
1775 04-11-2007 05:00:00 9.8 C 7.57 g/m*3 9.8 C 0 km/h
Sensor: Nr:Datum:Temp:Abs-Feuchte:Windchill:Wind:
Aussen-T/F 1776 04-11-2007 06:00:00 9.66 C 7.63 g/m*3 9.66 C 0 km/h
1777 04-11-2007 07:00:00 9.48 C 7.47 g/m*3 9.48 C 0 km/h
1778 04-11-2007 08:00:00 9.48 C 7.53 g/m*3 9.48 C 0 km/h
1779 04-11-2007 09:00:00 9.98 C 7.71 g/m*3 9.98 C 0 km/h
1780 04-11-2007 10:00:00 10.9 C 7.4 g/m*3 10.9 C 0 km/h
1781 04-11-2007 11:00:00 11.44 C 7.18 g/m*3 11.44 C 0 km/h
1782 04-11-2007 12:00:00 12.22 C 5.88 g/m*3 12.22 C 0 km/h
1783 04-11-2007 13:00:00 12.12 C 5.22 g/m*3 12.12 C 0 km/h
1784 04-11-2007 14:00:00 11.54 C 5.59 g/m*3 11.54 C 0 km/h
1785 04-11-2007 15:00:00 11.54 C 4.83 g/m*3 11.54 C 0 km/h
1786 04-11-2007 16:00:00 10.86 C 5.2 g/m*3 10.86 C 0 km/h
1787 04-11-2007 17:00:00 10.4 C 5.72 g/m*3 10.4 C 0 km/h
1788 04-11-2007 18:00:00 10.04 C 6.03 g/m*3 10.04 C 0 km/h
1789 04-11-2007 19:00:00 9.74 C 6.25 g/m*3 9.74 C 0 km/h
1790 04-11-2007 20:00:00 9.62 C 6.48 g/m*3 9.62 C 0 km/h
1791 04-11-2007 21:00:00 9.44 C 6.55 g/m*3 9.44 C 0 km/h
1792 04-11-2007 22:00:00 8.96 C 6.05 g/m*3 8.96 C 0 km/h
1793 04-11-2007 23:00:00 8.78 C 6.14 g/m*3 8.78 C 0 km/h
1794 05-11-2007 00:00:00 8.62 C 6.26 g/m*3 8.62 C 0 km/h
1795 05-11-2007 01:00:00 8.44 C 6.12 g/m*3 8.44 C 0 km/h
1796 05-11-2007 02:00:00 8.32 C 5.98 g/m*3 8.32 C 0 km/h
1797 05-11-2007 03:00:00 8.16 C 6.13 g/m*3 8.16 C 0 km/h
1798 05-11-2007 04:00:00 7.96 C 6.27 g/m*3 7.96 C 0 km/h
1799 05-11-2007 05:00:00 7.82 C 6.36 g/m*3 7.82 C 0 km/h
1800 05-11-2007 06:00:00 7.48 C 6.04 g/m*3 7.48 C 0 km/h
Sensor: Nr:Datum:Temp:Abs-Feuchte:Windchill:Wind:
Aussen-T/F 1801 05-11-2007 07:00:00 7.4 C 5.93 g/m*3 7.4 C 0 km/h
1802 05-11-2007 08:00:00 7.66 C 6.31 g/m*3 7.66 C 0 km/h
1803 05-11-2007 09:00:00 8.42 C 6.34 g/m*3 8.42 C 0 km/h
1804 05-11-2007 10:00:00 9.14 C 6.24 g/m*3 9.14 C 0 km/h
1805 05-11-2007 11:00:00 9.8 C 6.18 g/m*3 9.8 C 0 km/h
1806 05-11-2007 12:00:00 10.38 C 4.7 g/m*3 10.38 C 0 km/h
1807 05-11-2007 13:00:00 10.62 C 4.32 g/m*3 10.62 C 0 km/h
1808 05-11-2007 14:00:00 10.4 C 3.95 g/m*3 10.4 C 0 km/h
1809 05-11-2007 15:00:00 10.2 C 4.11 g/m*3 10.2 C 0 km/h
1810 05-11-2007 16:00:00 9.66 C 4.19 g/m*3 9.66 C 0 km/h
1811 05-11-2007 17:00:00 7.94 C 4.36 g/m*3 7.94 C 0 km/h
1812 05-11-2007 18:00:00 7.64 C 4.52 g/m*3 7.64 C 0 km/h
1813 05-11-2007 19:00:00 7.76 C 4.66 g/m*3 7.76 C 0 km/h
1814 05-11-2007 20:00:00 7.74 C 4.76 g/m*3 7.74 C 0 km/h
1815 05-11-2007 21:00:00 8.06 C 4.7 g/m*3 8.06 C 0 km/h
1816 05-11-2007 22:00:00 8.52 C 4.68 g/m*3 8.52 C 0 km/h
1817 05-11-2007 23:00:00 8.58 C 5.06 g/m*3 8.58 C 0 km/h
1818 06-11-2007 00:00:00 8.5 C 5.28 g/m*3 8.5 C 0 km/h
1819 06-11-2007 01:00:00 7.62 C 6.05 g/m*3 7.62 C 0 km/h
1820 06-11-2007 02:00:00 7.04 C 6.84 g/m*3 7.04 C 0 km/h
1821 06-11-2007 03:00:00 7.8 C 7.33 g/m*3 7.8 C 0 km/h
1822 06-11-2007 04:00:00 8.06 C 6.86 g/m*3 8.06 C 0 km/h
1823 06-11-2007 05:00:00 7.52 C 6.59 g/m*3 7.52 C 0 km/h
1824 06-11-2007 06:00:00 7.4 C 6.57 g/m*3 7.4 C 0 km/h
1825 06-11-2007 07:00:00 7.68 C 6.28 g/m*3 7.68 C 0 km/h
Sensor: Nr:Datum:Temp:Abs-Feuchte:Windchill:Wind:
Aussen-T/F 1826 06-11-2007 08:00:00 7.86 C 6.19 g/m*3 7.86 C 0 km/h
1827 06-11-2007 09:00:00 7.96 C 6.27 g/m*3 7.96 C 0 km/h
1828 06-11-2007 10:00:00 9.12 C 5.99 g/m*3 9.12 C 0 km/h
1829 06-11-2007 11:00:00 9.78 C 5.62 g/m*3 9.78 C 0 km/h
1830 06-11-2007 12:00:00 9.64 C 5.49 g/m*3 9.64 C 0 km/h
1831 06-11-2007 13:00:00 8.78 C 5.93 g/m*3 8.78 C 0 km/h
1832 06-11-2007 14:00:00 9.74 C 5.67 g/m*3 9.74 C 0 km/h
1833 06-11-2007 15:00:00 9.78 C 5.43 g/m*3 9.78 C 0 km/h
1834 06-11-2007 16:00:00 8.46 C 5.47 g/m*3 8.46 C 0 km/h
1835 06-11-2007 17:00:00 7.84 C 5.2 g/m*3 7.84 C 0 km/h
1836 06-11-2007 18:00:00 7.36 C 5.01 g/m*3 7.36 C 0 km/h
1837 06-11-2007 19:00:00 7.36 C 5.33 g/m*3 7.36 C 0 km/h
1838 06-11-2007 20:00:00 7.3 C 5.39 g/m*3 7.3 C 0 km/h
1839 06-11-2007 21:00:00 7.48 C 5.32 g/m*3 7.48 C 0 km/h
1840 06-11-2007 22:00:00 7.46 C 5.32 g/m*3 7.46 C 0 km/h
1841 06-11-2007 23:00:00 7.4 C 5.41 g/m*3 7.4 C 0 km/h
1842 07-11-2007 00:00:00 7.08 C 5.48 g/m*3 7.08 C 0 km/h
1843 07-11-2007 01:00:00 7.12 C 5.51 g/m*3 7.12 C 0 km/h
1844 07-11-2007 02:00:00 7.32 C 5.55 g/m*3 7.32 C 0 km/h
1845 07-11-2007 03:00:00 7.32 C 5.74 g/m*3 7.32 C 0 km/h
1846 07-11-2007 04:00:00 7.14 C 5.79 g/m*3 7.14 C 0 km/h
1847 07-11-2007 05:00:00 7.4 C 5.98 g/m*3 7.4 C 0 km/h
1848 07-11-2007 06:00:00 7.5 C 5.88 g/m*3 7.5 C 0 km/h
1849 07-11-2007 07:00:00 7.5 C 5.54 g/m*3 7.5 C 0 km/h
1850 07-11-2007 08:00:00 7.74 C 5.25 g/m*3 7.74 C 0 km/h
Sensor: Nr:Datum:Temp:Abs-Feuchte:Windchill:Wind:
Aussen-T/F 1851 07-11-2007 09:00:00 8.08 C 5.27 g/m*3 8.08 C 0 km/h
1852 07-11-2007 10:00:00 7.9 C 5.59 g/m*3 7.9 C 0 km/h
1853 07-11-2007 11:00:00 8.3 C 5.58 g/m*3 8.3 C 0 km/h
1854 07-11-2007 12:00:00 8.34 C 5.85 g/m*3 8.34 C 0 km/h
1855 07-11-2007 13:00:00 9.12 C 5.86 g/m*3 9.12 C 0 km/h
1856 07-11-2007 14:00:00 9.8 C 5.94 g/m*3 9.8 C 0 km/h
1857 07-11-2007 15:00:00 9.2 C 6.25 g/m*3 9.2 C 0 km/h
1858 07-11-2007 16:00:00 8.92 C 6.74 g/m*3 8.92 C 0 km/h
1859 07-11-2007 17:00:00 8.72 C 6.81 g/m*3 8.72 C 0 km/h
1860 07-11-2007 18:00:00 9.66 C 6.71 g/m*3 9.66 C 0 km/h
1861 07-11-2007 19:00:00 10.34 C 6.68 g/m*3 10.34 C 0 km/h
1862 07-11-2007 20:00:00 10.8 C 6.78 g/m*3 10.8 C 0 km/h
1863 07-11-2007 21:00:00 10.36 C 7.19 g/m*3 10.36 C 0 km/h
1864 07-11-2007 22:00:00 9.12 C 7.71 g/m*3 9.12 C 0 km/h
1865 07-11-2007 23:00:00 9.1 C 7.95 g/m*3 9.1 C 0 km/h
1866 08-11-2007 00:00:00 9.56 C 7.64 g/m*3 9.56 C 0 km/h
1867 08-11-2007 01:00:00 9.5 C 7.52 g/m*3 9.5 C 0 km/h
1868 08-11-2007 02:00:00 9.48 C 7.11 g/m*3 9.48 C 0 km/h
1869 08-11-2007 03:00:00 9.5 C 6.81 g/m*3 9.5 C 0 km/h
1870 08-11-2007 04:00:00 9.3 C 6.76 g/m*3 9.3 C 0 km/h
1871 08-11-2007 05:00:00 8.7 C 6.92 g/m*3 8.7 C 0 km/h
1872 08-11-2007 06:00:00 8.94 C 7.24 g/m*3 8.94 C 0 km/h
1873 08-11-2007 07:00:00 9.24 C 7.11 g/m*3 9.24 C 0 km/h
1874 08-11-2007 08:00:00 9.34 C 6.97 g/m*3 9.34 C 0 km/h
1875 08-11-2007 09:00:00 9.7 C 7.21 g/m*3 9.7 C 0 km/h
Sensor: Nr:Datum:Temp:Abs-Feuchte:Windchill:Wind:
Aussen-T/F 1876 08-11-2007 10:00:00 10.58 C 7.37 g/m*3 10.58 C 0 km/h
1877 08-11-2007 11:00:00 10.86 C 7.3 g/m*3 10.86 C 0 km/h
1878 08-11-2007 12:00:00 11.18 C 7.07 g/m*3 11.18 C 0 km/h
1879 08-11-2007 13:00:00 11.28 C 7.01 g/m*3 11.28 C 0 km/h
1880 08-11-2007 14:00:00 11.12 C 6.94 g/m*3 11.12 C 0 km/h
1881 08-11-2007 15:00:00 11.04 C 6.9 g/m*3 11.04 C 0 km/h
1882 08-11-2007 16:00:00 10.6 C 7.16 g/m*3 10.6 C 0 km/h
1883 08-11-2007 17:00:00 10.14 C 7.32 g/m*3 10.14 C 0 km/h
1884 08-11-2007 18:00:00 9.3 C 7.82 g/m*3 9.3 C 0 km/h
1885 08-11-2007 19:00:00 9.18 C 7.85 g/m*3 9.18 C 0 km/h
1886 08-11-2007 20:00:00 9.58 C 7.32 g/m*3 9.58 C 0 km/h
1887 08-11-2007 21:00:00 9.54 C 6.84 g/m*3 9.54 C 0 km/h
1888 08-11-2007 22:00:00 9.76 C 7.03 g/m*3 9.76 C 0 km/h
1889 08-11-2007 23:00:00 9.14 C 7.42 g/m*3 9.14 C 0 km/h
1890 09-11-2007 00:00:00 7.14 C 6.58 g/m*3 7.14 C 0 km/h
1891 09-11-2007 01:00:00 6.46 C 6.64 g/m*3 6.46 C 0 km/h
1892 09-11-2007 02:00:00 6.42 C 6.39 g/m*3 6.42 C 0 km/h
1893 09-11-2007 03:00:00 5.7 C 5.79 g/m*3 5.7 C 0 km/h
1894 09-11-2007 04:00:00 4.18 C 5.42 g/m*3 4.18 C 0 km/h
1895 09-11-2007 05:00:00 4.08 C 5.45 g/m*3 4.08 C 0 km/h
1896 09-11-2007 06:00:00 4.18 C 5.13 g/m*3 4.18 C 0 km/h
1897 09-11-2007 07:00:00 3.9 C 4.77 g/m*3 3.9 C 0 km/h
1898 09-11-2007 08:00:00 4.2 C 4.56 g/m*3 4.2 C 0 km/h
1899 09-11-2007 09:00:00 4.5 C 4.61 g/m*3 4.5 C 0 km/h
1900 09-11-2007 10:00:00 4.68 C 4.66 g/m*3 4.68 C 0 km/h
Sensor: Nr:Datum:Temp:Abs-Feuchte:Windchill:Wind:
Aussen-T/F 1901 09-11-2007 11:00:00 5.46 C 4.55 g/m*3 5.46 C 0 km/h
1902 09-11-2007 12:00:00 6.38 C 4.43 g/m*3 6.38 C 0 km/h
1903 09-11-2007 13:00:00 6.58 C 4.52 g/m*3 6.58 C 0 km/h
1904 09-11-2007 14:00:00 6.36 C 4.46 g/m*3 6.36 C 0 km/h
1905 09-11-2007 15:00:00 5.46 C 4.65 g/m*3 5.46 C 0 km/h
1906 09-11-2007 16:00:00 5.52 C 4.64 g/m*3 5.52 C 0 km/h
1907 09-11-2007 17:00:00 4.7 C 4.89 g/m*3 4.7 C 0 km/h
1908 09-11-2007 18:00:00 4.5 C 5.05 g/m*3 4.5 C 0 km/h
1909 09-11-2007 19:00:00 4.34 C 5.09 g/m*3 4.34 C 0 km/h
1910 09-11-2007 20:00:00 4.78 C 5.01 g/m*3 4.78 C 0 km/h
1911 09-11-2007 21:00:00 4.8 C 5.04 g/m*3 4.8 C 0 km/h
1912 09-11-2007 22:00:00 4.84 C 5.07 g/m*3 4.84 C 0 km/h
1913 09-11-2007 23:00:00 4.72 C 5.34 g/m*3 4.72 C 0 km/h
1914 10-11-2007 00:00:00 4.38 C 5.57 g/m*3 4.38 C 0 km/h
1915 10-11-2007 01:00:00 4.26 C 5.41 g/m*3 4.26 C 0 km/h
1916 10-11-2007 02:00:00 4.74 C 5.28 g/m*3 4.74 C 0 km/h
1917 10-11-2007 03:00:00 4.88 C 5.06 g/m*3 4.88 C 0 km/h
1918 10-11-2007 04:00:00 4.74 C 4.84 g/m*3 4.74 C 0 km/h
1919 10-11-2007 05:00:00 4.48 C 5.04 g/m*3 4.48 C 0 km/h
1920 10-11-2007 06:00:00 3.8 C 5.48 g/m*3 3.8 C 0 km/h
1921 10-11-2007 07:00:00 4.16 C 5.57 g/m*3 4.16 C 0 km/h
1922 10-11-2007 08:00:00 4.84 C 5.94 g/m*3 4.84 C 0 km/h
1923 10-11-2007 09:00:00 5.4 C 6.27 g/m*3 5.4 C 0 km/h
1924 10-11-2007 10:00:00 6.12 C 6.48 g/m*3 6.12 C 0 km/h
1925 10-11-2007 11:00:00 6.56 C 6.9 g/m*3 6.56 C 0 km/h
Sensor: Nr:Datum:Temp:Abs-Feuchte:Windchill:Wind:
Aussen-T/F 1926 10-11-2007 12:00:00 9.56 C 6.94 g/m*3 9.56 C 0 km/h
1927 10-11-2007 13:00:00 9.04 C 6.84 g/m*3 9.04 C 0 km/h
1928 10-11-2007 14:00:00 8.04 C 6.51 g/m*3 8.04 C 0 km/h
1929 10-11-2007 15:00:00 8.34 C 5.98 g/m*3 8.34 C 0 km/h
1930 10-11-2007 16:00:00 7.76 C 5.84 g/m*3 7.76 C 0 km/h
1931 10-11-2007 17:00:00 7.28 C 5.9 g/m*3 7.28 C 0 km/h
1932 10-11-2007 18:00:00 7.64 C 5.57 g/m*3 7.64 C 0 km/h
1933 10-11-2007 19:00:00 7.88 C 5.58 g/m*3 7.88 C 0 km/h
1934 10-11-2007 20:00:00 7.82 C 5.67 g/m*3 7.82 C 0 km/h
1935 10-11-2007 21:00:00 6.8 C 6.15 g/m*3 6.8 C 0 km/h
1936 10-11-2007 22:00:00 6.3 C 6.5 g/m*3 6.3 C 0 km/h
1937 10-11-2007 23:00:00 6.16 C 6.69 g/m*3 6.16 C 0 km/h
1938 11-11-2007 00:00:00 6.5 C 6.99 g/m*3 6.5 C 0 km/h
1939 11-11-2007 01:00:00 7 C 7.33 g/m*3 7 C 0 km/h
1940 11-11-2007 02:00:00 7.92 C 7.81 g/m*3 7.92 C 0 km/h
1941 11-11-2007 03:00:00 8.88 C 8.21 g/m*3 8.88 C 0 km/h
1942 11-11-2007 04:00:00 9.36 C 7.45 g/m*3 9.36 C 0 km/h
1943 11-11-2007 05:00:00 9.68 C 7.2 g/m*3 9.68 C 0 km/h
1944 11-11-2007 06:00:00 9.52 C 7.29 g/m*3 9.52 C 0 km/h
1945 11-11-2007 07:00:00 9.88 C 7.03 g/m*3 9.88 C 0 km/h
1946 11-11-2007 08:00:00 9.8 C 7 g/m*3 9.8 C 0 km/h
1947 11-11-2007 09:00:00 9.4 C 7.27 g/m*3 9.4 C 0 km/h
1948 11-11-2007 10:00:00 10.14 C 7.07 g/m*3 10.14 C 0 km/h
1949 11-11-2007 11:00:00 9.44 C 7.44 g/m*3 9.44 C 0 km/h
1950 11-11-2007 12:00:00 9.46 C 6.5 g/m*3 9.46 C 0 km/h
Sensor: Nr:Datum:Temp:Abs-Feuchte:Windchill:Wind:
Aussen-T/F 1951 11-11-2007 13:00:00 10.42 C 6.37 g/m*3 10.42 C 0 km/h
1952 11-11-2007 14:00:00 8.76 C 6.49 g/m*3 8.76 C 0 km/h
1953 11-11-2007 15:00:00 8.12 C 6.77 g/m*3 8.12 C 0 km/h
1954 11-11-2007 16:00:00 6.84 C 6.38 g/m*3 6.84 C 0 km/h
1955 11-11-2007 17:00:00 6.22 C 6.07 g/m*3 6.22 C 0 km/h
1956 11-11-2007 18:00:00 5.64 C 5.9 g/m*3 5.64 C 0 km/h
1957 11-11-2007 19:00:00 5.56 C 5.71 g/m*3 5.56 C 0 km/h
1958 11-11-2007 20:00:00 4.78 C 5.57 g/m*3 4.78 C 0 km/h
1959 11-11-2007 21:00:00 3.9 C 5.52 g/m*3 3.9 C 0 km/h
1960 11-11-2007 22:00:00 4.44 C 5.58 g/m*3 4.44 C 0 km/h
1961 11-11-2007 23:00:00 4.56 C 5.39 g/m*3 4.56 C 0 km/h
1962 12-11-2007 00:00:00 4.3 C 5.19 g/m*3 4.3 C 0 km/h
1963 12-11-2007 01:00:00 4.06 C 5.13 g/m*3 4.06 C 0 km/h
1964 12-11-2007 02:00:00 4.02 C 5.04 g/m*3 4.02 C 0 km/h
1965 12-11-2007 03:00:00 3.42 C 4.98 g/m*3 3.42 C 0 km/h
1966 12-11-2007 04:00:00 3.72 C 5 g/m*3 3.72 C 0 km/h
1967 12-11-2007 05:00:00 3.78 C 4.92 g/m*3 3.78 C 0 km/h
1968 12-11-2007 06:00:00 3.5 C 4.87 g/m*3 3.5 C 0 km/h
1969 12-11-2007 07:00:00 3.28 C 4.85 g/m*3 3.28 C 0 km/h
1970 12-11-2007 08:00:00 3 C 4.84 g/m*3 3 C 0 km/h
1971 12-11-2007 09:00:00 4.12 C 4.81 g/m*3 4.12 C 0 km/h
1972 12-11-2007 10:00:00 5.32 C 4.86 g/m*3 5.32 C 0 km/h
1973 12-11-2007 11:00:00 6.62 C 4.82 g/m*3 6.62 C 0 km/h
1974 12-11-2007 12:00:00 7.46 C 4.18 g/m*3 7.46 C 0 km/h
1975 12-11-2007 13:00:00 8.06 C 3.93 g/m*3 8.06 C 0 km/h
Sensor: Nr:Datum:Temp:Abs-Feuchte:Windchill:Wind:
Aussen-T/F 1976 12-11-2007 14:00:00 8.08 C 3.97 g/m*3 8.08 C 0 km/h
1977 12-11-2007 15:00:00 7.7 C 3.99 g/m*3 7.7 C 0 km/h
1978 12-11-2007 16:00:00 7.04 C 4.06 g/m*3 7.04 C 0 km/h
1979 12-11-2007 17:00:00 5.46 C 5.07 g/m*3 5.46 C 0 km/h
1980 12-11-2007 18:00:00 5.64 C 5.08 g/m*3 5.64 C 0 km/h
1981 12-11-2007 19:00:00 5.56 C 4.91 g/m*3 5.56 C 0 km/h
1982 12-11-2007 20:00:00 5.4 C 4.84 g/m*3 5.4 C 0 km/h
1983 12-11-2007 21:00:00 5.2 C 4.75 g/m*3 5.2 C 0 km/h
1984 12-11-2007 22:00:00 4.64 C 4.71 g/m*3 4.64 C 0 km/h
1985 12-11-2007 23:00:00 4.16 C 4.74 g/m*3 4.16 C 0 km/h
1986 13-11-2007 00:00:00 3.74 C 4.77 g/m*3 3.74 C 0 km/h
1987 13-11-2007 01:00:00 3.76 C 4.84 g/m*3 3.76 C 0 km/h
1988 13-11-2007 02:00:00 3.76 C 4.86 g/m*3 3.76 C 0 km/h
1989 13-11-2007 03:00:00 3.92 C 4.77 g/m*3 3.92 C 0 km/h
1990 13-11-2007 04:00:00 3.82 C 4.79 g/m*3 3.82 C 0 km/h
1991 13-11-2007 05:00:00 3.86 C 4.86 g/m*3 3.86 C 0 km/h
1992 13-11-2007 06:00:00 4 C 5 g/m*3 4 C 0 km/h
1993 13-11-2007 07:00:00 3.72 C 5.43 g/m*3 3.72 C 0 km/h
1994 13-11-2007 08:00:00 3.8 C 5.58 g/m*3 3.8 C 0 km/h
1995 13-11-2007 09:00:00 4.34 C 5.55 g/m*3 4.34 C 0 km/h
1996 13-11-2007 10:00:00 5.1 C 4.98 g/m*3 5.1 C 0 km/h
1997 13-11-2007 11:00:00 5.64 C 4.64 g/m*3 5.64 C 0 km/h
1998 13-11-2007 12:00:00 6.26 C 4.39 g/m*3 6.26 C 0 km/h
1999 13-11-2007 13:00:00 4.86 C 4.95 g/m*3 4.86 C 0 km/h
2000 13-11-2007 14:00:00 3.76 C 5.18 g/m*3 3.76 C 0 km/h
Sensor: Nr:Datum:Temp:Abs-Feuchte:Windchill:Wind:
Aussen-T/F 2001 13-11-2007 15:00:00 3.74 C 5.29 g/m*3 3.74 C 0 km/h
2002 13-11-2007 16:00:00 3.54 C 5.31 g/m*3 3.54 C 0 km/h
2003 13-11-2007 17:00:00 3.26 C 5.32 g/m*3 3.26 C 0 km/h
2004 13-11-2007 18:00:00 3.3 C 5.39 g/m*3 3.3 C 0 km/h
2005 13-11-2007 19:00:00 3.72 C 5.32 g/m*3 3.72 C 0 km/h
2006 13-11-2007 20:00:00 3.56 C 5.38 g/m*3 3.56 C 0 km/h
2007 13-11-2007 21:00:00 3.54 C 5.35 g/m*3 3.54 C 0 km/h
2008 13-11-2007 22:00:00 3.32 C 5.43 g/m*3 3.32 C 0 km/h
2009 13-11-2007 23:00:00 3.24 C 5.57 g/m*3 3.24 C 0 km/h
2010 14-11-2007 00:00:00 3.46 C 5.75 g/m*3 3.46 C 0 km/h
2011 14-11-2007 01:00:00 3.7 C 5.92 g/m*3 3.7 C 0 km/h
2012 14-11-2007 02:00:00 3.66 C 5.85 g/m*3 3.66 C 0 km/h
2013 14-11-2007 03:00:00 3.16 C 5.22 g/m*3 3.16 C 0 km/h
2014 14-11-2007 04:00:00 2.82 C 4.98 g/m*3 2.82 C 0 km/h
2015 14-11-2007 05:00:00 2.14 C 4.8 g/m*3 2.14 C 0 km/h
2016 14-11-2007 06:00:00 2.36 C 4.83 g/m*3 2.36 C 0 km/h
2017 14-11-2007 07:00:00 2.44 C 4.91 g/m*3 2.44 C 0 km/h
2018 14-11-2007 08:00:00 2.66 C 4.95 g/m*3 2.66 C 0 km/h
2019 14-11-2007 09:00:00 3 C 4.59 g/m*3 3 C 0 km/h
2020 14-11-2007 10:00:00 3.1 C 4.25 g/m*3 3.1 C 0 km/h
2021 14-11-2007 11:00:00 3.42 C 4.09 g/m*3 3.42 C 0 km/h
2022 14-11-2007 12:00:00 3.44 C 3.98 g/m*3 3.44 C 0 km/h
2023 14-11-2007 13:00:00 3.74 C 3.66 g/m*3 3.74 C 0 km/h
2024 14-11-2007 14:00:00 3.54 C 3.42 g/m*3 3.54 C 0 km/h
2025 14-11-2007 15:00:00 3.42 C 3.47 g/m*3 3.42 C 0 km/h
Sensor: Nr:Datum:Temp:Abs-Feuchte:Windchill:Wind:
Aussen-T/F 2026 14-11-2007 16:00:00 3.06 C 3.37 g/m*3 3.06 C 0 km/h
2027 14-11-2007 17:00:00 2.5 C 3.6 g/m*3 2.5 C 0 km/h
2028 14-11-2007 18:00:00 2.24 C 3.71 g/m*3 2.24 C 0 km/h
2029 14-11-2007 19:00:00 2.22 C 3.8 g/m*3 2.22 C 0 km/h
2030 14-11-2007 20:00:00 1.96 C 3.99 g/m*3 1.96 C 0 km/h
2031 14-11-2007 21:00:00 1.6 C 3.87 g/m*3 1.6 C 0 km/h
2032 14-11-2007 22:00:00 0.84 C 3.93 g/m*3 0.84 C 0 km/h
2033 14-11-2007 23:00:00 0.9 C 4.04 g/m*3 0.9 C 0 km/h
2034 15-11-2007 00:00:00 0.4 C 3.99 g/m*3 0.4 C 0 km/h
2035 15-11-2007 01:00:00 0.44 C 4.02 g/m*3 0.44 C 0 km/h
2036 15-11-2007 02:00:00 0.72 C 4.04 g/m*3 0.72 C 0 km/h
2037 15-11-2007 03:00:00 0.28 C 3.96 g/m*3 0.28 C 0 km/h
2038 15-11-2007 04:00:00 0.32 C 3.99 g/m*3 0.32 C 0 km/h
2039 15-11-2007 05:00:00 0.4 C 3.98 g/m*3 0.4 C 0 km/h
2040 15-11-2007 06:00:00 0.38 C 3.86 g/m*3 0.38 C 0 km/h
2041 15-11-2007 07:00:00 0.56 C 3.77 g/m*3 0.56 C 0 km/h
2042 15-11-2007 08:00:00 0.7 C 3.79 g/m*3 0.7 C 0 km/h
2043 15-11-2007 09:00:00 1 C 3.85 g/m*3 1 C 0 km/h
2044 15-11-2007 10:00:00 1.74 C 3.88 g/m*3 1.74 C 0 km/h
2045 15-11-2007 11:00:00 2.9 C 3.84 g/m*3 2.9 C 0 km/h
2046 15-11-2007 12:00:00 4.18 C 3.65 g/m*3 4.18 C 0 km/h
2047 15-11-2007 13:00:00 5.5 C 3.39 g/m*3 5.5 C 0 km/h
2048 15-11-2007 14:00:00 4.44 C 3.48 g/m*3 4.44 C 0 km/h
2049 15-11-2007 15:00:00 3.46 C 3.88 g/m*3 3.46 C 0 km/h
2050 15-11-2007 16:00:00 2.94 C 4.06 g/m*3 2.94 C 0 km/h
Sensor: Nr:Datum:Temp:Abs-Feuchte:Windchill:Wind:
Aussen-T/F 2051 15-11-2007 17:00:00 2.68 C 3.48 g/m*3 2.68 C 0 km/h
2052 15-11-2007 18:00:00 0.72 C 3.59 g/m*3 0.72 C 0 km/h
2053 15-11-2007 19:00:00 0.08 C 3.67 g/m*3 0.08 C 0 km/h
2054 15-11-2007 20:00:00 0.36 C 3.76 g/m*3 0.36 C 0 km/h
2055 15-11-2007 21:00:00 0.16 C 3.74 g/m*3 0.16 C 0 km/h
2056 15-11-2007 22:00:00 -0.62 C 3.62 g/m*3 -0.62 C 0 km/h
2057 15-11-2007 23:00:00 -1.52 C 3.56 g/m*3 -1.52 C 0 km/h
2058 16-11-2007 00:00:00 -1.8 C 3.66 g/m*3 -1.8 C 0 km/h
2059 16-11-2007 01:00:00 -2.02 C 3.67 g/m*3 -2.02 C 0 km/h
2060 16-11-2007 02:00:00 -2.42 C 3.63 g/m*3 -2.42 C 0 km/h
2061 16-11-2007 03:00:00 -2.78 C 3.57 g/m*3 -2.78 C 0 km/h
2062 16-11-2007 04:00:00 -3.04 C 3.54 g/m*3 -3.04 C 0 km/h
2063 16-11-2007 05:00:00 -3.5 C 3.45 g/m*3 -3.5 C 0 km/h
2064 16-11-2007 06:00:00 -3.66 C 3.43 g/m*3 -3.66 C 0 km/h
2065 16-11-2007 07:00:00 -3.86 C 3.36 g/m*3 -3.86 C 0 km/h
2066 16-11-2007 08:00:00 -3.46 C 3.47 g/m*3 -3.46 C 0 km/h
2067 16-11-2007 09:00:00 -2.76 C 3.64 g/m*3 -2.76 C 0 km/h
2068 16-11-2007 10:00:00 -1.78 C 3.82 g/m*3 -1.78 C 0 km/h
2069 16-11-2007 11:00:00 -0.48 C 3.9 g/m*3 -0.48 C 0 km/h
2070 16-11-2007 12:00:00 0.88 C 3.99 g/m*3 0.88 C 0 km/h
2071 16-11-2007 13:00:00 2.02 C 3.86 g/m*3 2.02 C 0 km/h
2072 16-11-2007 14:00:00 3.02 C 3.93 g/m*3 3.02 C 0 km/h
2073 16-11-2007 15:00:00 2.72 C 3.92 g/m*3 2.72 C 0 km/h
2074 16-11-2007 16:00:00 1.9 C 4.05 g/m*3 1.9 C 0 km/h
2075 16-11-2007 17:00:00 1.36 C 4.09 g/m*3 1.36 C 0 km/h
Sensor: Nr:Datum:Temp:Abs-Feuchte:Windchill:Wind:
Aussen-T/F 2076 16-11-2007 18:00:00 1.04 C 4.08 g/m*3 1.04 C 0 km/h
2077 16-11-2007 19:00:00 0.82 C 4.11 g/m*3 0.82 C 0 km/h
2078 16-11-2007 20:00:00 0.84 C 4.14 g/m*3 0.84 C 0 km/h
2079 16-11-2007 21:00:00 0.96 C 4.12 g/m*3 0.96 C 0 km/h
2080 16-11-2007 22:00:00 0.86 C 4.19 g/m*3 0.86 C 0 km/h
2081 16-11-2007 23:00:00 0.94 C 4.18 g/m*3 0.94 C 0 km/h
2082 17-11-2007 00:00:00 1.06 C 4.19 g/m*3 1.06 C 0 km/h
2083 17-11-2007 01:00:00 1.3 C 4.21 g/m*3 1.3 C 0 km/h
2084 17-11-2007 02:00:00 1.475 C 4.14 g/m*3 1.48 C 0 km/h
2085 17-11-2007 03:00:00 1.58 C 4.18 g/m*3 1.58 C 0 km/h
2086 17-11-2007 04:00:00 1.7 C 4.18 g/m*3 1.7 C 0 km/h
2087 17-11-2007 05:00:00 1.86 C 4.28 g/m*3 1.86 C 0 km/h
2088 17-11-2007 06:00:00 1.9 C 4.34 g/m*3 1.9 C 0 km/h
2089 17-11-2007 07:00:00 1.9 C 4.36 g/m*3 1.9 C 0 km/h
2090 17-11-2007 08:00:00 2.1 C 4.42 g/m*3 2.1 C 0 km/h
2091 17-11-2007 09:00:00 2.36 C 4.44 g/m*3 2.36 C 0 km/h
2092 17-11-2007 10:00:00 2.94 C 4.45 g/m*3 2.94 C 0 km/h
2093 17-11-2007 11:00:00 3.74 C 4.47 g/m*3 3.74 C 0 km/h
2094 17-11-2007 12:00:00 4.76 C 4.57 g/m*3 4.76 C 0 km/h
2095 17-11-2007 13:00:00 5.66 C 4.76 g/m*3 5.66 C 0 km/h
2096 17-11-2007 14:00:00 6.46 C 4.97 g/m*3 6.46 C 0 km/h
2097 17-11-2007 15:00:00 6.2 C 5.03 g/m*3 6.2 C 0 km/h
2098 17-11-2007 16:00:00 5.44 C 5.06 g/m*3 5.44 C 0 km/h
2099 17-11-2007 17:00:00 4.6 C 5.15 g/m*3 4.6 C 0 km/h
2100 17-11-2007 18:00:00 4.24 C 5.16 g/m*3 4.24 C 0 km/h
Sensor: Nr:Datum:Temp:Abs-Feuchte:Windchill:Wind:
Aussen-T/F 2101 17-11-2007 19:00:00 4.08 C 5.16 g/m*3 4.08 C 0 km/h
2102 17-11-2007 20:00:00 4.06 C 5.18 g/m*3 4.06 C 0 km/h
2103 17-11-2007 21:00:00 3.84 C 5.21 g/m*3 3.84 C 0 km/h
2104 17-11-2007 22:00:00 3.54 C 5.15 g/m*3 3.54 C 0 km/h
2105 17-11-2007 23:00:00 3.4 C 5.14 g/m*3 3.4 C 0 km/h

Maximal/Minimal-Werte vom 17.04.2019 - 19.05.2019

Sensor Min Max Avg
Temp
(Aussen-T/F)
2.2 °C
13-05-2019  06:50:00
26.6 °C
24-04-2019  17:05:00
11.51 °C

Die Daten stammen von einer Davis Vantage Pro 2 Wetter-Station und werden unter Linux mit der Software wview2wettercgi und aufbereitet. Alle Angaben erfolgen ohne Gewähr für ihre Vollständigkeit oder Richtigkeit.
Kontakt: Rainer Krienke krienke@uni-koblenz.de . Meine Webseiten an der Uni Koblenz oder privat.
Version: $Revision: 0.78 $